<?xml version="1.0" encoding="UTF-8" standalone="no" ?>
<gpx xmlns="http://www.topografix.com/GPX/1/1" xmlns:xsi="http://www.w3.org/2001/XMLSchema-instance" xsi:schemaLocation="http://www.topografix.com/GPX/1/1 http://www.topografix.com/GPX/1/1/gpx.xsd" version="1.1" creator="VisuGPX - https://www.visugpx.com">
  <metadata>
    <name>2023-02-14 M. Parvetto</name>
  </metadata>
  <trk>
    <name><![CDATA[2023-02-14 12:55:46]]></name>
    <trkseg>
      <trkpt lat="44.39869" lon="7.17421">
        <ele>1646.88</ele>
        <time>2023-02-14T07:23:14Z</time>
      </trkpt>
      <trkpt lat="44.39864" lon="7.17423">
        <ele>1644.47</ele>
        <time>2023-02-14T07:23:32Z</time>
      </trkpt>
      <trkpt lat="44.39861" lon="7.17422">
        <ele>1641.11</ele>
        <time>2023-02-14T07:23:50Z</time>
      </trkpt>
      <trkpt lat="44.39864" lon="7.17429">
        <ele>1636.78</ele>
        <time>2023-02-14T07:24:06Z</time>
      </trkpt>
      <trkpt lat="44.39859" lon="7.17424">
        <ele>1638.7</ele>
        <time>2023-02-14T07:24:27Z</time>
      </trkpt>
      <trkpt lat="44.39863" lon="7.17429">
        <ele>1638.22</ele>
        <time>2023-02-14T07:24:49Z</time>
      </trkpt>
      <trkpt lat="44.39866" lon="7.17434">
        <ele>1637.74</ele>
        <time>2023-02-14T07:25:18Z</time>
      </trkpt>
      <trkpt lat="44.39866" lon="7.17431">
        <ele>1642.55</ele>
        <time>2023-02-14T07:25:44Z</time>
      </trkpt>
      <trkpt lat="44.39869" lon="7.17438">
        <ele>1655.53</ele>
        <time>2023-02-14T07:26:11Z</time>
      </trkpt>
      <trkpt lat="44.39868" lon="7.17435">
        <ele>1656.97</ele>
        <time>2023-02-14T07:26:35Z</time>
      </trkpt>
      <trkpt lat="44.3987" lon="7.17434">
        <ele>1656.97</ele>
        <time>2023-02-14T07:26:59Z</time>
      </trkpt>
      <trkpt lat="44.39868" lon="7.17434">
        <ele>1656.97</ele>
        <time>2023-02-14T07:27:27Z</time>
      </trkpt>
      <trkpt lat="44.39866" lon="7.17438">
        <ele>1664.66</ele>
        <time>2023-02-14T07:27:52Z</time>
      </trkpt>
      <trkpt lat="44.39869" lon="7.17428">
        <ele>1661.78</ele>
        <time>2023-02-14T07:28:12Z</time>
      </trkpt>
      <trkpt lat="44.39865" lon="7.17423">
        <ele>1656.97</ele>
        <time>2023-02-14T07:28:25Z</time>
      </trkpt>
      <trkpt lat="44.39848" lon="7.17422">
        <ele>1638.22</ele>
        <time>2023-02-14T07:28:38Z</time>
      </trkpt>
      <trkpt lat="44.39841" lon="7.17416">
        <ele>1632.94</ele>
        <time>2023-02-14T07:28:51Z</time>
      </trkpt>
      <trkpt lat="44.39841" lon="7.17415">
        <ele>1632.46</ele>
        <time>2023-02-14T07:28:53Z</time>
      </trkpt>
      <trkpt lat="44.39835" lon="7.17411">
        <ele>1631.01</ele>
        <time>2023-02-14T07:28:59Z</time>
      </trkpt>
      <trkpt lat="44.39819" lon="7.1741">
        <ele>1624.77</ele>
        <time>2023-02-14T07:29:19Z</time>
      </trkpt>
      <trkpt lat="44.39804" lon="7.17408">
        <ele>1623.32</ele>
        <time>2023-02-14T07:29:34Z</time>
      </trkpt>
      <trkpt lat="44.39803" lon="7.17407">
        <ele>1622.84</ele>
        <time>2023-02-14T07:29:36Z</time>
      </trkpt>
      <trkpt lat="44.39797" lon="7.17404">
        <ele>1621.4</ele>
        <time>2023-02-14T07:29:43Z</time>
      </trkpt>
      <trkpt lat="44.39782" lon="7.17388">
        <ele>1621.88</ele>
        <time>2023-02-14T07:29:59Z</time>
      </trkpt>
      <trkpt lat="44.39776" lon="7.1738">
        <ele>1622.36</ele>
        <time>2023-02-14T07:30:09Z</time>
      </trkpt>
      <trkpt lat="44.39773" lon="7.17378">
        <ele>1622.36</ele>
        <time>2023-02-14T07:30:12Z</time>
      </trkpt>
      <trkpt lat="44.39768" lon="7.17373">
        <ele>1622.36</ele>
        <time>2023-02-14T07:30:19Z</time>
      </trkpt>
      <trkpt lat="44.39767" lon="7.17372">
        <ele>1622.36</ele>
        <time>2023-02-14T07:30:21Z</time>
      </trkpt>
      <trkpt lat="44.39752" lon="7.17352">
        <ele>1623.32</ele>
        <time>2023-02-14T07:30:39Z</time>
      </trkpt>
      <trkpt lat="44.3975" lon="7.17348">
        <ele>1623.32</ele>
        <time>2023-02-14T07:30:43Z</time>
      </trkpt>
      <trkpt lat="44.39749" lon="7.17342">
        <ele>1622.84</ele>
        <time>2023-02-14T07:30:49Z</time>
      </trkpt>
      <trkpt lat="44.39748" lon="7.17336">
        <ele>1623.32</ele>
        <time>2023-02-14T07:30:53Z</time>
      </trkpt>
      <trkpt lat="44.39747" lon="7.17332">
        <ele>1623.8</ele>
        <time>2023-02-14T07:30:56Z</time>
      </trkpt>
      <trkpt lat="44.39747" lon="7.17317">
        <ele>1625.25</ele>
        <time>2023-02-14T07:31:08Z</time>
      </trkpt>
      <trkpt lat="44.39743" lon="7.17312">
        <ele>1625.73</ele>
        <time>2023-02-14T07:31:21Z</time>
      </trkpt>
      <trkpt lat="44.39742" lon="7.17314">
        <ele>1627.17</ele>
        <time>2023-02-14T07:31:51Z</time>
      </trkpt>
      <trkpt lat="44.39742" lon="7.17313">
        <ele>1627.17</ele>
        <time>2023-02-14T07:32:08Z</time>
      </trkpt>
      <trkpt lat="44.39742" lon="7.17312">
        <ele>1626.69</ele>
        <time>2023-02-14T07:32:30Z</time>
      </trkpt>
      <trkpt lat="44.39743" lon="7.17309">
        <ele>1625.25</ele>
        <time>2023-02-14T07:32:45Z</time>
      </trkpt>
      <trkpt lat="44.39743" lon="7.17309">
        <ele>1626.21</ele>
        <time>2023-02-14T07:33:03Z</time>
      </trkpt>
      <trkpt lat="44.39746" lon="7.17314">
        <ele>1625.73</ele>
        <time>2023-02-14T07:33:25Z</time>
      </trkpt>
      <trkpt lat="44.39742" lon="7.17312">
        <ele>1625.25</ele>
        <time>2023-02-14T07:33:45Z</time>
      </trkpt>
      <trkpt lat="44.3974" lon="7.17306">
        <ele>1626.21</ele>
        <time>2023-02-14T07:33:54Z</time>
      </trkpt>
      <trkpt lat="44.39736" lon="7.17296">
        <ele>1626.21</ele>
        <time>2023-02-14T07:34:10Z</time>
      </trkpt>
      <trkpt lat="44.39732" lon="7.1729">
        <ele>1625.73</ele>
        <time>2023-02-14T07:34:26Z</time>
      </trkpt>
      <trkpt lat="44.39731" lon="7.17276">
        <ele>1626.21</ele>
        <time>2023-02-14T07:34:39Z</time>
      </trkpt>
      <trkpt lat="44.3973" lon="7.17271">
        <ele>1627.17</ele>
        <time>2023-02-14T07:34:44Z</time>
      </trkpt>
      <trkpt lat="44.3973" lon="7.17268">
        <ele>1627.17</ele>
        <time>2023-02-14T07:34:46Z</time>
      </trkpt>
      <trkpt lat="44.39725" lon="7.17244">
        <ele>1627.17</ele>
        <time>2023-02-14T07:35:03Z</time>
      </trkpt>
      <trkpt lat="44.39721" lon="7.17226">
        <ele>1628.61</ele>
        <time>2023-02-14T07:35:18Z</time>
      </trkpt>
      <trkpt lat="44.39716" lon="7.17212">
        <ele>1629.09</ele>
        <time>2023-02-14T07:35:30Z</time>
      </trkpt>
      <trkpt lat="44.39712" lon="7.17199">
        <ele>1630.53</ele>
        <time>2023-02-14T07:35:42Z</time>
      </trkpt>
      <trkpt lat="44.3971" lon="7.17196">
        <ele>1631.01</ele>
        <time>2023-02-14T07:35:46Z</time>
      </trkpt>
      <trkpt lat="44.39704" lon="7.17192">
        <ele>1631.49</ele>
        <time>2023-02-14T07:35:52Z</time>
      </trkpt>
      <trkpt lat="44.39698" lon="7.17192">
        <ele>1631.01</ele>
        <time>2023-02-14T07:36:00Z</time>
      </trkpt>
      <trkpt lat="44.39692" lon="7.17189">
        <ele>1630.05</ele>
        <time>2023-02-14T07:36:15Z</time>
      </trkpt>
      <trkpt lat="44.3969" lon="7.17189">
        <ele>1630.53</ele>
        <time>2023-02-14T07:36:28Z</time>
      </trkpt>
      <trkpt lat="44.39685" lon="7.17184">
        <ele>1630.53</ele>
        <time>2023-02-14T07:36:37Z</time>
      </trkpt>
      <trkpt lat="44.39684" lon="7.17171">
        <ele>1630.05</ele>
        <time>2023-02-14T07:36:49Z</time>
      </trkpt>
      <trkpt lat="44.39684" lon="7.1717">
        <ele>1630.53</ele>
        <time>2023-02-14T07:36:52Z</time>
      </trkpt>
      <trkpt lat="44.39684" lon="7.17164">
        <ele>1630.53</ele>
        <time>2023-02-14T07:36:57Z</time>
      </trkpt>
      <trkpt lat="44.39687" lon="7.17148">
        <ele>1631.49</ele>
        <time>2023-02-14T07:37:12Z</time>
      </trkpt>
      <trkpt lat="44.39686" lon="7.17134">
        <ele>1634.38</ele>
        <time>2023-02-14T07:37:26Z</time>
      </trkpt>
      <trkpt lat="44.39687" lon="7.17123">
        <ele>1636.3</ele>
        <time>2023-02-14T07:37:40Z</time>
      </trkpt>
      <trkpt lat="44.39688" lon="7.17111">
        <ele>1639.19</ele>
        <time>2023-02-14T07:37:55Z</time>
      </trkpt>
      <trkpt lat="44.39689" lon="7.17099">
        <ele>1640.63</ele>
        <time>2023-02-14T07:38:09Z</time>
      </trkpt>
      <trkpt lat="44.39688" lon="7.17085">
        <ele>1641.59</ele>
        <time>2023-02-14T07:38:23Z</time>
      </trkpt>
      <trkpt lat="44.39689" lon="7.17076">
        <ele>1643.99</ele>
        <time>2023-02-14T07:38:36Z</time>
      </trkpt>
      <trkpt lat="44.39691" lon="7.17065">
        <ele>1647.36</ele>
        <time>2023-02-14T07:38:52Z</time>
      </trkpt>
      <trkpt lat="44.39692" lon="7.17056">
        <ele>1648.8</ele>
        <time>2023-02-14T07:39:07Z</time>
      </trkpt>
      <trkpt lat="44.39691" lon="7.17047">
        <ele>1650.72</ele>
        <time>2023-02-14T07:39:18Z</time>
      </trkpt>
      <trkpt lat="44.39685" lon="7.17042">
        <ele>1652.64</ele>
        <time>2023-02-14T07:39:30Z</time>
      </trkpt>
      <trkpt lat="44.39684" lon="7.17036">
        <ele>1654.57</ele>
        <time>2023-02-14T07:39:40Z</time>
      </trkpt>
      <trkpt lat="44.39684" lon="7.17031">
        <ele>1656.01</ele>
        <time>2023-02-14T07:39:52Z</time>
      </trkpt>
      <trkpt lat="44.39683" lon="7.17023">
        <ele>1656.97</ele>
        <time>2023-02-14T07:40:04Z</time>
      </trkpt>
      <trkpt lat="44.39681" lon="7.17017">
        <ele>1659.37</ele>
        <time>2023-02-14T07:40:19Z</time>
      </trkpt>
      <trkpt lat="44.39678" lon="7.1702">
        <ele>1660.81</ele>
        <time>2023-02-14T07:40:35Z</time>
      </trkpt>
      <trkpt lat="44.39673" lon="7.17011">
        <ele>1662.74</ele>
        <time>2023-02-14T07:40:47Z</time>
      </trkpt>
      <trkpt lat="44.39672" lon="7.17003">
        <ele>1665.14</ele>
        <time>2023-02-14T07:41:01Z</time>
      </trkpt>
      <trkpt lat="44.39666" lon="7.17009">
        <ele>1668.02</ele>
        <time>2023-02-14T07:41:17Z</time>
      </trkpt>
      <trkpt lat="44.3966" lon="7.17017">
        <ele>1668.51</ele>
        <time>2023-02-14T07:41:30Z</time>
      </trkpt>
      <trkpt lat="44.39655" lon="7.17004">
        <ele>1672.83</ele>
        <time>2023-02-14T07:41:45Z</time>
      </trkpt>
      <trkpt lat="44.39652" lon="7.16993">
        <ele>1678.12</ele>
        <time>2023-02-14T07:41:58Z</time>
      </trkpt>
      <trkpt lat="44.39648" lon="7.16988">
        <ele>1679.08</ele>
        <time>2023-02-14T07:42:10Z</time>
      </trkpt>
      <trkpt lat="44.39651" lon="7.16978">
        <ele>1681.48</ele>
        <time>2023-02-14T07:42:25Z</time>
      </trkpt>
      <trkpt lat="44.39652" lon="7.16967">
        <ele>1681.96</ele>
        <time>2023-02-14T07:42:39Z</time>
      </trkpt>
      <trkpt lat="44.39656" lon="7.16956">
        <ele>1681.48</ele>
        <time>2023-02-14T07:42:57Z</time>
      </trkpt>
      <trkpt lat="44.3966" lon="7.16947">
        <ele>1681</ele>
        <time>2023-02-14T07:43:11Z</time>
      </trkpt>
      <trkpt lat="44.39662" lon="7.16941">
        <ele>1681</ele>
        <time>2023-02-14T07:43:25Z</time>
      </trkpt>
      <trkpt lat="44.39665" lon="7.16941">
        <ele>1680.52</ele>
        <time>2023-02-14T07:43:40Z</time>
      </trkpt>
      <trkpt lat="44.39664" lon="7.16936">
        <ele>1682.93</ele>
        <time>2023-02-14T07:43:55Z</time>
      </trkpt>
      <trkpt lat="44.39667" lon="7.16932">
        <ele>1686.29</ele>
        <time>2023-02-14T07:44:11Z</time>
      </trkpt>
      <trkpt lat="44.39675" lon="7.16931">
        <ele>1688.69</ele>
        <time>2023-02-14T07:44:26Z</time>
      </trkpt>
      <trkpt lat="44.39682" lon="7.16926">
        <ele>1691.1</ele>
        <time>2023-02-14T07:44:41Z</time>
      </trkpt>
      <trkpt lat="44.39687" lon="7.16912">
        <ele>1693.02</ele>
        <time>2023-02-14T07:44:56Z</time>
      </trkpt>
      <trkpt lat="44.39691" lon="7.16898">
        <ele>1694.94</ele>
        <time>2023-02-14T07:45:12Z</time>
      </trkpt>
      <trkpt lat="44.39695" lon="7.16882">
        <ele>1696.38</ele>
        <time>2023-02-14T07:45:28Z</time>
      </trkpt>
      <trkpt lat="44.39694" lon="7.16869">
        <ele>1698.31</ele>
        <time>2023-02-14T07:45:43Z</time>
      </trkpt>
      <trkpt lat="44.39693" lon="7.16859">
        <ele>1701.19</ele>
        <time>2023-02-14T07:45:56Z</time>
      </trkpt>
      <trkpt lat="44.39691" lon="7.16852">
        <ele>1704.55</ele>
        <time>2023-02-14T07:46:10Z</time>
      </trkpt>
      <trkpt lat="44.39683" lon="7.16849">
        <ele>1703.59</ele>
        <time>2023-02-14T07:46:26Z</time>
      </trkpt>
      <trkpt lat="44.39678" lon="7.16847">
        <ele>1706.96</ele>
        <time>2023-02-14T07:46:41Z</time>
      </trkpt>
      <trkpt lat="44.39673" lon="7.16843">
        <ele>1708.88</ele>
        <time>2023-02-14T07:46:56Z</time>
      </trkpt>
      <trkpt lat="44.39671" lon="7.16832">
        <ele>1711.76</ele>
        <time>2023-02-14T07:47:11Z</time>
      </trkpt>
      <trkpt lat="44.39662" lon="7.16839">
        <ele>1711.28</ele>
        <time>2023-02-14T07:47:25Z</time>
      </trkpt>
      <trkpt lat="44.39658" lon="7.16832">
        <ele>1714.65</ele>
        <time>2023-02-14T07:47:39Z</time>
      </trkpt>
      <trkpt lat="44.39657" lon="7.1682">
        <ele>1722.82</ele>
        <time>2023-02-14T07:47:56Z</time>
      </trkpt>
      <trkpt lat="44.39649" lon="7.16822">
        <ele>1722.34</ele>
        <time>2023-02-14T07:48:11Z</time>
      </trkpt>
      <trkpt lat="44.3965" lon="7.1681">
        <ele>1725.7</ele>
        <time>2023-02-14T07:48:24Z</time>
      </trkpt>
      <trkpt lat="44.39651" lon="7.16799">
        <ele>1729.55</ele>
        <time>2023-02-14T07:48:37Z</time>
      </trkpt>
      <trkpt lat="44.39647" lon="7.16797">
        <ele>1732.91</ele>
        <time>2023-02-14T07:49:01Z</time>
      </trkpt>
      <trkpt lat="44.39643" lon="7.16792">
        <ele>1732.43</ele>
        <time>2023-02-14T07:49:15Z</time>
      </trkpt>
      <trkpt lat="44.39635" lon="7.16787">
        <ele>1732.91</ele>
        <time>2023-02-14T07:49:30Z</time>
      </trkpt>
      <trkpt lat="44.3963" lon="7.16777">
        <ele>1734.84</ele>
        <time>2023-02-14T07:49:42Z</time>
      </trkpt>
      <trkpt lat="44.39628" lon="7.16771">
        <ele>1736.76</ele>
        <time>2023-02-14T07:49:53Z</time>
      </trkpt>
      <trkpt lat="44.3963" lon="7.16778">
        <ele>1730.99</ele>
        <time>2023-02-14T07:50:03Z</time>
      </trkpt>
      <trkpt lat="44.39632" lon="7.16777">
        <ele>1730.51</ele>
        <time>2023-02-14T07:50:30Z</time>
      </trkpt>
      <trkpt lat="44.39629" lon="7.16777">
        <ele>1733.39</ele>
        <time>2023-02-14T07:51:13Z</time>
      </trkpt>
      <trkpt lat="44.3963" lon="7.16777">
        <ele>1734.36</ele>
        <time>2023-02-14T07:51:40Z</time>
      </trkpt>
      <trkpt lat="44.39629" lon="7.16777">
        <ele>1736.28</ele>
        <time>2023-02-14T07:52:10Z</time>
      </trkpt>
      <trkpt lat="44.39628" lon="7.16771">
        <ele>1736.28</ele>
        <time>2023-02-14T07:52:27Z</time>
      </trkpt>
      <trkpt lat="44.39628" lon="7.16769">
        <ele>1741.08</ele>
        <time>2023-02-14T07:52:44Z</time>
      </trkpt>
      <trkpt lat="44.39626" lon="7.16767">
        <ele>1740.12</ele>
        <time>2023-02-14T07:53:03Z</time>
      </trkpt>
      <trkpt lat="44.39623" lon="7.16763">
        <ele>1740.6</ele>
        <time>2023-02-14T07:53:20Z</time>
      </trkpt>
      <trkpt lat="44.39618" lon="7.16759">
        <ele>1739.16</ele>
        <time>2023-02-14T07:53:33Z</time>
      </trkpt>
      <trkpt lat="44.39613" lon="7.16752">
        <ele>1739.16</ele>
        <time>2023-02-14T07:53:46Z</time>
      </trkpt>
      <trkpt lat="44.3961" lon="7.16744">
        <ele>1740.6</ele>
        <time>2023-02-14T07:54:00Z</time>
      </trkpt>
      <trkpt lat="44.39603" lon="7.16742">
        <ele>1741.08</ele>
        <time>2023-02-14T07:54:11Z</time>
      </trkpt>
      <trkpt lat="44.39601" lon="7.16734">
        <ele>1743.49</ele>
        <time>2023-02-14T07:54:24Z</time>
      </trkpt>
      <trkpt lat="44.39597" lon="7.16725">
        <ele>1745.41</ele>
        <time>2023-02-14T07:54:37Z</time>
      </trkpt>
      <trkpt lat="44.39594" lon="7.16716">
        <ele>1745.41</ele>
        <time>2023-02-14T07:54:54Z</time>
      </trkpt>
      <trkpt lat="44.3959" lon="7.16703">
        <ele>1745.41</ele>
        <time>2023-02-14T07:55:09Z</time>
      </trkpt>
      <trkpt lat="44.39588" lon="7.16693">
        <ele>1747.33</ele>
        <time>2023-02-14T07:55:24Z</time>
      </trkpt>
      <trkpt lat="44.39591" lon="7.1668">
        <ele>1747.81</ele>
        <time>2023-02-14T07:55:38Z</time>
      </trkpt>
      <trkpt lat="44.39591" lon="7.16672">
        <ele>1747.33</ele>
        <time>2023-02-14T07:55:51Z</time>
      </trkpt>
      <trkpt lat="44.39588" lon="7.16658">
        <ele>1747.33</ele>
        <time>2023-02-14T07:56:07Z</time>
      </trkpt>
      <trkpt lat="44.39589" lon="7.1665">
        <ele>1748.78</ele>
        <time>2023-02-14T07:56:19Z</time>
      </trkpt>
      <trkpt lat="44.39587" lon="7.16641">
        <ele>1749.74</ele>
        <time>2023-02-14T07:56:43Z</time>
      </trkpt>
      <trkpt lat="44.39585" lon="7.16634">
        <ele>1749.74</ele>
        <time>2023-02-14T07:56:54Z</time>
      </trkpt>
      <trkpt lat="44.39584" lon="7.16622">
        <ele>1751.18</ele>
        <time>2023-02-14T07:57:08Z</time>
      </trkpt>
      <trkpt lat="44.39583" lon="7.16616">
        <ele>1749.26</ele>
        <time>2023-02-14T07:57:22Z</time>
      </trkpt>
      <trkpt lat="44.39582" lon="7.16605">
        <ele>1750.7</ele>
        <time>2023-02-14T07:57:38Z</time>
      </trkpt>
      <trkpt lat="44.3958" lon="7.1659">
        <ele>1749.26</ele>
        <time>2023-02-14T07:57:54Z</time>
      </trkpt>
      <trkpt lat="44.39576" lon="7.16573">
        <ele>1746.37</ele>
        <time>2023-02-14T07:58:09Z</time>
      </trkpt>
      <trkpt lat="44.39571" lon="7.16555">
        <ele>1746.85</ele>
        <time>2023-02-14T07:58:25Z</time>
      </trkpt>
      <trkpt lat="44.39568" lon="7.1655">
        <ele>1746.85</ele>
        <time>2023-02-14T07:58:31Z</time>
      </trkpt>
      <trkpt lat="44.39557" lon="7.16537">
        <ele>1743.97</ele>
        <time>2023-02-14T07:58:47Z</time>
      </trkpt>
      <trkpt lat="44.39555" lon="7.16535">
        <ele>1743.97</ele>
        <time>2023-02-14T07:58:50Z</time>
      </trkpt>
      <trkpt lat="44.39552" lon="7.1653">
        <ele>1743.97</ele>
        <time>2023-02-14T07:58:53Z</time>
      </trkpt>
      <trkpt lat="44.39547" lon="7.16523">
        <ele>1745.89</ele>
        <time>2023-02-14T07:59:06Z</time>
      </trkpt>
      <trkpt lat="44.39542" lon="7.16518">
        <ele>1749.26</ele>
        <time>2023-02-14T07:59:22Z</time>
      </trkpt>
      <trkpt lat="44.39541" lon="7.16509">
        <ele>1751.18</ele>
        <time>2023-02-14T07:59:39Z</time>
      </trkpt>
      <trkpt lat="44.39535" lon="7.16498">
        <ele>1751.66</ele>
        <time>2023-02-14T07:59:53Z</time>
      </trkpt>
      <trkpt lat="44.39532" lon="7.1649">
        <ele>1752.62</ele>
        <time>2023-02-14T08:00:02Z</time>
      </trkpt>
      <trkpt lat="44.39528" lon="7.16477">
        <ele>1750.22</ele>
        <time>2023-02-14T08:00:15Z</time>
      </trkpt>
      <trkpt lat="44.39526" lon="7.16465">
        <ele>1748.78</ele>
        <time>2023-02-14T08:00:28Z</time>
      </trkpt>
      <trkpt lat="44.39522" lon="7.16458">
        <ele>1750.7</ele>
        <time>2023-02-14T08:00:40Z</time>
      </trkpt>
      <trkpt lat="44.39517" lon="7.1645">
        <ele>1752.62</ele>
        <time>2023-02-14T08:00:56Z</time>
      </trkpt>
      <trkpt lat="44.39516" lon="7.16452">
        <ele>1753.1</ele>
        <time>2023-02-14T08:01:07Z</time>
      </trkpt>
      <trkpt lat="44.39513" lon="7.16445">
        <ele>1750.7</ele>
        <time>2023-02-14T08:01:22Z</time>
      </trkpt>
      <trkpt lat="44.39507" lon="7.16438">
        <ele>1752.62</ele>
        <time>2023-02-14T08:01:35Z</time>
      </trkpt>
      <trkpt lat="44.39502" lon="7.1643">
        <ele>1754.54</ele>
        <time>2023-02-14T08:01:50Z</time>
      </trkpt>
      <trkpt lat="44.39499" lon="7.16424">
        <ele>1756.47</ele>
        <time>2023-02-14T08:01:57Z</time>
      </trkpt>
      <trkpt lat="44.39494" lon="7.16413">
        <ele>1757.43</ele>
        <time>2023-02-14T08:02:10Z</time>
      </trkpt>
      <trkpt lat="44.3949" lon="7.16403">
        <ele>1755.5</ele>
        <time>2023-02-14T08:02:22Z</time>
      </trkpt>
      <trkpt lat="44.39485" lon="7.1639">
        <ele>1754.06</ele>
        <time>2023-02-14T08:02:35Z</time>
      </trkpt>
      <trkpt lat="44.39479" lon="7.16381">
        <ele>1755.5</ele>
        <time>2023-02-14T08:02:47Z</time>
      </trkpt>
      <trkpt lat="44.39469" lon="7.16371">
        <ele>1757.91</ele>
        <time>2023-02-14T08:03:01Z</time>
      </trkpt>
      <trkpt lat="44.39464" lon="7.16364">
        <ele>1758.87</ele>
        <time>2023-02-14T08:03:15Z</time>
      </trkpt>
      <trkpt lat="44.39461" lon="7.16354">
        <ele>1761.75</ele>
        <time>2023-02-14T08:03:29Z</time>
      </trkpt>
      <trkpt lat="44.39455" lon="7.16345">
        <ele>1764.64</ele>
        <time>2023-02-14T08:03:44Z</time>
      </trkpt>
      <trkpt lat="44.39456" lon="7.16339">
        <ele>1765.12</ele>
        <time>2023-02-14T08:03:57Z</time>
      </trkpt>
      <trkpt lat="44.39454" lon="7.16336">
        <ele>1765.12</ele>
        <time>2023-02-14T08:04:11Z</time>
      </trkpt>
      <trkpt lat="44.39453" lon="7.16328">
        <ele>1766.08</ele>
        <time>2023-02-14T08:04:26Z</time>
      </trkpt>
      <trkpt lat="44.39446" lon="7.16323">
        <ele>1768.48</ele>
        <time>2023-02-14T08:04:38Z</time>
      </trkpt>
      <trkpt lat="44.39442" lon="7.16321">
        <ele>1768.96</ele>
        <time>2023-02-14T08:04:51Z</time>
      </trkpt>
      <trkpt lat="44.39436" lon="7.16311">
        <ele>1769.92</ele>
        <time>2023-02-14T08:05:05Z</time>
      </trkpt>
      <trkpt lat="44.39434" lon="7.16306">
        <ele>1771.37</ele>
        <time>2023-02-14T08:05:11Z</time>
      </trkpt>
      <trkpt lat="44.39432" lon="7.163">
        <ele>1772.33</ele>
        <time>2023-02-14T08:05:27Z</time>
      </trkpt>
      <trkpt lat="44.39427" lon="7.16292">
        <ele>1774.73</ele>
        <time>2023-02-14T08:05:47Z</time>
      </trkpt>
      <trkpt lat="44.39423" lon="7.16287">
        <ele>1778.58</ele>
        <time>2023-02-14T08:05:58Z</time>
      </trkpt>
      <trkpt lat="44.39407" lon="7.16283">
        <ele>1779.06</ele>
        <time>2023-02-14T08:06:16Z</time>
      </trkpt>
      <trkpt lat="44.39404" lon="7.1628">
        <ele>1780.02</ele>
        <time>2023-02-14T08:06:29Z</time>
      </trkpt>
      <trkpt lat="44.39404" lon="7.16273">
        <ele>1780.5</ele>
        <time>2023-02-14T08:06:41Z</time>
      </trkpt>
      <trkpt lat="44.39404" lon="7.16268">
        <ele>1781.94</ele>
        <time>2023-02-14T08:06:54Z</time>
      </trkpt>
      <trkpt lat="44.39404" lon="7.16265">
        <ele>1782.9</ele>
        <time>2023-02-14T08:07:07Z</time>
      </trkpt>
      <trkpt lat="44.39404" lon="7.16262">
        <ele>1783.38</ele>
        <time>2023-02-14T08:07:21Z</time>
      </trkpt>
      <trkpt lat="44.39405" lon="7.16257">
        <ele>1784.82</ele>
        <time>2023-02-14T08:07:32Z</time>
      </trkpt>
      <trkpt lat="44.39402" lon="7.16255">
        <ele>1785.31</ele>
        <time>2023-02-14T08:07:45Z</time>
      </trkpt>
      <trkpt lat="44.39395" lon="7.16244">
        <ele>1785.79</ele>
        <time>2023-02-14T08:07:59Z</time>
      </trkpt>
      <trkpt lat="44.39392" lon="7.1624">
        <ele>1787.23</ele>
        <time>2023-02-14T08:08:19Z</time>
      </trkpt>
      <trkpt lat="44.39394" lon="7.16236">
        <ele>1788.19</ele>
        <time>2023-02-14T08:08:31Z</time>
      </trkpt>
      <trkpt lat="44.39396" lon="7.16223">
        <ele>1788.67</ele>
        <time>2023-02-14T08:08:43Z</time>
      </trkpt>
      <trkpt lat="44.39397" lon="7.16221">
        <ele>1788.19</ele>
        <time>2023-02-14T08:08:45Z</time>
      </trkpt>
      <trkpt lat="44.39397" lon="7.16211">
        <ele>1789.15</ele>
        <time>2023-02-14T08:08:58Z</time>
      </trkpt>
      <trkpt lat="44.394" lon="7.16194">
        <ele>1792.03</ele>
        <time>2023-02-14T08:09:15Z</time>
      </trkpt>
      <trkpt lat="44.39399" lon="7.16194">
        <ele>1793.48</ele>
        <time>2023-02-14T08:09:32Z</time>
      </trkpt>
      <trkpt lat="44.39397" lon="7.16189">
        <ele>1792.52</ele>
        <time>2023-02-14T08:09:44Z</time>
      </trkpt>
      <trkpt lat="44.394" lon="7.1618">
        <ele>1795.4</ele>
        <time>2023-02-14T08:10:00Z</time>
      </trkpt>
      <trkpt lat="44.39399" lon="7.16192">
        <ele>1794.44</ele>
        <time>2023-02-14T08:10:14Z</time>
      </trkpt>
      <trkpt lat="44.39397" lon="7.16197">
        <ele>1797.32</ele>
        <time>2023-02-14T08:10:28Z</time>
      </trkpt>
      <trkpt lat="44.39394" lon="7.16187">
        <ele>1798.28</ele>
        <time>2023-02-14T08:10:37Z</time>
      </trkpt>
      <trkpt lat="44.39386" lon="7.16183">
        <ele>1799.73</ele>
        <time>2023-02-14T08:10:52Z</time>
      </trkpt>
      <trkpt lat="44.39381" lon="7.16195">
        <ele>1798.76</ele>
        <time>2023-02-14T08:11:06Z</time>
      </trkpt>
      <trkpt lat="44.39381" lon="7.16205">
        <ele>1801.17</ele>
        <time>2023-02-14T08:11:23Z</time>
      </trkpt>
      <trkpt lat="44.39375" lon="7.16201">
        <ele>1803.57</ele>
        <time>2023-02-14T08:11:37Z</time>
      </trkpt>
      <trkpt lat="44.39373" lon="7.1619">
        <ele>1806.94</ele>
        <time>2023-02-14T08:11:52Z</time>
      </trkpt>
      <trkpt lat="44.3937" lon="7.1618">
        <ele>1807.9</ele>
        <time>2023-02-14T08:12:05Z</time>
      </trkpt>
      <trkpt lat="44.39364" lon="7.16171">
        <ele>1809.82</ele>
        <time>2023-02-14T08:12:20Z</time>
      </trkpt>
      <trkpt lat="44.39361" lon="7.16161">
        <ele>1810.3</ele>
        <time>2023-02-14T08:12:35Z</time>
      </trkpt>
      <trkpt lat="44.39365" lon="7.16146">
        <ele>1814.15</ele>
        <time>2023-02-14T08:12:52Z</time>
      </trkpt>
      <trkpt lat="44.39357" lon="7.16133">
        <ele>1818.95</ele>
        <time>2023-02-14T08:13:10Z</time>
      </trkpt>
      <trkpt lat="44.3935" lon="7.16129">
        <ele>1819.91</ele>
        <time>2023-02-14T08:13:24Z</time>
      </trkpt>
      <trkpt lat="44.39348" lon="7.1612">
        <ele>1820.87</ele>
        <time>2023-02-14T08:13:38Z</time>
      </trkpt>
      <trkpt lat="44.39345" lon="7.16112">
        <ele>1822.32</ele>
        <time>2023-02-14T08:13:51Z</time>
      </trkpt>
      <trkpt lat="44.39347" lon="7.16104">
        <ele>1822.32</ele>
        <time>2023-02-14T08:14:05Z</time>
      </trkpt>
      <trkpt lat="44.39347" lon="7.16094">
        <ele>1824.72</ele>
        <time>2023-02-14T08:14:21Z</time>
      </trkpt>
      <trkpt lat="44.39346" lon="7.16077">
        <ele>1827.12</ele>
        <time>2023-02-14T08:14:40Z</time>
      </trkpt>
      <trkpt lat="44.39345" lon="7.16067">
        <ele>1826.64</ele>
        <time>2023-02-14T08:14:57Z</time>
      </trkpt>
      <trkpt lat="44.39343" lon="7.16069">
        <ele>1830.01</ele>
        <time>2023-02-14T08:15:27Z</time>
      </trkpt>
      <trkpt lat="44.39343" lon="7.16063">
        <ele>1827.6</ele>
        <time>2023-02-14T08:15:53Z</time>
      </trkpt>
      <trkpt lat="44.39341" lon="7.16055">
        <ele>1826.64</ele>
        <time>2023-02-14T08:16:12Z</time>
      </trkpt>
      <trkpt lat="44.39347" lon="7.16048">
        <ele>1823.76</ele>
        <time>2023-02-14T08:16:28Z</time>
      </trkpt>
      <trkpt lat="44.39347" lon="7.16041">
        <ele>1827.12</ele>
        <time>2023-02-14T08:16:42Z</time>
      </trkpt>
      <trkpt lat="44.39343" lon="7.16032">
        <ele>1829.05</ele>
        <time>2023-02-14T08:16:55Z</time>
      </trkpt>
      <trkpt lat="44.39339" lon="7.16021">
        <ele>1831.45</ele>
        <time>2023-02-14T08:17:12Z</time>
      </trkpt>
      <trkpt lat="44.39337" lon="7.16009">
        <ele>1832.41</ele>
        <time>2023-02-14T08:17:27Z</time>
      </trkpt>
      <trkpt lat="44.39332" lon="7.15996">
        <ele>1832.41</ele>
        <time>2023-02-14T08:17:43Z</time>
      </trkpt>
      <trkpt lat="44.39334" lon="7.15986">
        <ele>1834.33</ele>
        <time>2023-02-14T08:17:56Z</time>
      </trkpt>
      <trkpt lat="44.39325" lon="7.15979">
        <ele>1837.22</ele>
        <time>2023-02-14T08:18:11Z</time>
      </trkpt>
      <trkpt lat="44.39319" lon="7.15975">
        <ele>1840.1</ele>
        <time>2023-02-14T08:18:21Z</time>
      </trkpt>
      <trkpt lat="44.39317" lon="7.15975">
        <ele>1840.1</ele>
        <time>2023-02-14T08:18:35Z</time>
      </trkpt>
      <trkpt lat="44.39319" lon="7.1597">
        <ele>1842.5</ele>
        <time>2023-02-14T08:18:51Z</time>
      </trkpt>
      <trkpt lat="44.39321" lon="7.15966">
        <ele>1842.5</ele>
        <time>2023-02-14T08:19:06Z</time>
      </trkpt>
      <trkpt lat="44.39325" lon="7.15963">
        <ele>1842.98</ele>
        <time>2023-02-14T08:19:21Z</time>
      </trkpt>
      <trkpt lat="44.39326" lon="7.15961">
        <ele>1846.35</ele>
        <time>2023-02-14T08:19:39Z</time>
      </trkpt>
      <trkpt lat="44.39332" lon="7.15957">
        <ele>1846.83</ele>
        <time>2023-02-14T08:20:02Z</time>
      </trkpt>
      <trkpt lat="44.39333" lon="7.15951">
        <ele>1846.35</ele>
        <time>2023-02-14T08:20:17Z</time>
      </trkpt>
      <trkpt lat="44.39334" lon="7.15946">
        <ele>1844.91</ele>
        <time>2023-02-14T08:20:32Z</time>
      </trkpt>
      <trkpt lat="44.39337" lon="7.15941">
        <ele>1844.43</ele>
        <time>2023-02-14T08:20:48Z</time>
      </trkpt>
      <trkpt lat="44.39339" lon="7.15939">
        <ele>1845.39</ele>
        <time>2023-02-14T08:21:02Z</time>
      </trkpt>
      <trkpt lat="44.3934" lon="7.15935">
        <ele>1845.87</ele>
        <time>2023-02-14T08:21:19Z</time>
      </trkpt>
      <trkpt lat="44.39343" lon="7.15932">
        <ele>1844.91</ele>
        <time>2023-02-14T08:21:35Z</time>
      </trkpt>
      <trkpt lat="44.39346" lon="7.15926">
        <ele>1846.35</ele>
        <time>2023-02-14T08:21:55Z</time>
      </trkpt>
      <trkpt lat="44.39349" lon="7.15922">
        <ele>1845.39</ele>
        <time>2023-02-14T08:22:12Z</time>
      </trkpt>
      <trkpt lat="44.39355" lon="7.15919">
        <ele>1845.87</ele>
        <time>2023-02-14T08:22:32Z</time>
      </trkpt>
      <trkpt lat="44.39354" lon="7.15908">
        <ele>1845.87</ele>
        <time>2023-02-14T08:22:53Z</time>
      </trkpt>
      <trkpt lat="44.39356" lon="7.15895">
        <ele>1846.35</ele>
        <time>2023-02-14T08:23:12Z</time>
      </trkpt>
      <trkpt lat="44.39356" lon="7.15889">
        <ele>1849.71</ele>
        <time>2023-02-14T08:23:26Z</time>
      </trkpt>
      <trkpt lat="44.39362" lon="7.15886">
        <ele>1852.6</ele>
        <time>2023-02-14T08:23:43Z</time>
      </trkpt>
      <trkpt lat="44.39366" lon="7.15876">
        <ele>1854.52</ele>
        <time>2023-02-14T08:24:00Z</time>
      </trkpt>
      <trkpt lat="44.39372" lon="7.15861">
        <ele>1856.44</ele>
        <time>2023-02-14T08:24:20Z</time>
      </trkpt>
      <trkpt lat="44.39378" lon="7.15848">
        <ele>1856.92</ele>
        <time>2023-02-14T08:24:37Z</time>
      </trkpt>
      <trkpt lat="44.39382" lon="7.15838">
        <ele>1857.89</ele>
        <time>2023-02-14T08:24:53Z</time>
      </trkpt>
      <trkpt lat="44.3939" lon="7.15827">
        <ele>1861.73</ele>
        <time>2023-02-14T08:25:13Z</time>
      </trkpt>
      <trkpt lat="44.39391" lon="7.15821">
        <ele>1862.69</ele>
        <time>2023-02-14T08:25:26Z</time>
      </trkpt>
      <trkpt lat="44.39387" lon="7.1582">
        <ele>1864.13</ele>
        <time>2023-02-14T08:25:40Z</time>
      </trkpt>
      <trkpt lat="44.39376" lon="7.15816">
        <ele>1866.06</ele>
        <time>2023-02-14T08:25:53Z</time>
      </trkpt>
      <trkpt lat="44.39383" lon="7.15808">
        <ele>1867.02</ele>
        <time>2023-02-14T08:26:09Z</time>
      </trkpt>
      <trkpt lat="44.39387" lon="7.15799">
        <ele>1868.46</ele>
        <time>2023-02-14T08:26:27Z</time>
      </trkpt>
      <trkpt lat="44.39388" lon="7.15787">
        <ele>1872.3</ele>
        <time>2023-02-14T08:26:46Z</time>
      </trkpt>
      <trkpt lat="44.39377" lon="7.15787">
        <ele>1873.75</ele>
        <time>2023-02-14T08:27:04Z</time>
      </trkpt>
      <trkpt lat="44.39376" lon="7.15783">
        <ele>1876.63</ele>
        <time>2023-02-14T08:27:16Z</time>
      </trkpt>
      <trkpt lat="44.39376" lon="7.15775">
        <ele>1877.59</ele>
        <time>2023-02-14T08:27:29Z</time>
      </trkpt>
      <trkpt lat="44.39371" lon="7.15769">
        <ele>1877.11</ele>
        <time>2023-02-14T08:27:42Z</time>
      </trkpt>
      <trkpt lat="44.39369" lon="7.15768">
        <ele>1876.63</ele>
        <time>2023-02-14T08:27:58Z</time>
      </trkpt>
      <trkpt lat="44.39361" lon="7.15771">
        <ele>1878.55</ele>
        <time>2023-02-14T08:28:22Z</time>
      </trkpt>
      <trkpt lat="44.39362" lon="7.15758">
        <ele>1878.55</ele>
        <time>2023-02-14T08:28:37Z</time>
      </trkpt>
      <trkpt lat="44.39363" lon="7.15748">
        <ele>1878.55</ele>
        <time>2023-02-14T08:28:52Z</time>
      </trkpt>
      <trkpt lat="44.39364" lon="7.15739">
        <ele>1880</ele>
        <time>2023-02-14T08:29:08Z</time>
      </trkpt>
      <trkpt lat="44.39362" lon="7.15733">
        <ele>1884.8</ele>
        <time>2023-02-14T08:29:22Z</time>
      </trkpt>
      <trkpt lat="44.39354" lon="7.15734">
        <ele>1888.17</ele>
        <time>2023-02-14T08:29:38Z</time>
      </trkpt>
      <trkpt lat="44.39356" lon="7.15727">
        <ele>1891.53</ele>
        <time>2023-02-14T08:29:51Z</time>
      </trkpt>
      <trkpt lat="44.39352" lon="7.15717">
        <ele>1892.97</ele>
        <time>2023-02-14T08:30:06Z</time>
      </trkpt>
      <trkpt lat="44.39346" lon="7.15725">
        <ele>1893.45</ele>
        <time>2023-02-14T08:30:21Z</time>
      </trkpt>
      <trkpt lat="44.39344" lon="7.15714">
        <ele>1895.38</ele>
        <time>2023-02-14T08:30:36Z</time>
      </trkpt>
      <trkpt lat="44.39342" lon="7.15704">
        <ele>1896.82</ele>
        <time>2023-02-14T08:30:50Z</time>
      </trkpt>
      <trkpt lat="44.39338" lon="7.15695">
        <ele>1899.22</ele>
        <time>2023-02-14T08:31:07Z</time>
      </trkpt>
      <trkpt lat="44.39332" lon="7.15684">
        <ele>1901.63</ele>
        <time>2023-02-14T08:31:20Z</time>
      </trkpt>
      <trkpt lat="44.39326" lon="7.15672">
        <ele>1903.07</ele>
        <time>2023-02-14T08:31:36Z</time>
      </trkpt>
      <trkpt lat="44.39318" lon="7.15666">
        <ele>1903.55</ele>
        <time>2023-02-14T08:31:50Z</time>
      </trkpt>
      <trkpt lat="44.3932" lon="7.15658">
        <ele>1906.91</ele>
        <time>2023-02-14T08:32:06Z</time>
      </trkpt>
      <trkpt lat="44.39318" lon="7.1565">
        <ele>1909.32</ele>
        <time>2023-02-14T08:32:20Z</time>
      </trkpt>
      <trkpt lat="44.39315" lon="7.1564">
        <ele>1912.2</ele>
        <time>2023-02-14T08:32:33Z</time>
      </trkpt>
      <trkpt lat="44.39311" lon="7.15632">
        <ele>1916.04</ele>
        <time>2023-02-14T08:32:49Z</time>
      </trkpt>
      <trkpt lat="44.39306" lon="7.15624">
        <ele>1918.45</ele>
        <time>2023-02-14T08:33:02Z</time>
      </trkpt>
      <trkpt lat="44.39302" lon="7.15619">
        <ele>1919.89</ele>
        <time>2023-02-14T08:33:15Z</time>
      </trkpt>
      <trkpt lat="44.39296" lon="7.15607">
        <ele>1922.77</ele>
        <time>2023-02-14T08:33:32Z</time>
      </trkpt>
      <trkpt lat="44.39286" lon="7.15599">
        <ele>1920.37</ele>
        <time>2023-02-14T08:33:47Z</time>
      </trkpt>
      <trkpt lat="44.3928" lon="7.15591">
        <ele>1919.41</ele>
        <time>2023-02-14T08:34:01Z</time>
      </trkpt>
      <trkpt lat="44.39278" lon="7.15591">
        <ele>1918.45</ele>
        <time>2023-02-14T08:34:14Z</time>
      </trkpt>
      <trkpt lat="44.39273" lon="7.15598">
        <ele>1919.41</ele>
        <time>2023-02-14T08:34:28Z</time>
      </trkpt>
      <trkpt lat="44.39264" lon="7.15591">
        <ele>1922.29</ele>
        <time>2023-02-14T08:34:44Z</time>
      </trkpt>
      <trkpt lat="44.39258" lon="7.15584">
        <ele>1925.66</ele>
        <time>2023-02-14T08:34:57Z</time>
      </trkpt>
      <trkpt lat="44.39251" lon="7.1558">
        <ele>1925.66</ele>
        <time>2023-02-14T08:35:11Z</time>
      </trkpt>
      <trkpt lat="44.39249" lon="7.15591">
        <ele>1927.1</ele>
        <time>2023-02-14T08:35:25Z</time>
      </trkpt>
      <trkpt lat="44.39247" lon="7.156">
        <ele>1929.98</ele>
        <time>2023-02-14T08:35:40Z</time>
      </trkpt>
      <trkpt lat="44.39245" lon="7.15592">
        <ele>1930.46</ele>
        <time>2023-02-14T08:35:53Z</time>
      </trkpt>
      <trkpt lat="44.39242" lon="7.15588">
        <ele>1932.39</ele>
        <time>2023-02-14T08:36:07Z</time>
      </trkpt>
      <trkpt lat="44.39234" lon="7.15578">
        <ele>1935.27</ele>
        <time>2023-02-14T08:36:23Z</time>
      </trkpt>
      <trkpt lat="44.3923" lon="7.15572">
        <ele>1935.75</ele>
        <time>2023-02-14T08:36:36Z</time>
      </trkpt>
      <trkpt lat="44.39223" lon="7.15564">
        <ele>1937.19</ele>
        <time>2023-02-14T08:36:51Z</time>
      </trkpt>
      <trkpt lat="44.39225" lon="7.15559">
        <ele>1937.67</ele>
        <time>2023-02-14T08:37:06Z</time>
      </trkpt>
      <trkpt lat="44.39222" lon="7.15548">
        <ele>1937.67</ele>
        <time>2023-02-14T08:37:19Z</time>
      </trkpt>
      <trkpt lat="44.39216" lon="7.15544">
        <ele>1938.64</ele>
        <time>2023-02-14T08:37:32Z</time>
      </trkpt>
      <trkpt lat="44.39213" lon="7.15534">
        <ele>1940.08</ele>
        <time>2023-02-14T08:37:49Z</time>
      </trkpt>
      <trkpt lat="44.3921" lon="7.1553">
        <ele>1943.92</ele>
        <time>2023-02-14T08:38:07Z</time>
      </trkpt>
      <trkpt lat="44.39212" lon="7.1553">
        <ele>1943.92</ele>
        <time>2023-02-14T08:38:32Z</time>
      </trkpt>
      <trkpt lat="44.39217" lon="7.15529">
        <ele>1946.81</ele>
        <time>2023-02-14T08:38:53Z</time>
      </trkpt>
      <trkpt lat="44.39221" lon="7.15526">
        <ele>1949.21</ele>
        <time>2023-02-14T08:39:21Z</time>
      </trkpt>
      <trkpt lat="44.39217" lon="7.15525">
        <ele>1951.13</ele>
        <time>2023-02-14T08:39:40Z</time>
      </trkpt>
      <trkpt lat="44.39205" lon="7.15522">
        <ele>1951.13</ele>
        <time>2023-02-14T08:39:53Z</time>
      </trkpt>
      <trkpt lat="44.39193" lon="7.15516">
        <ele>1952.57</ele>
        <time>2023-02-14T08:40:09Z</time>
      </trkpt>
      <trkpt lat="44.39186" lon="7.15508">
        <ele>1954.02</ele>
        <time>2023-02-14T08:40:24Z</time>
      </trkpt>
      <trkpt lat="44.39175" lon="7.15501">
        <ele>1954.02</ele>
        <time>2023-02-14T08:40:39Z</time>
      </trkpt>
      <trkpt lat="44.39167" lon="7.15493">
        <ele>1953.06</ele>
        <time>2023-02-14T08:40:54Z</time>
      </trkpt>
      <trkpt lat="44.39163" lon="7.15488">
        <ele>1953.06</ele>
        <time>2023-02-14T08:41:07Z</time>
      </trkpt>
      <trkpt lat="44.39159" lon="7.15477">
        <ele>1954.98</ele>
        <time>2023-02-14T08:41:20Z</time>
      </trkpt>
      <trkpt lat="44.39155" lon="7.15471">
        <ele>1954.5</ele>
        <time>2023-02-14T08:41:35Z</time>
      </trkpt>
      <trkpt lat="44.39152" lon="7.15461">
        <ele>1955.94</ele>
        <time>2023-02-14T08:41:50Z</time>
      </trkpt>
      <trkpt lat="44.39148" lon="7.1545">
        <ele>1956.42</ele>
        <time>2023-02-14T08:42:05Z</time>
      </trkpt>
      <trkpt lat="44.39144" lon="7.15438">
        <ele>1956.42</ele>
        <time>2023-02-14T08:42:18Z</time>
      </trkpt>
      <trkpt lat="44.39142" lon="7.15427">
        <ele>1957.86</ele>
        <time>2023-02-14T08:42:31Z</time>
      </trkpt>
      <trkpt lat="44.39137" lon="7.15416">
        <ele>1959.3</ele>
        <time>2023-02-14T08:42:45Z</time>
      </trkpt>
      <trkpt lat="44.39132" lon="7.15406">
        <ele>1959.3</ele>
        <time>2023-02-14T08:43:00Z</time>
      </trkpt>
      <trkpt lat="44.39126" lon="7.15398">
        <ele>1959.3</ele>
        <time>2023-02-14T08:43:14Z</time>
      </trkpt>
      <trkpt lat="44.39116" lon="7.1539">
        <ele>1961.71</ele>
        <time>2023-02-14T08:43:27Z</time>
      </trkpt>
      <trkpt lat="44.39109" lon="7.15383">
        <ele>1964.59</ele>
        <time>2023-02-14T08:43:43Z</time>
      </trkpt>
      <trkpt lat="44.39105" lon="7.15382">
        <ele>1964.11</ele>
        <time>2023-02-14T08:44:00Z</time>
      </trkpt>
      <trkpt lat="44.39094" lon="7.15377">
        <ele>1965.55</ele>
        <time>2023-02-14T08:44:16Z</time>
      </trkpt>
      <trkpt lat="44.39086" lon="7.15372">
        <ele>1969.88</ele>
        <time>2023-02-14T08:44:32Z</time>
      </trkpt>
      <trkpt lat="44.39084" lon="7.1537">
        <ele>1973.72</ele>
        <time>2023-02-14T08:44:49Z</time>
      </trkpt>
      <trkpt lat="44.39081" lon="7.15362">
        <ele>1975.65</ele>
        <time>2023-02-14T08:45:01Z</time>
      </trkpt>
      <trkpt lat="44.39079" lon="7.15359">
        <ele>1977.57</ele>
        <time>2023-02-14T08:45:09Z</time>
      </trkpt>
      <trkpt lat="44.39072" lon="7.1535">
        <ele>1979.49</ele>
        <time>2023-02-14T08:45:22Z</time>
      </trkpt>
      <trkpt lat="44.3907" lon="7.15347">
        <ele>1979.49</ele>
        <time>2023-02-14T08:45:26Z</time>
      </trkpt>
      <trkpt lat="44.39071" lon="7.15339">
        <ele>1977.57</ele>
        <time>2023-02-14T08:45:37Z</time>
      </trkpt>
      <trkpt lat="44.39076" lon="7.15328">
        <ele>1976.61</ele>
        <time>2023-02-14T08:45:51Z</time>
      </trkpt>
      <trkpt lat="44.39084" lon="7.15322">
        <ele>1979.49</ele>
        <time>2023-02-14T08:46:06Z</time>
      </trkpt>
      <trkpt lat="44.39089" lon="7.15314">
        <ele>1979.49</ele>
        <time>2023-02-14T08:46:21Z</time>
      </trkpt>
      <trkpt lat="44.39089" lon="7.15312">
        <ele>1979.01</ele>
        <time>2023-02-14T08:46:24Z</time>
      </trkpt>
      <trkpt lat="44.39089" lon="7.15299">
        <ele>1979.01</ele>
        <time>2023-02-14T08:46:35Z</time>
      </trkpt>
      <trkpt lat="44.3909" lon="7.15287">
        <ele>1979.49</ele>
        <time>2023-02-14T08:46:48Z</time>
      </trkpt>
      <trkpt lat="44.39091" lon="7.15282">
        <ele>1981.41</ele>
        <time>2023-02-14T08:47:08Z</time>
      </trkpt>
      <trkpt lat="44.39091" lon="7.15274">
        <ele>1980.93</ele>
        <time>2023-02-14T08:47:22Z</time>
      </trkpt>
      <trkpt lat="44.39088" lon="7.15265">
        <ele>1982.86</ele>
        <time>2023-02-14T08:47:34Z</time>
      </trkpt>
      <trkpt lat="44.39084" lon="7.15259">
        <ele>1985.26</ele>
        <time>2023-02-14T08:47:47Z</time>
      </trkpt>
      <trkpt lat="44.39083" lon="7.15255">
        <ele>1984.3</ele>
        <time>2023-02-14T08:48:08Z</time>
      </trkpt>
      <trkpt lat="44.3908" lon="7.15246">
        <ele>1985.74</ele>
        <time>2023-02-14T08:48:24Z</time>
      </trkpt>
      <trkpt lat="44.39072" lon="7.15234">
        <ele>1987.18</ele>
        <time>2023-02-14T08:48:40Z</time>
      </trkpt>
      <trkpt lat="44.39065" lon="7.15223">
        <ele>1987.66</ele>
        <time>2023-02-14T08:48:55Z</time>
      </trkpt>
      <trkpt lat="44.39061" lon="7.15213">
        <ele>1988.62</ele>
        <time>2023-02-14T08:49:08Z</time>
      </trkpt>
      <trkpt lat="44.39057" lon="7.15203">
        <ele>1990.07</ele>
        <time>2023-02-14T08:49:20Z</time>
      </trkpt>
      <trkpt lat="44.39053" lon="7.15191">
        <ele>1989.1</ele>
        <time>2023-02-14T08:49:32Z</time>
      </trkpt>
      <trkpt lat="44.39049" lon="7.15178">
        <ele>1989.1</ele>
        <time>2023-02-14T08:49:45Z</time>
      </trkpt>
      <trkpt lat="44.39048" lon="7.15177">
        <ele>1989.1</ele>
        <time>2023-02-14T08:49:46Z</time>
      </trkpt>
      <trkpt lat="44.39044" lon="7.15164">
        <ele>1990.07</ele>
        <time>2023-02-14T08:49:58Z</time>
      </trkpt>
      <trkpt lat="44.39043" lon="7.15151">
        <ele>1990.07</ele>
        <time>2023-02-14T08:50:10Z</time>
      </trkpt>
      <trkpt lat="44.39043" lon="7.15139">
        <ele>1991.03</ele>
        <time>2023-02-14T08:50:22Z</time>
      </trkpt>
      <trkpt lat="44.39041" lon="7.15127">
        <ele>1991.99</ele>
        <time>2023-02-14T08:50:31Z</time>
      </trkpt>
      <trkpt lat="44.39041" lon="7.15111">
        <ele>1993.43</ele>
        <time>2023-02-14T08:50:45Z</time>
      </trkpt>
      <trkpt lat="44.39042" lon="7.15099">
        <ele>1994.87</ele>
        <time>2023-02-14T08:50:54Z</time>
      </trkpt>
      <trkpt lat="44.39042" lon="7.15084">
        <ele>1995.83</ele>
        <time>2023-02-14T08:51:07Z</time>
      </trkpt>
      <trkpt lat="44.39042" lon="7.15076">
        <ele>1996.8</ele>
        <time>2023-02-14T08:51:15Z</time>
      </trkpt>
      <trkpt lat="44.3904" lon="7.15059">
        <ele>1997.28</ele>
        <time>2023-02-14T08:51:28Z</time>
      </trkpt>
      <trkpt lat="44.39217" lon="7.14868">
        <ele>2005.93</ele>
        <time>2023-02-14T09:01:21Z</time>
      </trkpt>
      <trkpt lat="44.39219" lon="7.14868">
        <ele>2008.33</ele>
        <time>2023-02-14T09:01:22Z</time>
      </trkpt>
      <trkpt lat="44.3922" lon="7.1487">
        <ele>2008.81</ele>
        <time>2023-02-14T09:01:24Z</time>
      </trkpt>
      <trkpt lat="44.39231" lon="7.14873">
        <ele>2008.33</ele>
        <time>2023-02-14T09:01:37Z</time>
      </trkpt>
      <trkpt lat="44.39235" lon="7.14874">
        <ele>2008.33</ele>
        <time>2023-02-14T09:01:43Z</time>
      </trkpt>
      <trkpt lat="44.39242" lon="7.14874">
        <ele>2010.73</ele>
        <time>2023-02-14T09:01:51Z</time>
      </trkpt>
      <trkpt lat="44.3925" lon="7.14869">
        <ele>2011.22</ele>
        <time>2023-02-14T09:02:00Z</time>
      </trkpt>
      <trkpt lat="44.39264" lon="7.14862">
        <ele>2012.66</ele>
        <time>2023-02-14T09:02:14Z</time>
      </trkpt>
      <trkpt lat="44.39274" lon="7.14854">
        <ele>2013.14</ele>
        <time>2023-02-14T09:02:28Z</time>
      </trkpt>
      <trkpt lat="44.39281" lon="7.14851">
        <ele>2014.1</ele>
        <time>2023-02-14T09:02:42Z</time>
      </trkpt>
      <trkpt lat="44.39285" lon="7.14849">
        <ele>2013.62</ele>
        <time>2023-02-14T09:02:57Z</time>
      </trkpt>
      <trkpt lat="44.39286" lon="7.14848">
        <ele>2013.14</ele>
        <time>2023-02-14T09:02:59Z</time>
      </trkpt>
      <trkpt lat="44.393" lon="7.14828">
        <ele>2012.66</ele>
        <time>2023-02-14T09:03:15Z</time>
      </trkpt>
      <trkpt lat="44.39304" lon="7.14815">
        <ele>2012.18</ele>
        <time>2023-02-14T09:03:24Z</time>
      </trkpt>
      <trkpt lat="44.39309" lon="7.14801">
        <ele>2013.14</ele>
        <time>2023-02-14T09:03:35Z</time>
      </trkpt>
      <trkpt lat="44.39311" lon="7.14797">
        <ele>2013.14</ele>
        <time>2023-02-14T09:03:39Z</time>
      </trkpt>
      <trkpt lat="44.39317" lon="7.14788">
        <ele>2014.1</ele>
        <time>2023-02-14T09:03:48Z</time>
      </trkpt>
      <trkpt lat="44.39319" lon="7.14783">
        <ele>2014.1</ele>
        <time>2023-02-14T09:03:53Z</time>
      </trkpt>
      <trkpt lat="44.39324" lon="7.14773">
        <ele>2013.14</ele>
        <time>2023-02-14T09:04:03Z</time>
      </trkpt>
      <trkpt lat="44.39332" lon="7.14764">
        <ele>2014.1</ele>
        <time>2023-02-14T09:04:15Z</time>
      </trkpt>
      <trkpt lat="44.39341" lon="7.14748">
        <ele>2013.62</ele>
        <time>2023-02-14T09:04:30Z</time>
      </trkpt>
      <trkpt lat="44.39344" lon="7.14742">
        <ele>2014.58</ele>
        <time>2023-02-14T09:04:39Z</time>
      </trkpt>
      <trkpt lat="44.39353" lon="7.14731">
        <ele>2016.98</ele>
        <time>2023-02-14T09:04:56Z</time>
      </trkpt>
      <trkpt lat="44.39359" lon="7.1472">
        <ele>2018.91</ele>
        <time>2023-02-14T09:05:10Z</time>
      </trkpt>
      <trkpt lat="44.39361" lon="7.14706">
        <ele>2020.35</ele>
        <time>2023-02-14T09:05:26Z</time>
      </trkpt>
      <trkpt lat="44.39365" lon="7.14694">
        <ele>2021.79</ele>
        <time>2023-02-14T09:05:40Z</time>
      </trkpt>
      <trkpt lat="44.39369" lon="7.14681">
        <ele>2023.23</ele>
        <time>2023-02-14T09:05:54Z</time>
      </trkpt>
      <trkpt lat="44.39373" lon="7.1467">
        <ele>2023.71</ele>
        <time>2023-02-14T09:06:06Z</time>
      </trkpt>
      <trkpt lat="44.39378" lon="7.14659">
        <ele>2025.64</ele>
        <time>2023-02-14T09:06:19Z</time>
      </trkpt>
      <trkpt lat="44.39384" lon="7.14648">
        <ele>2028.04</ele>
        <time>2023-02-14T09:06:33Z</time>
      </trkpt>
      <trkpt lat="44.39388" lon="7.14637">
        <ele>2029.48</ele>
        <time>2023-02-14T09:06:46Z</time>
      </trkpt>
      <trkpt lat="44.39395" lon="7.14627">
        <ele>2029</ele>
        <time>2023-02-14T09:07:02Z</time>
      </trkpt>
      <trkpt lat="44.39402" lon="7.14621">
        <ele>2031.88</ele>
        <time>2023-02-14T09:07:16Z</time>
      </trkpt>
      <trkpt lat="44.3941" lon="7.14609">
        <ele>2035.73</ele>
        <time>2023-02-14T09:07:32Z</time>
      </trkpt>
      <trkpt lat="44.39416" lon="7.14597">
        <ele>2036.69</ele>
        <time>2023-02-14T09:07:48Z</time>
      </trkpt>
      <trkpt lat="44.39426" lon="7.14584">
        <ele>2039.57</ele>
        <time>2023-02-14T09:08:05Z</time>
      </trkpt>
      <trkpt lat="44.39436" lon="7.14569">
        <ele>2039.09</ele>
        <time>2023-02-14T09:08:23Z</time>
      </trkpt>
      <trkpt lat="44.39442" lon="7.14559">
        <ele>2038.61</ele>
        <time>2023-02-14T09:08:37Z</time>
      </trkpt>
      <trkpt lat="44.39447" lon="7.14544">
        <ele>2041.02</ele>
        <time>2023-02-14T09:08:54Z</time>
      </trkpt>
      <trkpt lat="44.39454" lon="7.14532">
        <ele>2045.82</ele>
        <time>2023-02-14T09:09:09Z</time>
      </trkpt>
      <trkpt lat="44.39458" lon="7.14522">
        <ele>2044.86</ele>
        <time>2023-02-14T09:09:24Z</time>
      </trkpt>
      <trkpt lat="44.39467" lon="7.14512">
        <ele>2045.82</ele>
        <time>2023-02-14T09:09:40Z</time>
      </trkpt>
      <trkpt lat="44.39469" lon="7.14511">
        <ele>2045.82</ele>
        <time>2023-02-14T09:09:42Z</time>
      </trkpt>
      <trkpt lat="44.39472" lon="7.14503">
        <ele>2046.3</ele>
        <time>2023-02-14T09:09:55Z</time>
      </trkpt>
      <trkpt lat="44.39471" lon="7.14498">
        <ele>2047.75</ele>
        <time>2023-02-14T09:10:06Z</time>
      </trkpt>
      <trkpt lat="44.39475" lon="7.14492">
        <ele>2048.71</ele>
        <time>2023-02-14T09:10:17Z</time>
      </trkpt>
      <trkpt lat="44.39485" lon="7.14478">
        <ele>2049.19</ele>
        <time>2023-02-14T09:10:33Z</time>
      </trkpt>
      <trkpt lat="44.39486" lon="7.14476">
        <ele>2048.71</ele>
        <time>2023-02-14T09:10:35Z</time>
      </trkpt>
      <trkpt lat="44.39491" lon="7.14461">
        <ele>2046.78</ele>
        <time>2023-02-14T09:10:48Z</time>
      </trkpt>
      <trkpt lat="44.39493" lon="7.14454">
        <ele>2045.82</ele>
        <time>2023-02-14T09:10:55Z</time>
      </trkpt>
      <trkpt lat="44.39498" lon="7.14436">
        <ele>2045.34</ele>
        <time>2023-02-14T09:11:09Z</time>
      </trkpt>
      <trkpt lat="44.39499" lon="7.14426">
        <ele>2045.34</ele>
        <time>2023-02-14T09:11:20Z</time>
      </trkpt>
      <trkpt lat="44.395" lon="7.14421">
        <ele>2044.86</ele>
        <time>2023-02-14T09:11:33Z</time>
      </trkpt>
      <trkpt lat="44.39499" lon="7.1442">
        <ele>2045.82</ele>
        <time>2023-02-14T09:11:47Z</time>
      </trkpt>
      <trkpt lat="44.39504" lon="7.1441">
        <ele>2047.26</ele>
        <time>2023-02-14T09:11:58Z</time>
      </trkpt>
      <trkpt lat="44.39506" lon="7.144">
        <ele>2049.19</ele>
        <time>2023-02-14T09:12:08Z</time>
      </trkpt>
      <trkpt lat="44.39513" lon="7.14387">
        <ele>2050.15</ele>
        <time>2023-02-14T09:12:20Z</time>
      </trkpt>
      <trkpt lat="44.39515" lon="7.14376">
        <ele>2050.63</ele>
        <time>2023-02-14T09:12:33Z</time>
      </trkpt>
      <trkpt lat="44.39518" lon="7.14364">
        <ele>2052.55</ele>
        <time>2023-02-14T09:12:47Z</time>
      </trkpt>
      <trkpt lat="44.3952" lon="7.14352">
        <ele>2054.47</ele>
        <time>2023-02-14T09:13:00Z</time>
      </trkpt>
      <trkpt lat="44.39522" lon="7.1434">
        <ele>2055.44</ele>
        <time>2023-02-14T09:13:12Z</time>
      </trkpt>
      <trkpt lat="44.39522" lon="7.14337">
        <ele>2055.92</ele>
        <time>2023-02-14T09:13:14Z</time>
      </trkpt>
      <trkpt lat="44.39521" lon="7.14328">
        <ele>2052.55</ele>
        <time>2023-02-14T09:13:27Z</time>
      </trkpt>
      <trkpt lat="44.3952" lon="7.14325">
        <ele>2055.92</ele>
        <time>2023-02-14T09:13:50Z</time>
      </trkpt>
      <trkpt lat="44.39516" lon="7.14312">
        <ele>2057.84</ele>
        <time>2023-02-14T09:14:04Z</time>
      </trkpt>
      <trkpt lat="44.39511" lon="7.14296">
        <ele>2058.8</ele>
        <time>2023-02-14T09:14:19Z</time>
      </trkpt>
      <trkpt lat="44.39504" lon="7.14283">
        <ele>2059.28</ele>
        <time>2023-02-14T09:14:35Z</time>
      </trkpt>
      <trkpt lat="44.39496" lon="7.14268">
        <ele>2058.32</ele>
        <time>2023-02-14T09:14:51Z</time>
      </trkpt>
      <trkpt lat="44.39491" lon="7.14256">
        <ele>2058.8</ele>
        <time>2023-02-14T09:15:08Z</time>
      </trkpt>
      <trkpt lat="44.39492" lon="7.14243">
        <ele>2059.76</ele>
        <time>2023-02-14T09:15:22Z</time>
      </trkpt>
      <trkpt lat="44.39492" lon="7.14234">
        <ele>2061.2</ele>
        <time>2023-02-14T09:15:35Z</time>
      </trkpt>
      <trkpt lat="44.39492" lon="7.14224">
        <ele>2062.65</ele>
        <time>2023-02-14T09:15:49Z</time>
      </trkpt>
      <trkpt lat="44.3949" lon="7.14222">
        <ele>2065.53</ele>
        <time>2023-02-14T09:16:05Z</time>
      </trkpt>
      <trkpt lat="44.39487" lon="7.14218">
        <ele>2067.45</ele>
        <time>2023-02-14T09:16:21Z</time>
      </trkpt>
      <trkpt lat="44.39473" lon="7.14213">
        <ele>2072.26</ele>
        <time>2023-02-14T09:16:40Z</time>
      </trkpt>
      <trkpt lat="44.39468" lon="7.14214">
        <ele>2076.59</ele>
        <time>2023-02-14T09:16:57Z</time>
      </trkpt>
      <trkpt lat="44.39474" lon="7.14205">
        <ele>2076.59</ele>
        <time>2023-02-14T09:17:10Z</time>
      </trkpt>
      <trkpt lat="44.39478" lon="7.14195">
        <ele>2078.51</ele>
        <time>2023-02-14T09:17:28Z</time>
      </trkpt>
      <trkpt lat="44.39482" lon="7.14187">
        <ele>2080.43</ele>
        <time>2023-02-14T09:17:42Z</time>
      </trkpt>
      <trkpt lat="44.39484" lon="7.14181">
        <ele>2078.99</ele>
        <time>2023-02-14T09:17:55Z</time>
      </trkpt>
      <trkpt lat="44.39477" lon="7.14182">
        <ele>2080.43</ele>
        <time>2023-02-14T09:18:10Z</time>
      </trkpt>
      <trkpt lat="44.39469" lon="7.14182">
        <ele>2082.83</ele>
        <time>2023-02-14T09:18:24Z</time>
      </trkpt>
      <trkpt lat="44.39462" lon="7.14181">
        <ele>2084.76</ele>
        <time>2023-02-14T09:18:39Z</time>
      </trkpt>
      <trkpt lat="44.39458" lon="7.1418">
        <ele>2086.68</ele>
        <time>2023-02-14T09:18:53Z</time>
      </trkpt>
      <trkpt lat="44.39455" lon="7.14176">
        <ele>2087.16</ele>
        <time>2023-02-14T09:19:08Z</time>
      </trkpt>
      <trkpt lat="44.39459" lon="7.1417">
        <ele>2084.76</ele>
        <time>2023-02-14T09:19:20Z</time>
      </trkpt>
      <trkpt lat="44.39462" lon="7.14161">
        <ele>2087.16</ele>
        <time>2023-02-14T09:19:34Z</time>
      </trkpt>
      <trkpt lat="44.39461" lon="7.14156">
        <ele>2090.04</ele>
        <time>2023-02-14T09:19:46Z</time>
      </trkpt>
      <trkpt lat="44.39451" lon="7.1416">
        <ele>2092.45</ele>
        <time>2023-02-14T09:20:03Z</time>
      </trkpt>
      <trkpt lat="44.39442" lon="7.14162">
        <ele>2095.33</ele>
        <time>2023-02-14T09:20:19Z</time>
      </trkpt>
      <trkpt lat="44.39438" lon="7.14163">
        <ele>2098.21</ele>
        <time>2023-02-14T09:20:36Z</time>
      </trkpt>
      <trkpt lat="44.39438" lon="7.14159">
        <ele>2098.7</ele>
        <time>2023-02-14T09:20:48Z</time>
      </trkpt>
      <trkpt lat="44.39442" lon="7.14149">
        <ele>2100.14</ele>
        <time>2023-02-14T09:21:02Z</time>
      </trkpt>
      <trkpt lat="44.39444" lon="7.1414">
        <ele>2102.06</ele>
        <time>2023-02-14T09:21:15Z</time>
      </trkpt>
      <trkpt lat="44.39444" lon="7.14132">
        <ele>2104.94</ele>
        <time>2023-02-14T09:21:29Z</time>
      </trkpt>
      <trkpt lat="44.39437" lon="7.14135">
        <ele>2104.94</ele>
        <time>2023-02-14T09:21:41Z</time>
      </trkpt>
      <trkpt lat="44.39429" lon="7.14141">
        <ele>2105.91</ele>
        <time>2023-02-14T09:21:57Z</time>
      </trkpt>
      <trkpt lat="44.39423" lon="7.14141">
        <ele>2109.75</ele>
        <time>2023-02-14T09:22:13Z</time>
      </trkpt>
      <trkpt lat="44.39424" lon="7.14133">
        <ele>2112.15</ele>
        <time>2023-02-14T09:22:27Z</time>
      </trkpt>
      <trkpt lat="44.39426" lon="7.1413">
        <ele>2115.52</ele>
        <time>2023-02-14T09:22:44Z</time>
      </trkpt>
      <trkpt lat="44.39425" lon="7.14119">
        <ele>2115.04</ele>
        <time>2023-02-14T09:23:07Z</time>
      </trkpt>
      <trkpt lat="44.39418" lon="7.14109">
        <ele>2114.08</ele>
        <time>2023-02-14T09:23:21Z</time>
      </trkpt>
      <trkpt lat="44.39408" lon="7.14107">
        <ele>2115.04</ele>
        <time>2023-02-14T09:23:35Z</time>
      </trkpt>
      <trkpt lat="44.394" lon="7.14112">
        <ele>2114.08</ele>
        <time>2023-02-14T09:23:52Z</time>
      </trkpt>
      <trkpt lat="44.39398" lon="7.14105">
        <ele>2116</ele>
        <time>2023-02-14T09:24:07Z</time>
      </trkpt>
      <trkpt lat="44.39397" lon="7.14096">
        <ele>2117.92</ele>
        <time>2023-02-14T09:24:24Z</time>
      </trkpt>
      <trkpt lat="44.39394" lon="7.14099">
        <ele>2118.4</ele>
        <time>2023-02-14T09:24:40Z</time>
      </trkpt>
      <trkpt lat="44.39389" lon="7.14108">
        <ele>2120.32</ele>
        <time>2023-02-14T09:24:54Z</time>
      </trkpt>
      <trkpt lat="44.39385" lon="7.14118">
        <ele>2124.65</ele>
        <time>2023-02-14T09:25:13Z</time>
      </trkpt>
      <trkpt lat="44.3938" lon="7.14123">
        <ele>2126.57</ele>
        <time>2023-02-14T09:25:29Z</time>
      </trkpt>
      <trkpt lat="44.39378" lon="7.14113">
        <ele>2128.5</ele>
        <time>2023-02-14T09:25:45Z</time>
      </trkpt>
      <trkpt lat="44.39375" lon="7.14104">
        <ele>2128.5</ele>
        <time>2023-02-14T09:26:00Z</time>
      </trkpt>
      <trkpt lat="44.3937" lon="7.14098">
        <ele>2131.38</ele>
        <time>2023-02-14T09:26:18Z</time>
      </trkpt>
      <trkpt lat="44.39369" lon="7.14097">
        <ele>2134.26</ele>
        <time>2023-02-14T09:26:36Z</time>
      </trkpt>
      <trkpt lat="44.39367" lon="7.14093">
        <ele>2137.15</ele>
        <time>2023-02-14T09:27:08Z</time>
      </trkpt>
      <trkpt lat="44.39368" lon="7.14104">
        <ele>2133.3</ele>
        <time>2023-02-14T09:27:30Z</time>
      </trkpt>
      <trkpt lat="44.39364" lon="7.14101">
        <ele>2136.67</ele>
        <time>2023-02-14T09:27:50Z</time>
      </trkpt>
      <trkpt lat="44.39363" lon="7.14092">
        <ele>2138.11</ele>
        <time>2023-02-14T09:28:05Z</time>
      </trkpt>
      <trkpt lat="44.3936" lon="7.14084">
        <ele>2139.07</ele>
        <time>2023-02-14T09:28:20Z</time>
      </trkpt>
      <trkpt lat="44.39353" lon="7.14095">
        <ele>2142.44</ele>
        <time>2023-02-14T09:28:36Z</time>
      </trkpt>
      <trkpt lat="44.39349" lon="7.14104">
        <ele>2144.36</ele>
        <time>2023-02-14T09:28:53Z</time>
      </trkpt>
      <trkpt lat="44.39347" lon="7.14103">
        <ele>2145.32</ele>
        <time>2023-02-14T09:29:08Z</time>
      </trkpt>
      <trkpt lat="44.39347" lon="7.1409">
        <ele>2150.13</ele>
        <time>2023-02-14T09:29:23Z</time>
      </trkpt>
      <trkpt lat="44.39346" lon="7.14085">
        <ele>2149.65</ele>
        <time>2023-02-14T09:29:38Z</time>
      </trkpt>
      <trkpt lat="44.39344" lon="7.1408">
        <ele>2149.16</ele>
        <time>2023-02-14T09:29:54Z</time>
      </trkpt>
      <trkpt lat="44.3934" lon="7.14092">
        <ele>2153.49</ele>
        <time>2023-02-14T09:30:07Z</time>
      </trkpt>
      <trkpt lat="44.39336" lon="7.141">
        <ele>2155.41</ele>
        <time>2023-02-14T09:30:22Z</time>
      </trkpt>
      <trkpt lat="44.39332" lon="7.14106">
        <ele>2154.93</ele>
        <time>2023-02-14T09:30:38Z</time>
      </trkpt>
      <trkpt lat="44.3933" lon="7.14109">
        <ele>2152.53</ele>
        <time>2023-02-14T09:30:54Z</time>
      </trkpt>
      <trkpt lat="44.39327" lon="7.14112">
        <ele>2153.01</ele>
        <time>2023-02-14T09:31:13Z</time>
      </trkpt>
      <trkpt lat="44.3933" lon="7.14101">
        <ele>2154.93</ele>
        <time>2023-02-14T09:31:28Z</time>
      </trkpt>
      <trkpt lat="44.39329" lon="7.14089">
        <ele>2158.78</ele>
        <time>2023-02-14T09:31:46Z</time>
      </trkpt>
      <trkpt lat="44.39328" lon="7.14083">
        <ele>2161.66</ele>
        <time>2023-02-14T09:32:01Z</time>
      </trkpt>
      <trkpt lat="44.39326" lon="7.14088">
        <ele>2161.66</ele>
        <time>2023-02-14T09:32:16Z</time>
      </trkpt>
      <trkpt lat="44.39322" lon="7.14097">
        <ele>2163.1</ele>
        <time>2023-02-14T09:32:29Z</time>
      </trkpt>
      <trkpt lat="44.39321" lon="7.14102">
        <ele>2166.47</ele>
        <time>2023-02-14T09:32:43Z</time>
      </trkpt>
      <trkpt lat="44.39319" lon="7.14107">
        <ele>2168.39</ele>
        <time>2023-02-14T09:33:05Z</time>
      </trkpt>
      <trkpt lat="44.39318" lon="7.14108">
        <ele>2169.83</ele>
        <time>2023-02-14T09:33:24Z</time>
      </trkpt>
      <trkpt lat="44.39317" lon="7.14105">
        <ele>2170.31</ele>
        <time>2023-02-14T09:33:39Z</time>
      </trkpt>
      <trkpt lat="44.39319" lon="7.14095">
        <ele>2170.79</ele>
        <time>2023-02-14T09:33:54Z</time>
      </trkpt>
      <trkpt lat="44.39318" lon="7.14088">
        <ele>2171.76</ele>
        <time>2023-02-14T09:34:10Z</time>
      </trkpt>
      <trkpt lat="44.39317" lon="7.1408">
        <ele>2172.72</ele>
        <time>2023-02-14T09:34:26Z</time>
      </trkpt>
      <trkpt lat="44.39314" lon="7.14069">
        <ele>2174.64</ele>
        <time>2023-02-14T09:34:42Z</time>
      </trkpt>
      <trkpt lat="44.3931" lon="7.1406">
        <ele>2175.12</ele>
        <time>2023-02-14T09:34:58Z</time>
      </trkpt>
      <trkpt lat="44.39305" lon="7.14051">
        <ele>2176.08</ele>
        <time>2023-02-14T09:35:15Z</time>
      </trkpt>
      <trkpt lat="44.39305" lon="7.14058">
        <ele>2176.56</ele>
        <time>2023-02-14T09:35:27Z</time>
      </trkpt>
      <trkpt lat="44.39304" lon="7.14069">
        <ele>2179.93</ele>
        <time>2023-02-14T09:35:40Z</time>
      </trkpt>
      <trkpt lat="44.39304" lon="7.14076">
        <ele>2183.29</ele>
        <time>2023-02-14T09:35:56Z</time>
      </trkpt>
      <trkpt lat="44.39301" lon="7.14084">
        <ele>2184.73</ele>
        <time>2023-02-14T09:36:10Z</time>
      </trkpt>
      <trkpt lat="44.393" lon="7.14079">
        <ele>2184.73</ele>
        <time>2023-02-14T09:36:26Z</time>
      </trkpt>
      <trkpt lat="44.39299" lon="7.14065">
        <ele>2187.62</ele>
        <time>2023-02-14T09:36:40Z</time>
      </trkpt>
      <trkpt lat="44.39295" lon="7.1406">
        <ele>2187.62</ele>
        <time>2023-02-14T09:36:55Z</time>
      </trkpt>
      <trkpt lat="44.39291" lon="7.14053">
        <ele>2188.58</ele>
        <time>2023-02-14T09:37:08Z</time>
      </trkpt>
      <trkpt lat="44.39286" lon="7.14046">
        <ele>2190.02</ele>
        <time>2023-02-14T09:37:23Z</time>
      </trkpt>
      <trkpt lat="44.39281" lon="7.14039">
        <ele>2190.98</ele>
        <time>2023-02-14T09:37:39Z</time>
      </trkpt>
      <trkpt lat="44.39276" lon="7.1403">
        <ele>2191.94</ele>
        <time>2023-02-14T09:37:56Z</time>
      </trkpt>
      <trkpt lat="44.39272" lon="7.14021">
        <ele>2193.87</ele>
        <time>2023-02-14T09:38:12Z</time>
      </trkpt>
      <trkpt lat="44.39269" lon="7.14018">
        <ele>2196.27</ele>
        <time>2023-02-14T09:38:30Z</time>
      </trkpt>
      <trkpt lat="44.39266" lon="7.14031">
        <ele>2198.19</ele>
        <time>2023-02-14T09:38:45Z</time>
      </trkpt>
      <trkpt lat="44.39265" lon="7.14035">
        <ele>2198.19</ele>
        <time>2023-02-14T09:39:05Z</time>
      </trkpt>
      <trkpt lat="44.39264" lon="7.1403">
        <ele>2199.15</ele>
        <time>2023-02-14T09:39:26Z</time>
      </trkpt>
      <trkpt lat="44.39264" lon="7.14021">
        <ele>2201.08</ele>
        <time>2023-02-14T09:39:39Z</time>
      </trkpt>
      <trkpt lat="44.39264" lon="7.14019">
        <ele>2202.52</ele>
        <time>2023-02-14T09:40:03Z</time>
      </trkpt>
      <trkpt lat="44.39262" lon="7.14015">
        <ele>2201.56</ele>
        <time>2023-02-14T09:40:29Z</time>
      </trkpt>
      <trkpt lat="44.39259" lon="7.14004">
        <ele>2202.04</ele>
        <time>2023-02-14T09:40:41Z</time>
      </trkpt>
      <trkpt lat="44.39254" lon="7.13993">
        <ele>2206.36</ele>
        <time>2023-02-14T09:40:59Z</time>
      </trkpt>
      <trkpt lat="44.39249" lon="7.13987">
        <ele>2207.32</ele>
        <time>2023-02-14T09:41:14Z</time>
      </trkpt>
      <trkpt lat="44.39244" lon="7.13978">
        <ele>2210.21</ele>
        <time>2023-02-14T09:41:32Z</time>
      </trkpt>
      <trkpt lat="44.3924" lon="7.1397">
        <ele>2212.13</ele>
        <time>2023-02-14T09:41:46Z</time>
      </trkpt>
      <trkpt lat="44.39233" lon="7.13966">
        <ele>2213.57</ele>
        <time>2023-02-14T09:42:01Z</time>
      </trkpt>
      <trkpt lat="44.39226" lon="7.13965">
        <ele>2215.98</ele>
        <time>2023-02-14T09:42:16Z</time>
      </trkpt>
      <trkpt lat="44.39224" lon="7.1396">
        <ele>2214.53</ele>
        <time>2023-02-14T09:42:32Z</time>
      </trkpt>
      <trkpt lat="44.39222" lon="7.13959">
        <ele>2215.5</ele>
        <time>2023-02-14T09:42:44Z</time>
      </trkpt>
      <trkpt lat="44.39222" lon="7.13953">
        <ele>2217.42</ele>
        <time>2023-02-14T09:43:15Z</time>
      </trkpt>
      <trkpt lat="44.39213" lon="7.13941">
        <ele>2219.82</ele>
        <time>2023-02-14T09:43:34Z</time>
      </trkpt>
      <trkpt lat="44.39206" lon="7.13926">
        <ele>2222.71</ele>
        <time>2023-02-14T09:43:53Z</time>
      </trkpt>
      <trkpt lat="44.39199" lon="7.13914">
        <ele>2226.07</ele>
        <time>2023-02-14T09:44:10Z</time>
      </trkpt>
      <trkpt lat="44.39193" lon="7.13905">
        <ele>2227.51</ele>
        <time>2023-02-14T09:44:25Z</time>
      </trkpt>
      <trkpt lat="44.39188" lon="7.139">
        <ele>2229.43</ele>
        <time>2023-02-14T09:44:38Z</time>
      </trkpt>
      <trkpt lat="44.39184" lon="7.13896">
        <ele>2227.99</ele>
        <time>2023-02-14T09:44:51Z</time>
      </trkpt>
      <trkpt lat="44.39178" lon="7.1389">
        <ele>2226.07</ele>
        <time>2023-02-14T09:45:04Z</time>
      </trkpt>
      <trkpt lat="44.39172" lon="7.1388">
        <ele>2226.55</ele>
        <time>2023-02-14T09:45:18Z</time>
      </trkpt>
      <trkpt lat="44.39165" lon="7.13875">
        <ele>2228.47</ele>
        <time>2023-02-14T09:45:31Z</time>
      </trkpt>
      <trkpt lat="44.39161" lon="7.13866">
        <ele>2231.36</ele>
        <time>2023-02-14T09:45:45Z</time>
      </trkpt>
      <trkpt lat="44.39155" lon="7.13859">
        <ele>2230.4</ele>
        <time>2023-02-14T09:46:00Z</time>
      </trkpt>
      <trkpt lat="44.39147" lon="7.13848">
        <ele>2232.8</ele>
        <time>2023-02-14T09:46:17Z</time>
      </trkpt>
      <trkpt lat="44.39142" lon="7.1384">
        <ele>2235.2</ele>
        <time>2023-02-14T09:46:29Z</time>
      </trkpt>
      <trkpt lat="44.39135" lon="7.13836">
        <ele>2236.16</ele>
        <time>2023-02-14T09:46:41Z</time>
      </trkpt>
      <trkpt lat="44.39127" lon="7.13838">
        <ele>2238.09</ele>
        <time>2023-02-14T09:46:56Z</time>
      </trkpt>
      <trkpt lat="44.39118" lon="7.13835">
        <ele>2241.93</ele>
        <time>2023-02-14T09:47:13Z</time>
      </trkpt>
      <trkpt lat="44.39114" lon="7.13827">
        <ele>2240.97</ele>
        <time>2023-02-14T09:47:26Z</time>
      </trkpt>
      <trkpt lat="44.39112" lon="7.13818">
        <ele>2241.93</ele>
        <time>2023-02-14T09:47:43Z</time>
      </trkpt>
      <trkpt lat="44.39106" lon="7.13807">
        <ele>2243.37</ele>
        <time>2023-02-14T09:48:00Z</time>
      </trkpt>
      <trkpt lat="44.39102" lon="7.13798">
        <ele>2245.78</ele>
        <time>2023-02-14T09:48:13Z</time>
      </trkpt>
      <trkpt lat="44.39098" lon="7.13789">
        <ele>2248.18</ele>
        <time>2023-02-14T09:48:25Z</time>
      </trkpt>
      <trkpt lat="44.39094" lon="7.1378">
        <ele>2249.14</ele>
        <time>2023-02-14T09:48:38Z</time>
      </trkpt>
      <trkpt lat="44.39092" lon="7.13771">
        <ele>2248.18</ele>
        <time>2023-02-14T09:48:50Z</time>
      </trkpt>
      <trkpt lat="44.39089" lon="7.13766">
        <ele>2247.7</ele>
        <time>2023-02-14T09:49:03Z</time>
      </trkpt>
      <trkpt lat="44.39084" lon="7.13756">
        <ele>2249.62</ele>
        <time>2023-02-14T09:49:16Z</time>
      </trkpt>
      <trkpt lat="44.3908" lon="7.13748">
        <ele>2252.03</ele>
        <time>2023-02-14T09:49:30Z</time>
      </trkpt>
      <trkpt lat="44.39076" lon="7.13745">
        <ele>2254.43</ele>
        <time>2023-02-14T09:49:48Z</time>
      </trkpt>
      <trkpt lat="44.39076" lon="7.13743">
        <ele>2258.27</ele>
        <time>2023-02-14T09:50:14Z</time>
      </trkpt>
      <trkpt lat="44.39075" lon="7.13738">
        <ele>2261.16</ele>
        <time>2023-02-14T09:50:32Z</time>
      </trkpt>
      <trkpt lat="44.39072" lon="7.13725">
        <ele>2260.68</ele>
        <time>2023-02-14T09:50:47Z</time>
      </trkpt>
      <trkpt lat="44.3907" lon="7.13718">
        <ele>2258.27</ele>
        <time>2023-02-14T09:51:01Z</time>
      </trkpt>
      <trkpt lat="44.39066" lon="7.13707">
        <ele>2258.27</ele>
        <time>2023-02-14T09:51:18Z</time>
      </trkpt>
      <trkpt lat="44.39064" lon="7.13696">
        <ele>2260.2</ele>
        <time>2023-02-14T09:51:32Z</time>
      </trkpt>
      <trkpt lat="44.39062" lon="7.1368">
        <ele>2262.12</ele>
        <time>2023-02-14T09:51:50Z</time>
      </trkpt>
      <trkpt lat="44.39061" lon="7.13665">
        <ele>2262.6</ele>
        <time>2023-02-14T09:52:08Z</time>
      </trkpt>
      <trkpt lat="44.39059" lon="7.13652">
        <ele>2263.56</ele>
        <time>2023-02-14T09:52:25Z</time>
      </trkpt>
      <trkpt lat="44.39063" lon="7.13639">
        <ele>2267.41</ele>
        <time>2023-02-14T09:52:43Z</time>
      </trkpt>
      <trkpt lat="44.39065" lon="7.1363">
        <ele>2269.33</ele>
        <time>2023-02-14T09:52:58Z</time>
      </trkpt>
      <trkpt lat="44.3906" lon="7.13621">
        <ele>2272.69</ele>
        <time>2023-02-14T09:53:16Z</time>
      </trkpt>
      <trkpt lat="44.39051" lon="7.13615">
        <ele>2276.06</ele>
        <time>2023-02-14T09:53:32Z</time>
      </trkpt>
      <trkpt lat="44.39052" lon="7.13608">
        <ele>2276.54</ele>
        <time>2023-02-14T09:53:46Z</time>
      </trkpt>
      <trkpt lat="44.39052" lon="7.13597">
        <ele>2277.02</ele>
        <time>2023-02-14T09:54:03Z</time>
      </trkpt>
      <trkpt lat="44.39053" lon="7.13583">
        <ele>2278.94</ele>
        <time>2023-02-14T09:54:20Z</time>
      </trkpt>
      <trkpt lat="44.39054" lon="7.1357">
        <ele>2279.42</ele>
        <time>2023-02-14T09:54:37Z</time>
      </trkpt>
      <trkpt lat="44.39048" lon="7.13563">
        <ele>2281.35</ele>
        <time>2023-02-14T09:54:51Z</time>
      </trkpt>
      <trkpt lat="44.3904" lon="7.13562">
        <ele>2284.23</ele>
        <time>2023-02-14T09:55:07Z</time>
      </trkpt>
      <trkpt lat="44.39041" lon="7.1355">
        <ele>2281.83</ele>
        <time>2023-02-14T09:55:23Z</time>
      </trkpt>
      <trkpt lat="44.39045" lon="7.13543">
        <ele>2284.71</ele>
        <time>2023-02-14T09:55:43Z</time>
      </trkpt>
      <trkpt lat="44.39046" lon="7.13541">
        <ele>2285.19</ele>
        <time>2023-02-14T09:56:01Z</time>
      </trkpt>
      <trkpt lat="44.39047" lon="7.1354">
        <ele>2285.67</ele>
        <time>2023-02-14T09:56:22Z</time>
      </trkpt>
      <trkpt lat="44.39052" lon="7.1353">
        <ele>2283.75</ele>
        <time>2023-02-14T09:56:41Z</time>
      </trkpt>
      <trkpt lat="44.39057" lon="7.13528">
        <ele>2285.19</ele>
        <time>2023-02-14T09:57:03Z</time>
      </trkpt>
      <trkpt lat="44.39055" lon="7.1353">
        <ele>2285.19</ele>
        <time>2023-02-14T09:57:23Z</time>
      </trkpt>
      <trkpt lat="44.39057" lon="7.13525">
        <ele>2287.59</ele>
        <time>2023-02-14T09:57:41Z</time>
      </trkpt>
      <trkpt lat="44.39054" lon="7.13526">
        <ele>2291.92</ele>
        <time>2023-02-14T09:57:58Z</time>
      </trkpt>
      <trkpt lat="44.39048" lon="7.13523">
        <ele>2294.32</ele>
        <time>2023-02-14T09:58:10Z</time>
      </trkpt>
      <trkpt lat="44.39042" lon="7.13516">
        <ele>2296.25</ele>
        <time>2023-02-14T09:58:24Z</time>
      </trkpt>
      <trkpt lat="44.39035" lon="7.13509">
        <ele>2297.69</ele>
        <time>2023-02-14T09:58:38Z</time>
      </trkpt>
      <trkpt lat="44.39026" lon="7.13505">
        <ele>2297.69</ele>
        <time>2023-02-14T09:58:53Z</time>
      </trkpt>
      <trkpt lat="44.39018" lon="7.13508">
        <ele>2299.13</ele>
        <time>2023-02-14T09:59:09Z</time>
      </trkpt>
      <trkpt lat="44.39019" lon="7.13507">
        <ele>2301.05</ele>
        <time>2023-02-14T09:59:26Z</time>
      </trkpt>
      <trkpt lat="44.39023" lon="7.13496">
        <ele>2302.49</ele>
        <time>2023-02-14T09:59:40Z</time>
      </trkpt>
      <trkpt lat="44.39025" lon="7.13489">
        <ele>2303.94</ele>
        <time>2023-02-14T09:59:56Z</time>
      </trkpt>
      <trkpt lat="44.39019" lon="7.13488">
        <ele>2307.78</ele>
        <time>2023-02-14T10:00:10Z</time>
      </trkpt>
      <trkpt lat="44.39012" lon="7.13488">
        <ele>2309.7</ele>
        <time>2023-02-14T10:00:24Z</time>
      </trkpt>
      <trkpt lat="44.39005" lon="7.13493">
        <ele>2312.11</ele>
        <time>2023-02-14T10:00:39Z</time>
      </trkpt>
      <trkpt lat="44.39004" lon="7.13498">
        <ele>2314.51</ele>
        <time>2023-02-14T10:00:56Z</time>
      </trkpt>
      <trkpt lat="44.39004" lon="7.13488">
        <ele>2316.43</ele>
        <time>2023-02-14T10:01:09Z</time>
      </trkpt>
      <trkpt lat="44.39" lon="7.13485">
        <ele>2318.84</ele>
        <time>2023-02-14T10:01:25Z</time>
      </trkpt>
      <trkpt lat="44.38993" lon="7.13495">
        <ele>2316.91</ele>
        <time>2023-02-14T10:01:40Z</time>
      </trkpt>
      <trkpt lat="44.38991" lon="7.13498">
        <ele>2317.88</ele>
        <time>2023-02-14T10:01:59Z</time>
      </trkpt>
      <trkpt lat="44.38988" lon="7.13503">
        <ele>2321.72</ele>
        <time>2023-02-14T10:02:17Z</time>
      </trkpt>
      <trkpt lat="44.38979" lon="7.13509">
        <ele>2322.2</ele>
        <time>2023-02-14T10:02:34Z</time>
      </trkpt>
      <trkpt lat="44.38975" lon="7.13514">
        <ele>2322.2</ele>
        <time>2023-02-14T10:02:49Z</time>
      </trkpt>
      <trkpt lat="44.38974" lon="7.13514">
        <ele>2323.64</ele>
        <time>2023-02-14T10:03:01Z</time>
      </trkpt>
      <trkpt lat="44.38973" lon="7.13505">
        <ele>2327.97</ele>
        <time>2023-02-14T10:03:14Z</time>
      </trkpt>
      <trkpt lat="44.38966" lon="7.13503">
        <ele>2331.33</ele>
        <time>2023-02-14T10:03:28Z</time>
      </trkpt>
      <trkpt lat="44.38965" lon="7.13513">
        <ele>2332.3</ele>
        <time>2023-02-14T10:03:42Z</time>
      </trkpt>
      <trkpt lat="44.3896" lon="7.13511">
        <ele>2333.26</ele>
        <time>2023-02-14T10:03:56Z</time>
      </trkpt>
      <trkpt lat="44.38955" lon="7.13513">
        <ele>2334.22</ele>
        <time>2023-02-14T10:04:12Z</time>
      </trkpt>
      <trkpt lat="44.38948" lon="7.1352">
        <ele>2337.58</ele>
        <time>2023-02-14T10:04:28Z</time>
      </trkpt>
      <trkpt lat="44.38944" lon="7.13523">
        <ele>2338.06</ele>
        <time>2023-02-14T10:04:45Z</time>
      </trkpt>
      <trkpt lat="44.38936" lon="7.13528">
        <ele>2340.47</ele>
        <time>2023-02-14T10:04:58Z</time>
      </trkpt>
      <trkpt lat="44.38935" lon="7.13534">
        <ele>2340.47</ele>
        <time>2023-02-14T10:05:14Z</time>
      </trkpt>
      <trkpt lat="44.38936" lon="7.13533">
        <ele>2341.91</ele>
        <time>2023-02-14T10:05:30Z</time>
      </trkpt>
      <trkpt lat="44.38933" lon="7.13532">
        <ele>2342.87</ele>
        <time>2023-02-14T10:05:55Z</time>
      </trkpt>
      <trkpt lat="44.38933" lon="7.13535">
        <ele>2341.43</ele>
        <time>2023-02-14T10:06:17Z</time>
      </trkpt>
      <trkpt lat="44.38932" lon="7.13534">
        <ele>2345.27</ele>
        <time>2023-02-14T10:06:46Z</time>
      </trkpt>
      <trkpt lat="44.38929" lon="7.1353">
        <ele>2346.23</ele>
        <time>2023-02-14T10:06:59Z</time>
      </trkpt>
      <trkpt lat="44.38928" lon="7.13532">
        <ele>2349.12</ele>
        <time>2023-02-14T10:07:12Z</time>
      </trkpt>
      <trkpt lat="44.38928" lon="7.13523">
        <ele>2348.64</ele>
        <time>2023-02-14T10:07:27Z</time>
      </trkpt>
      <trkpt lat="44.38923" lon="7.13526">
        <ele>2351.52</ele>
        <time>2023-02-14T10:07:39Z</time>
      </trkpt>
      <trkpt lat="44.38919" lon="7.13528">
        <ele>2354.41</ele>
        <time>2023-02-14T10:07:56Z</time>
      </trkpt>
      <trkpt lat="44.38922" lon="7.1352">
        <ele>2353.93</ele>
        <time>2023-02-14T10:08:09Z</time>
      </trkpt>
      <trkpt lat="44.38916" lon="7.13517">
        <ele>2356.81</ele>
        <time>2023-02-14T10:08:23Z</time>
      </trkpt>
      <trkpt lat="44.3891" lon="7.13509">
        <ele>2360.17</ele>
        <time>2023-02-14T10:08:38Z</time>
      </trkpt>
      <trkpt lat="44.38905" lon="7.13504">
        <ele>2362.58</ele>
        <time>2023-02-14T10:08:52Z</time>
      </trkpt>
      <trkpt lat="44.38903" lon="7.13496">
        <ele>2364.5</ele>
        <time>2023-02-14T10:09:09Z</time>
      </trkpt>
      <trkpt lat="44.38897" lon="7.13496">
        <ele>2364.98</ele>
        <time>2023-02-14T10:09:23Z</time>
      </trkpt>
      <trkpt lat="44.38893" lon="7.13495">
        <ele>2365.94</ele>
        <time>2023-02-14T10:09:41Z</time>
      </trkpt>
      <trkpt lat="44.38893" lon="7.13502">
        <ele>2364.02</ele>
        <time>2023-02-14T10:09:56Z</time>
      </trkpt>
      <trkpt lat="44.38887" lon="7.13505">
        <ele>2364.02</ele>
        <time>2023-02-14T10:10:11Z</time>
      </trkpt>
      <trkpt lat="44.38882" lon="7.13505">
        <ele>2365.46</ele>
        <time>2023-02-14T10:10:26Z</time>
      </trkpt>
      <trkpt lat="44.3888" lon="7.13503">
        <ele>2366.9</ele>
        <time>2023-02-14T10:10:41Z</time>
      </trkpt>
      <trkpt lat="44.38875" lon="7.13502">
        <ele>2365.94</ele>
        <time>2023-02-14T10:11:00Z</time>
      </trkpt>
      <trkpt lat="44.38873" lon="7.13505">
        <ele>2364.5</ele>
        <time>2023-02-14T10:11:16Z</time>
      </trkpt>
      <trkpt lat="44.38864" lon="7.13511">
        <ele>2365.94</ele>
        <time>2023-02-14T10:11:30Z</time>
      </trkpt>
      <trkpt lat="44.38861" lon="7.13513">
        <ele>2366.42</ele>
        <time>2023-02-14T10:11:35Z</time>
      </trkpt>
      <trkpt lat="44.38852" lon="7.13515">
        <ele>2367.38</ele>
        <time>2023-02-14T10:11:49Z</time>
      </trkpt>
      <trkpt lat="44.3885" lon="7.13516">
        <ele>2364.02</ele>
        <time>2023-02-14T10:12:12Z</time>
      </trkpt>
      <trkpt lat="44.38845" lon="7.13518">
        <ele>2364.98</ele>
        <time>2023-02-14T10:12:25Z</time>
      </trkpt>
      <trkpt lat="44.38843" lon="7.13518">
        <ele>2364.5</ele>
        <time>2023-02-14T10:12:43Z</time>
      </trkpt>
      <trkpt lat="44.38843" lon="7.13516">
        <ele>2364.02</ele>
        <time>2023-02-14T10:13:00Z</time>
      </trkpt>
      <trkpt lat="44.38844" lon="7.13518">
        <ele>2363.06</ele>
        <time>2023-02-14T10:13:29Z</time>
      </trkpt>
      <trkpt lat="44.38845" lon="7.13517">
        <ele>2362.1</ele>
        <time>2023-02-14T10:13:57Z</time>
      </trkpt>
      <trkpt lat="44.38844" lon="7.13516">
        <ele>2359.69</ele>
        <time>2023-02-14T10:14:28Z</time>
      </trkpt>
      <trkpt lat="44.38843" lon="7.13517">
        <ele>2361.14</ele>
        <time>2023-02-14T10:14:43Z</time>
      </trkpt>
      <trkpt lat="44.38831" lon="7.13522">
        <ele>2362.1</ele>
        <time>2023-02-14T10:14:56Z</time>
      </trkpt>
      <trkpt lat="44.38818" lon="7.13522">
        <ele>2363.54</ele>
        <time>2023-02-14T10:15:09Z</time>
      </trkpt>
      <trkpt lat="44.38806" lon="7.13523">
        <ele>2364.98</ele>
        <time>2023-02-14T10:15:23Z</time>
      </trkpt>
      <trkpt lat="44.38797" lon="7.13522">
        <ele>2365.46</ele>
        <time>2023-02-14T10:15:35Z</time>
      </trkpt>
      <trkpt lat="44.38789" lon="7.13521">
        <ele>2366.9</ele>
        <time>2023-02-14T10:15:48Z</time>
      </trkpt>
      <trkpt lat="44.3878" lon="7.1352">
        <ele>2368.35</ele>
        <time>2023-02-14T10:16:00Z</time>
      </trkpt>
      <trkpt lat="44.38775" lon="7.13517">
        <ele>2370.75</ele>
        <time>2023-02-14T10:16:15Z</time>
      </trkpt>
      <trkpt lat="44.38768" lon="7.13517">
        <ele>2371.71</ele>
        <time>2023-02-14T10:16:32Z</time>
      </trkpt>
      <trkpt lat="44.38757" lon="7.13523">
        <ele>2373.15</ele>
        <time>2023-02-14T10:16:48Z</time>
      </trkpt>
      <trkpt lat="44.38747" lon="7.13528">
        <ele>2374.59</ele>
        <time>2023-02-14T10:17:02Z</time>
      </trkpt>
      <trkpt lat="44.38739" lon="7.13535">
        <ele>2378.44</ele>
        <time>2023-02-14T10:17:18Z</time>
      </trkpt>
      <trkpt lat="44.38732" lon="7.1354">
        <ele>2379.88</ele>
        <time>2023-02-14T10:17:35Z</time>
      </trkpt>
      <trkpt lat="44.38727" lon="7.13549">
        <ele>2381.8</ele>
        <time>2023-02-14T10:17:50Z</time>
      </trkpt>
      <trkpt lat="44.38723" lon="7.13557">
        <ele>2382.28</ele>
        <time>2023-02-14T10:18:05Z</time>
      </trkpt>
      <trkpt lat="44.38719" lon="7.13564">
        <ele>2383.73</ele>
        <time>2023-02-14T10:18:18Z</time>
      </trkpt>
      <trkpt lat="44.38713" lon="7.13571">
        <ele>2386.61</ele>
        <time>2023-02-14T10:18:34Z</time>
      </trkpt>
      <trkpt lat="44.38711" lon="7.13579">
        <ele>2388.05</ele>
        <time>2023-02-14T10:18:49Z</time>
      </trkpt>
      <trkpt lat="44.3872" lon="7.13581">
        <ele>2387.57</ele>
        <time>2023-02-14T10:19:02Z</time>
      </trkpt>
      <trkpt lat="44.38726" lon="7.13584">
        <ele>2388.53</ele>
        <time>2023-02-14T10:19:17Z</time>
      </trkpt>
      <trkpt lat="44.38735" lon="7.13594">
        <ele>2390.94</ele>
        <time>2023-02-14T10:19:35Z</time>
      </trkpt>
      <trkpt lat="44.3874" lon="7.13603">
        <ele>2392.38</ele>
        <time>2023-02-14T10:19:48Z</time>
      </trkpt>
      <trkpt lat="44.38743" lon="7.1361">
        <ele>2394.3</ele>
        <time>2023-02-14T10:20:02Z</time>
      </trkpt>
      <trkpt lat="44.38736" lon="7.13611">
        <ele>2396.22</ele>
        <time>2023-02-14T10:20:15Z</time>
      </trkpt>
      <trkpt lat="44.38729" lon="7.13614">
        <ele>2398.63</ele>
        <time>2023-02-14T10:20:29Z</time>
      </trkpt>
      <trkpt lat="44.38721" lon="7.13617">
        <ele>2400.55</ele>
        <time>2023-02-14T10:20:45Z</time>
      </trkpt>
      <trkpt lat="44.38718" lon="7.13622">
        <ele>2402.47</ele>
        <time>2023-02-14T10:21:03Z</time>
      </trkpt>
      <trkpt lat="44.38726" lon="7.1363">
        <ele>2403.91</ele>
        <time>2023-02-14T10:21:20Z</time>
      </trkpt>
      <trkpt lat="44.38732" lon="7.13636">
        <ele>2406.32</ele>
        <time>2023-02-14T10:21:36Z</time>
      </trkpt>
      <trkpt lat="44.38737" lon="7.13641">
        <ele>2407.28</ele>
        <time>2023-02-14T10:21:52Z</time>
      </trkpt>
      <trkpt lat="44.38738" lon="7.13646">
        <ele>2407.28</ele>
        <time>2023-02-14T10:22:07Z</time>
      </trkpt>
      <trkpt lat="44.38731" lon="7.13649">
        <ele>2407.28</ele>
        <time>2023-02-14T10:22:20Z</time>
      </trkpt>
      <trkpt lat="44.38724" lon="7.13652">
        <ele>2410.16</ele>
        <time>2023-02-14T10:22:37Z</time>
      </trkpt>
      <trkpt lat="44.38716" lon="7.13655">
        <ele>2412.09</ele>
        <time>2023-02-14T10:22:52Z</time>
      </trkpt>
      <trkpt lat="44.38723" lon="7.13662">
        <ele>2412.57</ele>
        <time>2023-02-14T10:23:04Z</time>
      </trkpt>
      <trkpt lat="44.38731" lon="7.13667">
        <ele>2414.97</ele>
        <time>2023-02-14T10:23:21Z</time>
      </trkpt>
      <trkpt lat="44.38738" lon="7.13672">
        <ele>2417.37</ele>
        <time>2023-02-14T10:23:36Z</time>
      </trkpt>
      <trkpt lat="44.38745" lon="7.1368">
        <ele>2420.26</ele>
        <time>2023-02-14T10:23:53Z</time>
      </trkpt>
      <trkpt lat="44.38746" lon="7.13682">
        <ele>2422.66</ele>
        <time>2023-02-14T10:24:09Z</time>
      </trkpt>
      <trkpt lat="44.38744" lon="7.13688">
        <ele>2420.74</ele>
        <time>2023-02-14T10:24:26Z</time>
      </trkpt>
      <trkpt lat="44.38734" lon="7.1369">
        <ele>2424.1</ele>
        <time>2023-02-14T10:24:44Z</time>
      </trkpt>
      <trkpt lat="44.38724" lon="7.13692">
        <ele>2424.58</ele>
        <time>2023-02-14T10:25:02Z</time>
      </trkpt>
      <trkpt lat="44.38723" lon="7.13696">
        <ele>2426.99</ele>
        <time>2023-02-14T10:25:14Z</time>
      </trkpt>
      <trkpt lat="44.38729" lon="7.13704">
        <ele>2429.87</ele>
        <time>2023-02-14T10:25:30Z</time>
      </trkpt>
      <trkpt lat="44.38736" lon="7.1371">
        <ele>2430.35</ele>
        <time>2023-02-14T10:25:44Z</time>
      </trkpt>
      <trkpt lat="44.38742" lon="7.13717">
        <ele>2431.79</ele>
        <time>2023-02-14T10:25:58Z</time>
      </trkpt>
      <trkpt lat="44.38743" lon="7.1372">
        <ele>2431.79</ele>
        <time>2023-02-14T10:26:12Z</time>
      </trkpt>
      <trkpt lat="44.38746" lon="7.13723">
        <ele>2432.75</ele>
        <time>2023-02-14T10:26:27Z</time>
      </trkpt>
      <trkpt lat="44.38748" lon="7.13731">
        <ele>2433.23</ele>
        <time>2023-02-14T10:26:43Z</time>
      </trkpt>
      <trkpt lat="44.3874" lon="7.13733">
        <ele>2435.64</ele>
        <time>2023-02-14T10:26:57Z</time>
      </trkpt>
      <trkpt lat="44.38738" lon="7.13736">
        <ele>2437.56</ele>
        <time>2023-02-14T10:27:13Z</time>
      </trkpt>
      <trkpt lat="44.38746" lon="7.13741">
        <ele>2437.56</ele>
        <time>2023-02-14T10:27:25Z</time>
      </trkpt>
      <trkpt lat="44.38753" lon="7.13748">
        <ele>2440.44</ele>
        <time>2023-02-14T10:27:42Z</time>
      </trkpt>
      <trkpt lat="44.38752" lon="7.1375">
        <ele>2441.89</ele>
        <time>2023-02-14T10:27:55Z</time>
      </trkpt>
      <trkpt lat="44.38746" lon="7.13754">
        <ele>2443.81</ele>
        <time>2023-02-14T10:28:09Z</time>
      </trkpt>
      <trkpt lat="44.3874" lon="7.13759">
        <ele>2446.69</ele>
        <time>2023-02-14T10:28:25Z</time>
      </trkpt>
      <trkpt lat="44.38736" lon="7.13761">
        <ele>2448.13</ele>
        <time>2023-02-14T10:28:42Z</time>
      </trkpt>
      <trkpt lat="44.38733" lon="7.13765">
        <ele>2447.17</ele>
        <time>2023-02-14T10:28:58Z</time>
      </trkpt>
      <trkpt lat="44.38732" lon="7.13765">
        <ele>2450.54</ele>
        <time>2023-02-14T10:29:31Z</time>
      </trkpt>
      <trkpt lat="44.38731" lon="7.13766">
        <ele>2449.58</ele>
        <time>2023-02-14T10:29:45Z</time>
      </trkpt>
      <trkpt lat="44.38732" lon="7.13762">
        <ele>2448.13</ele>
        <time>2023-02-14T10:29:58Z</time>
      </trkpt>
      <trkpt lat="44.38729" lon="7.13761">
        <ele>2447.17</ele>
        <time>2023-02-14T10:30:16Z</time>
      </trkpt>
      <trkpt lat="44.38715" lon="7.13751">
        <ele>2446.21</ele>
        <time>2023-02-14T10:30:26Z</time>
      </trkpt>
      <trkpt lat="44.38705" lon="7.13748">
        <ele>2448.62</ele>
        <time>2023-02-14T10:30:40Z</time>
      </trkpt>
      <trkpt lat="44.38696" lon="7.13743">
        <ele>2451.02</ele>
        <time>2023-02-14T10:30:53Z</time>
      </trkpt>
      <trkpt lat="44.38693" lon="7.13742">
        <ele>2452.46</ele>
        <time>2023-02-14T10:31:08Z</time>
      </trkpt>
      <trkpt lat="44.38691" lon="7.13743">
        <ele>2451.5</ele>
        <time>2023-02-14T10:31:21Z</time>
      </trkpt>
      <trkpt lat="44.3869" lon="7.13745">
        <ele>2451.02</ele>
        <time>2023-02-14T10:31:36Z</time>
      </trkpt>
      <trkpt lat="44.38692" lon="7.13749">
        <ele>2450.54</ele>
        <time>2023-02-14T10:31:47Z</time>
      </trkpt>
      <trkpt lat="44.38693" lon="7.13751">
        <ele>2451.02</ele>
        <time>2023-02-14T10:32:06Z</time>
      </trkpt>
      <trkpt lat="44.38696" lon="7.13748">
        <ele>2451.02</ele>
        <time>2023-02-14T10:32:25Z</time>
      </trkpt>
      <trkpt lat="44.38697" lon="7.13748">
        <ele>2451.02</ele>
        <time>2023-02-14T10:32:46Z</time>
      </trkpt>
      <trkpt lat="44.38696" lon="7.1375">
        <ele>2451.98</ele>
        <time>2023-02-14T10:33:16Z</time>
      </trkpt>
      <trkpt lat="44.38695" lon="7.13748">
        <ele>2451.5</ele>
        <time>2023-02-14T10:33:37Z</time>
      </trkpt>
      <trkpt lat="44.38694" lon="7.13751">
        <ele>2449.1</ele>
        <time>2023-02-14T10:33:54Z</time>
      </trkpt>
      <trkpt lat="44.38695" lon="7.13751">
        <ele>2449.1</ele>
        <time>2023-02-14T10:34:12Z</time>
      </trkpt>
      <trkpt lat="44.38693" lon="7.13752">
        <ele>2449.58</ele>
        <time>2023-02-14T10:34:25Z</time>
      </trkpt>
      <trkpt lat="44.38694" lon="7.13753">
        <ele>2449.1</ele>
        <time>2023-02-14T10:34:34Z</time>
      </trkpt>
      <trkpt lat="44.38695" lon="7.13752">
        <ele>2448.62</ele>
        <time>2023-02-14T10:35:07Z</time>
      </trkpt>
      <trkpt lat="44.38695" lon="7.13753">
        <ele>2448.62</ele>
        <time>2023-02-14T10:35:38Z</time>
      </trkpt>
      <trkpt lat="44.38694" lon="7.13752">
        <ele>2449.1</ele>
        <time>2023-02-14T10:36:09Z</time>
      </trkpt>
      <trkpt lat="44.38695" lon="7.13751">
        <ele>2450.54</ele>
        <time>2023-02-14T10:36:44Z</time>
      </trkpt>
      <trkpt lat="44.38695" lon="7.13751">
        <ele>2450.06</ele>
        <time>2023-02-14T10:37:26Z</time>
      </trkpt>
      <trkpt lat="44.38695" lon="7.13752">
        <ele>2448.13</ele>
        <time>2023-02-14T10:38:02Z</time>
      </trkpt>
      <trkpt lat="44.38695" lon="7.13752">
        <ele>2448.62</ele>
        <time>2023-02-14T10:38:37Z</time>
      </trkpt>
      <trkpt lat="44.38695" lon="7.13754">
        <ele>2449.58</ele>
        <time>2023-02-14T10:39:10Z</time>
      </trkpt>
      <trkpt lat="44.38696" lon="7.13754">
        <ele>2449.1</ele>
        <time>2023-02-14T10:39:47Z</time>
      </trkpt>
      <trkpt lat="44.38694" lon="7.13754">
        <ele>2449.1</ele>
        <time>2023-02-14T10:40:21Z</time>
      </trkpt>
      <trkpt lat="44.38695" lon="7.13754">
        <ele>2448.62</ele>
        <time>2023-02-14T10:40:58Z</time>
      </trkpt>
      <trkpt lat="44.38695" lon="7.13754">
        <ele>2448.13</ele>
        <time>2023-02-14T10:41:41Z</time>
      </trkpt>
      <trkpt lat="44.38695" lon="7.13754">
        <ele>2449.1</ele>
        <time>2023-02-14T10:42:23Z</time>
      </trkpt>
      <trkpt lat="44.38696" lon="7.13753">
        <ele>2447.65</ele>
        <time>2023-02-14T10:43:00Z</time>
      </trkpt>
      <trkpt lat="44.38695" lon="7.13754">
        <ele>2448.62</ele>
        <time>2023-02-14T10:43:41Z</time>
      </trkpt>
      <trkpt lat="44.38695" lon="7.13754">
        <ele>2449.1</ele>
        <time>2023-02-14T10:44:16Z</time>
      </trkpt>
      <trkpt lat="44.38695" lon="7.13754">
        <ele>2448.13</ele>
        <time>2023-02-14T10:44:48Z</time>
      </trkpt>
      <trkpt lat="44.38695" lon="7.13753">
        <ele>2448.13</ele>
        <time>2023-02-14T10:45:19Z</time>
      </trkpt>
      <trkpt lat="44.38695" lon="7.13754">
        <ele>2449.1</ele>
        <time>2023-02-14T10:45:53Z</time>
      </trkpt>
      <trkpt lat="44.38695" lon="7.13753">
        <ele>2447.65</ele>
        <time>2023-02-14T10:46:30Z</time>
      </trkpt>
      <trkpt lat="44.38695" lon="7.13754">
        <ele>2447.65</ele>
        <time>2023-02-14T10:47:02Z</time>
      </trkpt>
      <trkpt lat="44.38694" lon="7.13755">
        <ele>2447.65</ele>
        <time>2023-02-14T10:47:41Z</time>
      </trkpt>
      <trkpt lat="44.38695" lon="7.13754">
        <ele>2446.21</ele>
        <time>2023-02-14T10:48:17Z</time>
      </trkpt>
      <trkpt lat="44.38694" lon="7.13755">
        <ele>2445.25</ele>
        <time>2023-02-14T10:48:56Z</time>
      </trkpt>
      <trkpt lat="44.38695" lon="7.13755">
        <ele>2446.69</ele>
        <time>2023-02-14T10:49:28Z</time>
      </trkpt>
      <trkpt lat="44.38695" lon="7.13755">
        <ele>2445.73</ele>
        <time>2023-02-14T10:49:50Z</time>
      </trkpt>
      <trkpt lat="44.38695" lon="7.13755">
        <ele>2446.21</ele>
        <time>2023-02-14T10:50:40Z</time>
      </trkpt>
      <trkpt lat="44.38694" lon="7.13751">
        <ele>2448.13</ele>
        <time>2023-02-14T10:50:58Z</time>
      </trkpt>
      <trkpt lat="44.38694" lon="7.13746">
        <ele>2448.62</ele>
        <time>2023-02-14T10:51:19Z</time>
      </trkpt>
      <trkpt lat="44.38693" lon="7.13748">
        <ele>2448.13</ele>
        <time>2023-02-14T10:51:32Z</time>
      </trkpt>
      <trkpt lat="44.38694" lon="7.13749">
        <ele>2447.65</ele>
        <time>2023-02-14T10:51:52Z</time>
      </trkpt>
      <trkpt lat="44.38693" lon="7.13749">
        <ele>2449.58</ele>
        <time>2023-02-14T10:52:12Z</time>
      </trkpt>
      <trkpt lat="44.38696" lon="7.13749">
        <ele>2449.58</ele>
        <time>2023-02-14T10:52:27Z</time>
      </trkpt>
      <trkpt lat="44.38695" lon="7.13747">
        <ele>2449.58</ele>
        <time>2023-02-14T10:52:51Z</time>
      </trkpt>
      <trkpt lat="44.38699" lon="7.13744">
        <ele>2449.58</ele>
        <time>2023-02-14T10:53:13Z</time>
      </trkpt>
      <trkpt lat="44.387" lon="7.13745">
        <ele>2449.58</ele>
        <time>2023-02-14T10:53:14Z</time>
      </trkpt>
      <trkpt lat="44.38701" lon="7.13745">
        <ele>2449.58</ele>
        <time>2023-02-14T10:53:15Z</time>
      </trkpt>
      <trkpt lat="44.38703" lon="7.13746">
        <ele>2449.1</ele>
        <time>2023-02-14T10:53:16Z</time>
      </trkpt>
      <trkpt lat="44.38705" lon="7.13748">
        <ele>2448.62</ele>
        <time>2023-02-14T10:53:17Z</time>
      </trkpt>
      <trkpt lat="44.38706" lon="7.13749">
        <ele>2448.13</ele>
        <time>2023-02-14T10:53:18Z</time>
      </trkpt>
      <trkpt lat="44.38709" lon="7.13749">
        <ele>2447.65</ele>
        <time>2023-02-14T10:53:19Z</time>
      </trkpt>
      <trkpt lat="44.38711" lon="7.13751">
        <ele>2447.17</ele>
        <time>2023-02-14T10:53:20Z</time>
      </trkpt>
      <trkpt lat="44.38713" lon="7.13753">
        <ele>2446.69</ele>
        <time>2023-02-14T10:53:21Z</time>
      </trkpt>
      <trkpt lat="44.38715" lon="7.13754">
        <ele>2446.21</ele>
        <time>2023-02-14T10:53:22Z</time>
      </trkpt>
      <trkpt lat="44.38716" lon="7.13752">
        <ele>2445.73</ele>
        <time>2023-02-14T10:53:23Z</time>
      </trkpt>
      <trkpt lat="44.38717" lon="7.1375">
        <ele>2444.77</ele>
        <time>2023-02-14T10:53:24Z</time>
      </trkpt>
      <trkpt lat="44.38716" lon="7.13748">
        <ele>2444.29</ele>
        <time>2023-02-14T10:53:25Z</time>
      </trkpt>
      <trkpt lat="44.38713" lon="7.13741">
        <ele>2442.85</ele>
        <time>2023-02-14T10:53:28Z</time>
      </trkpt>
      <trkpt lat="44.38704" lon="7.13717">
        <ele>2439.48</ele>
        <time>2023-02-14T10:53:42Z</time>
      </trkpt>
      <trkpt lat="44.38712" lon="7.13717">
        <ele>2438.04</ele>
        <time>2023-02-14T10:53:46Z</time>
      </trkpt>
      <trkpt lat="44.38714" lon="7.13703">
        <ele>2434.68</ele>
        <time>2023-02-14T10:53:50Z</time>
      </trkpt>
      <trkpt lat="44.38718" lon="7.13695">
        <ele>2432.75</ele>
        <time>2023-02-14T10:53:52Z</time>
      </trkpt>
      <trkpt lat="44.38719" lon="7.13666">
        <ele>2425.06</ele>
        <time>2023-02-14T10:53:58Z</time>
      </trkpt>
      <trkpt lat="44.3871" lon="7.13651">
        <ele>2419.3</ele>
        <time>2023-02-14T10:54:02Z</time>
      </trkpt>
      <trkpt lat="44.38716" lon="7.13633">
        <ele>2413.05</ele>
        <time>2023-02-14T10:54:07Z</time>
      </trkpt>
      <trkpt lat="44.38712" lon="7.13629">
        <ele>2411.6</ele>
        <time>2023-02-14T10:54:08Z</time>
      </trkpt>
      <trkpt lat="44.38707" lon="7.13624">
        <ele>2409.68</ele>
        <time>2023-02-14T10:54:10Z</time>
      </trkpt>
      <trkpt lat="44.38713" lon="7.13614">
        <ele>2406.32</ele>
        <time>2023-02-14T10:54:13Z</time>
      </trkpt>
      <trkpt lat="44.38718" lon="7.13594">
        <ele>2398.15</ele>
        <time>2023-02-14T10:54:19Z</time>
      </trkpt>
      <trkpt lat="44.38726" lon="7.13597">
        <ele>2389.49</ele>
        <time>2023-02-14T10:54:27Z</time>
      </trkpt>
      <trkpt lat="44.38726" lon="7.13597">
        <ele>2389.49</ele>
        <time>2023-02-14T10:54:45Z</time>
      </trkpt>
      <trkpt lat="44.38727" lon="7.13596">
        <ele>2389.49</ele>
        <time>2023-02-14T10:55:09Z</time>
      </trkpt>
      <trkpt lat="44.38727" lon="7.13596">
        <ele>2389.49</ele>
        <time>2023-02-14T10:55:20Z</time>
      </trkpt>
      <trkpt lat="44.38754" lon="7.13597">
        <ele>2387.57</ele>
        <time>2023-02-14T10:55:30Z</time>
      </trkpt>
      <trkpt lat="44.38772" lon="7.13601">
        <ele>2385.17</ele>
        <time>2023-02-14T10:55:35Z</time>
      </trkpt>
      <trkpt lat="44.3878" lon="7.13583">
        <ele>2380.36</ele>
        <time>2023-02-14T10:55:39Z</time>
      </trkpt>
      <trkpt lat="44.38792" lon="7.13567">
        <ele>2374.59</ele>
        <time>2023-02-14T10:55:44Z</time>
      </trkpt>
      <trkpt lat="44.38819" lon="7.1355">
        <ele>2366.42</ele>
        <time>2023-02-14T10:55:50Z</time>
      </trkpt>
      <trkpt lat="44.38824" lon="7.13545">
        <ele>2364.98</ele>
        <time>2023-02-14T10:55:51Z</time>
      </trkpt>
      <trkpt lat="44.38863" lon="7.13512">
        <ele>2355.85</ele>
        <time>2023-02-14T10:56:02Z</time>
      </trkpt>
      <trkpt lat="44.38877" lon="7.13502">
        <ele>2353.93</ele>
        <time>2023-02-14T10:56:13Z</time>
      </trkpt>
      <trkpt lat="44.38878" lon="7.13501">
        <ele>2355.37</ele>
        <time>2023-02-14T10:56:33Z</time>
      </trkpt>
      <trkpt lat="44.38878" lon="7.13502">
        <ele>2355.37</ele>
        <time>2023-02-14T10:56:36Z</time>
      </trkpt>
      <trkpt lat="44.38892" lon="7.13503">
        <ele>2356.33</ele>
        <time>2023-02-14T10:56:46Z</time>
      </trkpt>
      <trkpt lat="44.38894" lon="7.13503">
        <ele>2355.85</ele>
        <time>2023-02-14T10:56:48Z</time>
      </trkpt>
      <trkpt lat="44.38897" lon="7.13499">
        <ele>2354.41</ele>
        <time>2023-02-14T10:56:52Z</time>
      </trkpt>
      <trkpt lat="44.38899" lon="7.13495">
        <ele>2353.93</ele>
        <time>2023-02-14T10:56:53Z</time>
      </trkpt>
      <trkpt lat="44.38903" lon="7.13492">
        <ele>2353.93</ele>
        <time>2023-02-14T10:56:54Z</time>
      </trkpt>
      <trkpt lat="44.38907" lon="7.13491">
        <ele>2353.44</ele>
        <time>2023-02-14T10:56:55Z</time>
      </trkpt>
      <trkpt lat="44.38911" lon="7.13492">
        <ele>2352.96</ele>
        <time>2023-02-14T10:56:56Z</time>
      </trkpt>
      <trkpt lat="44.38914" lon="7.13493">
        <ele>2352.96</ele>
        <time>2023-02-14T10:56:57Z</time>
      </trkpt>
      <trkpt lat="44.38916" lon="7.13493">
        <ele>2352</ele>
        <time>2023-02-14T10:57:06Z</time>
      </trkpt>
      <trkpt lat="44.3891" lon="7.13495">
        <ele>2350.08</ele>
        <time>2023-02-14T10:57:10Z</time>
      </trkpt>
      <trkpt lat="44.38908" lon="7.13496">
        <ele>2350.08</ele>
        <time>2023-02-14T10:57:11Z</time>
      </trkpt>
      <trkpt lat="44.38906" lon="7.13498">
        <ele>2349.6</ele>
        <time>2023-02-14T10:57:12Z</time>
      </trkpt>
      <trkpt lat="44.38906" lon="7.13502">
        <ele>2350.08</ele>
        <time>2023-02-14T10:57:21Z</time>
      </trkpt>
      <trkpt lat="44.38907" lon="7.13504">
        <ele>2350.08</ele>
        <time>2023-02-14T10:57:22Z</time>
      </trkpt>
      <trkpt lat="44.3891" lon="7.13506">
        <ele>2349.6</ele>
        <time>2023-02-14T10:57:23Z</time>
      </trkpt>
      <trkpt lat="44.38914" lon="7.13507">
        <ele>2349.6</ele>
        <time>2023-02-14T10:57:24Z</time>
      </trkpt>
      <trkpt lat="44.38916" lon="7.13507">
        <ele>2349.12</ele>
        <time>2023-02-14T10:57:25Z</time>
      </trkpt>
      <trkpt lat="44.38918" lon="7.13508">
        <ele>2346.72</ele>
        <time>2023-02-14T10:57:36Z</time>
      </trkpt>
      <trkpt lat="44.38918" lon="7.13509">
        <ele>2346.23</ele>
        <time>2023-02-14T10:57:41Z</time>
      </trkpt>
      <trkpt lat="44.38926" lon="7.13517">
        <ele>2345.27</ele>
        <time>2023-02-14T10:57:46Z</time>
      </trkpt>
      <trkpt lat="44.38933" lon="7.13528">
        <ele>2344.79</ele>
        <time>2023-02-14T10:57:53Z</time>
      </trkpt>
      <trkpt lat="44.3894" lon="7.13522">
        <ele>2341.91</ele>
        <time>2023-02-14T10:57:56Z</time>
      </trkpt>
      <trkpt lat="44.3896" lon="7.13507">
        <ele>2336.62</ele>
        <time>2023-02-14T10:58:05Z</time>
      </trkpt>
      <trkpt lat="44.38958" lon="7.13506">
        <ele>2332.3</ele>
        <time>2023-02-14T10:58:15Z</time>
      </trkpt>
      <trkpt lat="44.38958" lon="7.13505">
        <ele>2331.33</ele>
        <time>2023-02-14T10:58:35Z</time>
      </trkpt>
      <trkpt lat="44.38965" lon="7.13499">
        <ele>2330.85</ele>
        <time>2023-02-14T10:58:39Z</time>
      </trkpt>
      <trkpt lat="44.38978" lon="7.13484">
        <ele>2328.45</ele>
        <time>2023-02-14T10:58:43Z</time>
      </trkpt>
      <trkpt lat="44.38994" lon="7.13473">
        <ele>2326.05</ele>
        <time>2023-02-14T10:58:48Z</time>
      </trkpt>
      <trkpt lat="44.39003" lon="7.13464">
        <ele>2320.76</ele>
        <time>2023-02-14T10:58:58Z</time>
      </trkpt>
      <trkpt lat="44.39003" lon="7.13465">
        <ele>2318.36</ele>
        <time>2023-02-14T10:59:12Z</time>
      </trkpt>
      <trkpt lat="44.3901" lon="7.13481">
        <ele>2313.55</ele>
        <time>2023-02-14T10:59:19Z</time>
      </trkpt>
      <trkpt lat="44.39031" lon="7.13495">
        <ele>2306.82</ele>
        <time>2023-02-14T10:59:24Z</time>
      </trkpt>
      <trkpt lat="44.39035" lon="7.13505">
        <ele>2296.73</ele>
        <time>2023-02-14T10:59:31Z</time>
      </trkpt>
      <trkpt lat="44.39031" lon="7.13511">
        <ele>2295.77</ele>
        <time>2023-02-14T10:59:32Z</time>
      </trkpt>
      <trkpt lat="44.39026" lon="7.13534">
        <ele>2289.52</ele>
        <time>2023-02-14T10:59:37Z</time>
      </trkpt>
      <trkpt lat="44.39026" lon="7.13568">
        <ele>2283.27</ele>
        <time>2023-02-14T10:59:45Z</time>
      </trkpt>
      <trkpt lat="44.39041" lon="7.13598">
        <ele>2276.06</ele>
        <time>2023-02-14T10:59:51Z</time>
      </trkpt>
      <trkpt lat="44.39045" lon="7.13594">
        <ele>2272.21</ele>
        <time>2023-02-14T10:59:57Z</time>
      </trkpt>
      <trkpt lat="44.39045" lon="7.13594">
        <ele>2273.66</ele>
        <time>2023-02-14T11:00:11Z</time>
      </trkpt>
      <trkpt lat="44.3905" lon="7.13614">
        <ele>2269.33</ele>
        <time>2023-02-14T11:00:18Z</time>
      </trkpt>
      <trkpt lat="44.39047" lon="7.13616">
        <ele>2268.37</ele>
        <time>2023-02-14T11:00:19Z</time>
      </trkpt>
      <trkpt lat="44.39031" lon="7.13648">
        <ele>2265</ele>
        <time>2023-02-14T11:00:28Z</time>
      </trkpt>
      <trkpt lat="44.39038" lon="7.13668">
        <ele>2264.52</ele>
        <time>2023-02-14T11:00:31Z</time>
      </trkpt>
      <trkpt lat="44.39066" lon="7.13712">
        <ele>2261.16</ele>
        <time>2023-02-14T11:00:37Z</time>
      </trkpt>
      <trkpt lat="44.39075" lon="7.13733">
        <ele>2260.2</ele>
        <time>2023-02-14T11:00:41Z</time>
      </trkpt>
      <trkpt lat="44.39083" lon="7.13769">
        <ele>2256.35</ele>
        <time>2023-02-14T11:00:50Z</time>
      </trkpt>
      <trkpt lat="44.39092" lon="7.1379">
        <ele>2254.91</ele>
        <time>2023-02-14T11:00:54Z</time>
      </trkpt>
      <trkpt lat="44.39094" lon="7.13826">
        <ele>2253.47</ele>
        <time>2023-02-14T11:01:03Z</time>
      </trkpt>
      <trkpt lat="44.39097" lon="7.1386">
        <ele>2250.58</ele>
        <time>2023-02-14T11:01:13Z</time>
      </trkpt>
      <trkpt lat="44.39114" lon="7.13869">
        <ele>2249.14</ele>
        <time>2023-02-14T11:01:17Z</time>
      </trkpt>
      <trkpt lat="44.39126" lon="7.13873">
        <ele>2248.18</ele>
        <time>2023-02-14T11:01:19Z</time>
      </trkpt>
      <trkpt lat="44.39154" lon="7.13883">
        <ele>2246.26</ele>
        <time>2023-02-14T11:01:23Z</time>
      </trkpt>
      <trkpt lat="44.39191" lon="7.13899">
        <ele>2244.33</ele>
        <time>2023-02-14T11:01:29Z</time>
      </trkpt>
      <trkpt lat="44.39213" lon="7.13925">
        <ele>2242.89</ele>
        <time>2023-02-14T11:01:34Z</time>
      </trkpt>
      <trkpt lat="44.39223" lon="7.13935">
        <ele>2242.89</ele>
        <time>2023-02-14T11:01:36Z</time>
      </trkpt>
      <trkpt lat="44.39243" lon="7.13959">
        <ele>2243.37</ele>
        <time>2023-02-14T11:01:40Z</time>
      </trkpt>
      <trkpt lat="44.39255" lon="7.13976">
        <ele>2244.33</ele>
        <time>2023-02-14T11:01:47Z</time>
      </trkpt>
      <trkpt lat="44.39257" lon="7.13975">
        <ele>2245.3</ele>
        <time>2023-02-14T11:01:58Z</time>
      </trkpt>
      <trkpt lat="44.39262" lon="7.13981">
        <ele>2245.3</ele>
        <time>2023-02-14T11:02:06Z</time>
      </trkpt>
      <trkpt lat="44.39267" lon="7.13986">
        <ele>2244.33</ele>
        <time>2023-02-14T11:02:12Z</time>
      </trkpt>
      <trkpt lat="44.3927" lon="7.13989">
        <ele>2243.37</ele>
        <time>2023-02-14T11:02:17Z</time>
      </trkpt>
      <trkpt lat="44.39272" lon="7.13979">
        <ele>2236.64</ele>
        <time>2023-02-14T11:02:22Z</time>
      </trkpt>
      <trkpt lat="44.39278" lon="7.13987">
        <ele>2234.24</ele>
        <time>2023-02-14T11:02:27Z</time>
      </trkpt>
      <trkpt lat="44.39285" lon="7.14001">
        <ele>2231.84</ele>
        <time>2023-02-14T11:02:33Z</time>
      </trkpt>
      <trkpt lat="44.39295" lon="7.14019">
        <ele>2226.07</ele>
        <time>2023-02-14T11:02:39Z</time>
      </trkpt>
      <trkpt lat="44.39298" lon="7.14022">
        <ele>2225.11</ele>
        <time>2023-02-14T11:02:40Z</time>
      </trkpt>
      <trkpt lat="44.39301" lon="7.1403">
        <ele>2223.19</ele>
        <time>2023-02-14T11:02:43Z</time>
      </trkpt>
      <trkpt lat="44.39293" lon="7.14041">
        <ele>2211.65</ele>
        <time>2023-02-14T11:03:00Z</time>
      </trkpt>
      <trkpt lat="44.3929" lon="7.14043">
        <ele>2206.36</ele>
        <time>2023-02-14T11:03:12Z</time>
      </trkpt>
      <trkpt lat="44.39291" lon="7.14025">
        <ele>2193.87</ele>
        <time>2023-02-14T11:03:18Z</time>
      </trkpt>
      <trkpt lat="44.39296" lon="7.14027">
        <ele>2191.94</ele>
        <time>2023-02-14T11:03:20Z</time>
      </trkpt>
      <trkpt lat="44.39304" lon="7.14026">
        <ele>2186.66</ele>
        <time>2023-02-14T11:03:25Z</time>
      </trkpt>
      <trkpt lat="44.3931" lon="7.1403">
        <ele>2184.25</ele>
        <time>2023-02-14T11:03:28Z</time>
      </trkpt>
      <trkpt lat="44.39313" lon="7.14021">
        <ele>2185.21</ele>
        <time>2023-02-14T11:03:37Z</time>
      </trkpt>
      <trkpt lat="44.39314" lon="7.1402">
        <ele>2185.69</ele>
        <time>2023-02-14T11:03:42Z</time>
      </trkpt>
      <trkpt lat="44.3932" lon="7.14026">
        <ele>2186.18</ele>
        <time>2023-02-14T11:03:46Z</time>
      </trkpt>
      <trkpt lat="44.39331" lon="7.14018">
        <ele>2184.73</ele>
        <time>2023-02-14T11:03:52Z</time>
      </trkpt>
      <trkpt lat="44.39335" lon="7.14023">
        <ele>2184.25</ele>
        <time>2023-02-14T11:03:55Z</time>
      </trkpt>
      <trkpt lat="44.39343" lon="7.14023">
        <ele>2183.77</ele>
        <time>2023-02-14T11:03:57Z</time>
      </trkpt>
      <trkpt lat="44.3935" lon="7.14027">
        <ele>2183.77</ele>
        <time>2023-02-14T11:04:02Z</time>
      </trkpt>
      <trkpt lat="44.39359" lon="7.14021">
        <ele>2183.29</ele>
        <time>2023-02-14T11:04:05Z</time>
      </trkpt>
      <trkpt lat="44.39359" lon="7.14013">
        <ele>2180.89</ele>
        <time>2023-02-14T11:04:11Z</time>
      </trkpt>
      <trkpt lat="44.39359" lon="7.14018">
        <ele>2176.08</ele>
        <time>2023-02-14T11:04:15Z</time>
      </trkpt>
      <trkpt lat="44.39365" lon="7.14005">
        <ele>2171.27</ele>
        <time>2023-02-14T11:04:20Z</time>
      </trkpt>
      <trkpt lat="44.39357" lon="7.13997">
        <ele>2158.78</ele>
        <time>2023-02-14T11:04:30Z</time>
      </trkpt>
      <trkpt lat="44.39362" lon="7.14001">
        <ele>2147.72</ele>
        <time>2023-02-14T11:04:36Z</time>
      </trkpt>
      <trkpt lat="44.39361" lon="7.14">
        <ele>2144.36</ele>
        <time>2023-02-14T11:04:42Z</time>
      </trkpt>
      <trkpt lat="44.39363" lon="7.14024">
        <ele>2139.07</ele>
        <time>2023-02-14T11:04:51Z</time>
      </trkpt>
      <trkpt lat="44.39364" lon="7.14025">
        <ele>2139.07</ele>
        <time>2023-02-14T11:05:07Z</time>
      </trkpt>
      <trkpt lat="44.39381" lon="7.1403">
        <ele>2132.34</ele>
        <time>2023-02-14T11:05:13Z</time>
      </trkpt>
      <trkpt lat="44.39393" lon="7.14028">
        <ele>2124.65</ele>
        <time>2023-02-14T11:05:18Z</time>
      </trkpt>
      <trkpt lat="44.39399" lon="7.14024">
        <ele>2123.21</ele>
        <time>2023-02-14T11:05:20Z</time>
      </trkpt>
      <trkpt lat="44.39415" lon="7.14022">
        <ele>2122.25</ele>
        <time>2023-02-14T11:05:24Z</time>
      </trkpt>
      <trkpt lat="44.3942" lon="7.14025">
        <ele>2122.73</ele>
        <time>2023-02-14T11:05:25Z</time>
      </trkpt>
      <trkpt lat="44.39431" lon="7.14038">
        <ele>2122.25</ele>
        <time>2023-02-14T11:05:27Z</time>
      </trkpt>
      <trkpt lat="44.39438" lon="7.14075">
        <ele>2117.44</ele>
        <time>2023-02-14T11:05:31Z</time>
      </trkpt>
      <trkpt lat="44.39438" lon="7.14089">
        <ele>2115.52</ele>
        <time>2023-02-14T11:05:33Z</time>
      </trkpt>
      <trkpt lat="44.39433" lon="7.14109">
        <ele>2113.12</ele>
        <time>2023-02-14T11:05:38Z</time>
      </trkpt>
      <trkpt lat="44.39432" lon="7.14138">
        <ele>2109.27</ele>
        <time>2023-02-14T11:05:45Z</time>
      </trkpt>
      <trkpt lat="44.39435" lon="7.14139">
        <ele>2105.42</ele>
        <time>2023-02-14T11:05:50Z</time>
      </trkpt>
      <trkpt lat="44.39432" lon="7.14135">
        <ele>2101.58</ele>
        <time>2023-02-14T11:06:10Z</time>
      </trkpt>
      <trkpt lat="44.39448" lon="7.1414">
        <ele>2097.25</ele>
        <time>2023-02-14T11:06:16Z</time>
      </trkpt>
      <trkpt lat="44.39451" lon="7.14138">
        <ele>2096.29</ele>
        <time>2023-02-14T11:06:17Z</time>
      </trkpt>
      <trkpt lat="44.39458" lon="7.14133">
        <ele>2093.41</ele>
        <time>2023-02-14T11:06:22Z</time>
      </trkpt>
      <trkpt lat="44.39469" lon="7.14149">
        <ele>2087.64</ele>
        <time>2023-02-14T11:06:27Z</time>
      </trkpt>
      <trkpt lat="44.39474" lon="7.14182">
        <ele>2078.99</ele>
        <time>2023-02-14T11:06:34Z</time>
      </trkpt>
      <trkpt lat="44.39475" lon="7.1418">
        <ele>2074.66</ele>
        <time>2023-02-14T11:06:40Z</time>
      </trkpt>
      <trkpt lat="44.39475" lon="7.1418">
        <ele>2073.22</ele>
        <time>2023-02-14T11:07:01Z</time>
      </trkpt>
      <trkpt lat="44.39474" lon="7.14179">
        <ele>2073.22</ele>
        <time>2023-02-14T11:07:14Z</time>
      </trkpt>
      <trkpt lat="44.39475" lon="7.14181">
        <ele>2074.18</ele>
        <time>2023-02-14T11:07:19Z</time>
      </trkpt>
      <trkpt lat="44.39483" lon="7.14201">
        <ele>2070.34</ele>
        <time>2023-02-14T11:07:26Z</time>
      </trkpt>
      <trkpt lat="44.39487" lon="7.14236">
        <ele>2065.53</ele>
        <time>2023-02-14T11:07:31Z</time>
      </trkpt>
      <trkpt lat="44.39486" lon="7.14254">
        <ele>2063.13</ele>
        <time>2023-02-14T11:07:33Z</time>
      </trkpt>
      <trkpt lat="44.39495" lon="7.14296">
        <ele>2057.84</ele>
        <time>2023-02-14T11:07:38Z</time>
      </trkpt>
      <trkpt lat="44.3951" lon="7.14335">
        <ele>2053.99</ele>
        <time>2023-02-14T11:07:48Z</time>
      </trkpt>
      <trkpt lat="44.39511" lon="7.14362">
        <ele>2053.03</ele>
        <time>2023-02-14T11:07:54Z</time>
      </trkpt>
      <trkpt lat="44.39511" lon="7.14375">
        <ele>2052.55</ele>
        <time>2023-02-14T11:07:56Z</time>
      </trkpt>
      <trkpt lat="44.3951" lon="7.14381">
        <ele>2052.07</ele>
        <time>2023-02-14T11:07:57Z</time>
      </trkpt>
      <trkpt lat="44.39504" lon="7.14398">
        <ele>2051.59</ele>
        <time>2023-02-14T11:08:00Z</time>
      </trkpt>
      <trkpt lat="44.39491" lon="7.14435">
        <ele>2047.75</ele>
        <time>2023-02-14T11:08:11Z</time>
      </trkpt>
      <trkpt lat="44.39491" lon="7.14437">
        <ele>2047.75</ele>
        <time>2023-02-14T11:08:12Z</time>
      </trkpt>
      <trkpt lat="44.3949" lon="7.14439">
        <ele>2047.26</ele>
        <time>2023-02-14T11:08:13Z</time>
      </trkpt>
      <trkpt lat="44.3949" lon="7.14441">
        <ele>2047.26</ele>
        <time>2023-02-14T11:08:14Z</time>
      </trkpt>
      <trkpt lat="44.3949" lon="7.14443">
        <ele>2047.26</ele>
        <time>2023-02-14T11:08:15Z</time>
      </trkpt>
      <trkpt lat="44.39489" lon="7.14445">
        <ele>2047.26</ele>
        <time>2023-02-14T11:08:16Z</time>
      </trkpt>
      <trkpt lat="44.39489" lon="7.14446">
        <ele>2047.26</ele>
        <time>2023-02-14T11:08:17Z</time>
      </trkpt>
      <trkpt lat="44.39483" lon="7.14463">
        <ele>2048.71</ele>
        <time>2023-02-14T11:08:30Z</time>
      </trkpt>
      <trkpt lat="44.39482" lon="7.14464">
        <ele>2048.71</ele>
        <time>2023-02-14T11:08:31Z</time>
      </trkpt>
      <trkpt lat="44.39482" lon="7.14466">
        <ele>2049.19</ele>
        <time>2023-02-14T11:08:32Z</time>
      </trkpt>
      <trkpt lat="44.39474" lon="7.14482">
        <ele>2047.26</ele>
        <time>2023-02-14T11:08:47Z</time>
      </trkpt>
      <trkpt lat="44.39472" lon="7.14487">
        <ele>2046.78</ele>
        <time>2023-02-14T11:08:59Z</time>
      </trkpt>
      <trkpt lat="44.39472" lon="7.14489">
        <ele>2047.26</ele>
        <time>2023-02-14T11:09:13Z</time>
      </trkpt>
      <trkpt lat="44.39465" lon="7.14499">
        <ele>2047.75</ele>
        <time>2023-02-14T11:09:30Z</time>
      </trkpt>
      <trkpt lat="44.39464" lon="7.14501">
        <ele>2047.26</ele>
        <time>2023-02-14T11:09:31Z</time>
      </trkpt>
      <trkpt lat="44.39463" lon="7.14504">
        <ele>2046.78</ele>
        <time>2023-02-14T11:09:32Z</time>
      </trkpt>
      <trkpt lat="44.39462" lon="7.14509">
        <ele>2046.3</ele>
        <time>2023-02-14T11:09:33Z</time>
      </trkpt>
      <trkpt lat="44.3946" lon="7.14514">
        <ele>2045.82</ele>
        <time>2023-02-14T11:09:34Z</time>
      </trkpt>
      <trkpt lat="44.39458" lon="7.14517">
        <ele>2045.34</ele>
        <time>2023-02-14T11:09:35Z</time>
      </trkpt>
      <trkpt lat="44.39446" lon="7.14539">
        <ele>2042.94</ele>
        <time>2023-02-14T11:09:46Z</time>
      </trkpt>
      <trkpt lat="44.3944" lon="7.14547">
        <ele>2041.98</ele>
        <time>2023-02-14T11:09:57Z</time>
      </trkpt>
      <trkpt lat="44.39424" lon="7.14581">
        <ele>2040.05</ele>
        <time>2023-02-14T11:10:09Z</time>
      </trkpt>
      <trkpt lat="44.39393" lon="7.14615">
        <ele>2039.09</ele>
        <time>2023-02-14T11:10:22Z</time>
      </trkpt>
      <trkpt lat="44.39395" lon="7.14614">
        <ele>2038.61</ele>
        <time>2023-02-14T11:10:33Z</time>
      </trkpt>
      <trkpt lat="44.39392" lon="7.14616">
        <ele>2040.05</ele>
        <time>2023-02-14T11:10:58Z</time>
      </trkpt>
      <trkpt lat="44.3939" lon="7.14619">
        <ele>2037.17</ele>
        <time>2023-02-14T11:11:22Z</time>
      </trkpt>
      <trkpt lat="44.3939" lon="7.14622">
        <ele>2037.17</ele>
        <time>2023-02-14T11:11:23Z</time>
      </trkpt>
      <trkpt lat="44.39389" lon="7.14624">
        <ele>2036.69</ele>
        <time>2023-02-14T11:11:24Z</time>
      </trkpt>
      <trkpt lat="44.39389" lon="7.14626">
        <ele>2036.69</ele>
        <time>2023-02-14T11:11:25Z</time>
      </trkpt>
      <trkpt lat="44.39388" lon="7.14629">
        <ele>2036.21</ele>
        <time>2023-02-14T11:11:26Z</time>
      </trkpt>
      <trkpt lat="44.39385" lon="7.1465">
        <ele>2034.77</ele>
        <time>2023-02-14T11:11:31Z</time>
      </trkpt>
      <trkpt lat="44.3937" lon="7.14679">
        <ele>2029.96</ele>
        <time>2023-02-14T11:11:38Z</time>
      </trkpt>
      <trkpt lat="44.39367" lon="7.14684">
        <ele>2029.48</ele>
        <time>2023-02-14T11:11:39Z</time>
      </trkpt>
      <trkpt lat="44.39366" lon="7.1469">
        <ele>2029</ele>
        <time>2023-02-14T11:11:40Z</time>
      </trkpt>
      <trkpt lat="44.39364" lon="7.14695">
        <ele>2028.52</ele>
        <time>2023-02-14T11:11:41Z</time>
      </trkpt>
      <trkpt lat="44.39362" lon="7.147">
        <ele>2028.04</ele>
        <time>2023-02-14T11:11:42Z</time>
      </trkpt>
      <trkpt lat="44.39349" lon="7.14737">
        <ele>2024.67</ele>
        <time>2023-02-14T11:11:52Z</time>
      </trkpt>
      <trkpt lat="44.39311" lon="7.14812">
        <ele>2020.83</ele>
        <time>2023-02-14T11:12:03Z</time>
      </trkpt>
      <trkpt lat="44.39302" lon="7.14833">
        <ele>2019.87</ele>
        <time>2023-02-14T11:12:06Z</time>
      </trkpt>
      <trkpt lat="44.39299" lon="7.14837">
        <ele>2019.87</ele>
        <time>2023-02-14T11:12:07Z</time>
      </trkpt>
      <trkpt lat="44.39296" lon="7.1484">
        <ele>2019.87</ele>
        <time>2023-02-14T11:12:08Z</time>
      </trkpt>
      <trkpt lat="44.39288" lon="7.14847">
        <ele>2018.91</ele>
        <time>2023-02-14T11:12:18Z</time>
      </trkpt>
      <trkpt lat="44.39286" lon="7.14851">
        <ele>2018.43</ele>
        <time>2023-02-14T11:12:31Z</time>
      </trkpt>
      <trkpt lat="44.3928" lon="7.14854">
        <ele>2017.46</ele>
        <time>2023-02-14T11:12:48Z</time>
      </trkpt>
      <trkpt lat="44.39273" lon="7.14852">
        <ele>2017.46</ele>
        <time>2023-02-14T11:13:02Z</time>
      </trkpt>
      <trkpt lat="44.3927" lon="7.14858">
        <ele>2017.94</ele>
        <time>2023-02-14T11:13:14Z</time>
      </trkpt>
      <trkpt lat="44.39268" lon="7.14857">
        <ele>2019.39</ele>
        <time>2023-02-14T11:13:37Z</time>
      </trkpt>
      <trkpt lat="44.39269" lon="7.14861">
        <ele>2020.35</ele>
        <time>2023-02-14T11:13:52Z</time>
      </trkpt>
      <trkpt lat="44.3927" lon="7.14864">
        <ele>2021.31</ele>
        <time>2023-02-14T11:13:57Z</time>
      </trkpt>
      <trkpt lat="44.39268" lon="7.14865">
        <ele>2021.31</ele>
        <time>2023-02-14T11:13:58Z</time>
      </trkpt>
      <trkpt lat="44.3926" lon="7.14867">
        <ele>2020.83</ele>
        <time>2023-02-14T11:14:12Z</time>
      </trkpt>
      <trkpt lat="44.3925" lon="7.14875">
        <ele>2022.75</ele>
        <time>2023-02-14T11:14:29Z</time>
      </trkpt>
      <trkpt lat="44.39243" lon="7.14877">
        <ele>2024.67</ele>
        <time>2023-02-14T11:14:39Z</time>
      </trkpt>
      <trkpt lat="44.39242" lon="7.14877">
        <ele>2025.15</ele>
        <time>2023-02-14T11:14:40Z</time>
      </trkpt>
      <trkpt lat="44.39205" lon="7.14864">
        <ele>2028.52</ele>
        <time>2023-02-14T11:14:58Z</time>
      </trkpt>
      <trkpt lat="44.39168" lon="7.14871">
        <ele>2024.67</ele>
        <time>2023-02-14T11:15:11Z</time>
      </trkpt>
      <trkpt lat="44.39125" lon="7.14897">
        <ele>2018.43</ele>
        <time>2023-02-14T11:15:26Z</time>
      </trkpt>
      <trkpt lat="44.39081" lon="7.1492">
        <ele>2015.54</ele>
        <time>2023-02-14T11:15:39Z</time>
      </trkpt>
      <trkpt lat="44.39073" lon="7.1493">
        <ele>2015.06</ele>
        <time>2023-02-14T11:15:42Z</time>
      </trkpt>
      <trkpt lat="44.39036" lon="7.14974">
        <ele>2006.89</ele>
        <time>2023-02-14T11:15:53Z</time>
      </trkpt>
      <trkpt lat="44.39034" lon="7.14981">
        <ele>2005.93</ele>
        <time>2023-02-14T11:15:54Z</time>
      </trkpt>
      <trkpt lat="44.39034" lon="7.1499">
        <ele>2005.45</ele>
        <time>2023-02-14T11:15:55Z</time>
      </trkpt>
      <trkpt lat="44.39036" lon="7.15012">
        <ele>2004.49</ele>
        <time>2023-02-14T11:15:58Z</time>
      </trkpt>
      <trkpt lat="44.39036" lon="7.15019">
        <ele>2003.52</ele>
        <time>2023-02-14T11:15:59Z</time>
      </trkpt>
      <trkpt lat="44.39042" lon="7.15105">
        <ele>1996.32</ele>
        <time>2023-02-14T11:16:11Z</time>
      </trkpt>
      <trkpt lat="44.39045" lon="7.15174">
        <ele>1991.99</ele>
        <time>2023-02-14T11:16:21Z</time>
      </trkpt>
      <trkpt lat="44.39047" lon="7.15182">
        <ele>1991.51</ele>
        <time>2023-02-14T11:16:22Z</time>
      </trkpt>
      <trkpt lat="44.39067" lon="7.15239">
        <ele>1985.74</ele>
        <time>2023-02-14T11:16:30Z</time>
      </trkpt>
      <trkpt lat="44.3907" lon="7.15244">
        <ele>1985.26</ele>
        <time>2023-02-14T11:16:31Z</time>
      </trkpt>
      <trkpt lat="44.39075" lon="7.15257">
        <ele>1983.82</ele>
        <time>2023-02-14T11:16:34Z</time>
      </trkpt>
      <trkpt lat="44.39077" lon="7.15262">
        <ele>1983.34</ele>
        <time>2023-02-14T11:16:35Z</time>
      </trkpt>
      <trkpt lat="44.39084" lon="7.15284">
        <ele>1981.9</ele>
        <time>2023-02-14T11:16:40Z</time>
      </trkpt>
      <trkpt lat="44.39085" lon="7.15287">
        <ele>1981.9</ele>
        <time>2023-02-14T11:16:41Z</time>
      </trkpt>
      <trkpt lat="44.39087" lon="7.1529">
        <ele>1980.93</ele>
        <time>2023-02-14T11:16:42Z</time>
      </trkpt>
      <trkpt lat="44.39089" lon="7.15295">
        <ele>1979.97</ele>
        <time>2023-02-14T11:16:43Z</time>
      </trkpt>
      <trkpt lat="44.3909" lon="7.15302">
        <ele>1979.01</ele>
        <time>2023-02-14T11:16:44Z</time>
      </trkpt>
      <trkpt lat="44.39089" lon="7.15307">
        <ele>1978.53</ele>
        <time>2023-02-14T11:16:45Z</time>
      </trkpt>
      <trkpt lat="44.39089" lon="7.15311">
        <ele>1977.57</ele>
        <time>2023-02-14T11:16:46Z</time>
      </trkpt>
      <trkpt lat="44.39088" lon="7.15314">
        <ele>1977.09</ele>
        <time>2023-02-14T11:16:47Z</time>
      </trkpt>
      <trkpt lat="44.39087" lon="7.15317">
        <ele>1977.09</ele>
        <time>2023-02-14T11:16:57Z</time>
      </trkpt>
      <trkpt lat="44.39088" lon="7.15318">
        <ele>1978.05</ele>
        <time>2023-02-14T11:17:22Z</time>
      </trkpt>
      <trkpt lat="44.39088" lon="7.15319">
        <ele>1978.05</ele>
        <time>2023-02-14T11:17:40Z</time>
      </trkpt>
      <trkpt lat="44.39086" lon="7.15323">
        <ele>1979.01</ele>
        <time>2023-02-14T11:17:54Z</time>
      </trkpt>
      <trkpt lat="44.39083" lon="7.15323">
        <ele>1977.57</ele>
        <time>2023-02-14T11:18:10Z</time>
      </trkpt>
      <trkpt lat="44.39081" lon="7.15324">
        <ele>1978.05</ele>
        <time>2023-02-14T11:18:12Z</time>
      </trkpt>
      <trkpt lat="44.39068" lon="7.15347">
        <ele>1976.61</ele>
        <time>2023-02-14T11:18:21Z</time>
      </trkpt>
      <trkpt lat="44.39068" lon="7.15348">
        <ele>1976.61</ele>
        <time>2023-02-14T11:18:22Z</time>
      </trkpt>
      <trkpt lat="44.39082" lon="7.15366">
        <ele>1974.2</ele>
        <time>2023-02-14T11:18:30Z</time>
      </trkpt>
      <trkpt lat="44.39085" lon="7.15368">
        <ele>1974.2</ele>
        <time>2023-02-14T11:18:31Z</time>
      </trkpt>
      <trkpt lat="44.39105" lon="7.15383">
        <ele>1972.76</ele>
        <time>2023-02-14T11:18:40Z</time>
      </trkpt>
      <trkpt lat="44.39111" lon="7.15387">
        <ele>1970.36</ele>
        <time>2023-02-14T11:18:49Z</time>
      </trkpt>
      <trkpt lat="44.39109" lon="7.15386">
        <ele>1967.96</ele>
        <time>2023-02-14T11:19:05Z</time>
      </trkpt>
      <trkpt lat="44.39111" lon="7.15386">
        <ele>1967.48</ele>
        <time>2023-02-14T11:19:06Z</time>
      </trkpt>
      <trkpt lat="44.39115" lon="7.15387">
        <ele>1966.51</ele>
        <time>2023-02-14T11:19:07Z</time>
      </trkpt>
      <trkpt lat="44.39118" lon="7.1539">
        <ele>1965.55</ele>
        <time>2023-02-14T11:19:08Z</time>
      </trkpt>
      <trkpt lat="44.3912" lon="7.15393">
        <ele>1964.59</ele>
        <time>2023-02-14T11:19:09Z</time>
      </trkpt>
      <trkpt lat="44.39122" lon="7.15396">
        <ele>1963.15</ele>
        <time>2023-02-14T11:19:10Z</time>
      </trkpt>
      <trkpt lat="44.39123" lon="7.15398">
        <ele>1962.19</ele>
        <time>2023-02-14T11:19:11Z</time>
      </trkpt>
      <trkpt lat="44.39129" lon="7.15404">
        <ele>1957.38</ele>
        <time>2023-02-14T11:19:21Z</time>
      </trkpt>
      <trkpt lat="44.39129" lon="7.15406">
        <ele>1957.38</ele>
        <time>2023-02-14T11:19:25Z</time>
      </trkpt>
      <trkpt lat="44.39131" lon="7.15408">
        <ele>1956.9</ele>
        <time>2023-02-14T11:19:26Z</time>
      </trkpt>
      <trkpt lat="44.39145" lon="7.1544">
        <ele>1953.06</ele>
        <time>2023-02-14T11:19:31Z</time>
      </trkpt>
      <trkpt lat="44.39146" lon="7.15446">
        <ele>1952.57</ele>
        <time>2023-02-14T11:19:32Z</time>
      </trkpt>
      <trkpt lat="44.39146" lon="7.15457">
        <ele>1951.61</ele>
        <time>2023-02-14T11:19:34Z</time>
      </trkpt>
      <trkpt lat="44.39145" lon="7.15463">
        <ele>1949.69</ele>
        <time>2023-02-14T11:19:46Z</time>
      </trkpt>
      <trkpt lat="44.39145" lon="7.15463">
        <ele>1949.21</ele>
        <time>2023-02-14T11:20:00Z</time>
      </trkpt>
      <trkpt lat="44.39151" lon="7.15467">
        <ele>1945.36</ele>
        <time>2023-02-14T11:20:06Z</time>
      </trkpt>
      <trkpt lat="44.39157" lon="7.15476">
        <ele>1941.52</ele>
        <time>2023-02-14T11:20:12Z</time>
      </trkpt>
      <trkpt lat="44.39166" lon="7.15492">
        <ele>1941.52</ele>
        <time>2023-02-14T11:20:18Z</time>
      </trkpt>
      <trkpt lat="44.39168" lon="7.15497">
        <ele>1941.52</ele>
        <time>2023-02-14T11:20:19Z</time>
      </trkpt>
      <trkpt lat="44.3917" lon="7.15503">
        <ele>1941.52</ele>
        <time>2023-02-14T11:20:27Z</time>
      </trkpt>
      <trkpt lat="44.39169" lon="7.15505">
        <ele>1940.56</ele>
        <time>2023-02-14T11:20:45Z</time>
      </trkpt>
      <trkpt lat="44.3917" lon="7.15504">
        <ele>1940.56</ele>
        <time>2023-02-14T11:20:52Z</time>
      </trkpt>
      <trkpt lat="44.39177" lon="7.15484">
        <ele>1937.67</ele>
        <time>2023-02-14T11:20:58Z</time>
      </trkpt>
      <trkpt lat="44.39206" lon="7.15487">
        <ele>1931.43</ele>
        <time>2023-02-14T11:21:04Z</time>
      </trkpt>
      <trkpt lat="44.39211" lon="7.1549">
        <ele>1927.58</ele>
        <time>2023-02-14T11:21:10Z</time>
      </trkpt>
      <trkpt lat="44.39212" lon="7.1549">
        <ele>1926.62</ele>
        <time>2023-02-14T11:21:20Z</time>
      </trkpt>
      <trkpt lat="44.39215" lon="7.15495">
        <ele>1926.62</ele>
        <time>2023-02-14T11:21:30Z</time>
      </trkpt>
      <trkpt lat="44.39216" lon="7.15498">
        <ele>1926.62</ele>
        <time>2023-02-14T11:21:32Z</time>
      </trkpt>
      <trkpt lat="44.39221" lon="7.15506">
        <ele>1925.66</ele>
        <time>2023-02-14T11:21:36Z</time>
      </trkpt>
      <trkpt lat="44.39225" lon="7.15514">
        <ele>1923.25</ele>
        <time>2023-02-14T11:21:46Z</time>
      </trkpt>
      <trkpt lat="44.39225" lon="7.15513">
        <ele>1922.77</ele>
        <time>2023-02-14T11:21:51Z</time>
      </trkpt>
      <trkpt lat="44.39229" lon="7.15516">
        <ele>1922.29</ele>
        <time>2023-02-14T11:21:53Z</time>
      </trkpt>
      <trkpt lat="44.39248" lon="7.15507">
        <ele>1917.97</ele>
        <time>2023-02-14T11:21:59Z</time>
      </trkpt>
      <trkpt lat="44.39262" lon="7.15513">
        <ele>1911.72</ele>
        <time>2023-02-14T11:22:04Z</time>
      </trkpt>
      <trkpt lat="44.39277" lon="7.15504">
        <ele>1904.03</ele>
        <time>2023-02-14T11:22:09Z</time>
      </trkpt>
      <trkpt lat="44.393" lon="7.15509">
        <ele>1895.86</ele>
        <time>2023-02-14T11:22:14Z</time>
      </trkpt>
      <trkpt lat="44.39323" lon="7.15524">
        <ele>1888.65</ele>
        <time>2023-02-14T11:22:19Z</time>
      </trkpt>
      <trkpt lat="44.39318" lon="7.15524">
        <ele>1885.76</ele>
        <time>2023-02-14T11:22:31Z</time>
      </trkpt>
      <trkpt lat="44.39318" lon="7.15524">
        <ele>1885.28</ele>
        <time>2023-02-14T11:22:32Z</time>
      </trkpt>
      <trkpt lat="44.39323" lon="7.15526">
        <ele>1885.28</ele>
        <time>2023-02-14T11:22:37Z</time>
      </trkpt>
      <trkpt lat="44.39334" lon="7.15527">
        <ele>1883.84</ele>
        <time>2023-02-14T11:22:48Z</time>
      </trkpt>
      <trkpt lat="44.39332" lon="7.15527">
        <ele>1883.36</ele>
        <time>2023-02-14T11:22:57Z</time>
      </trkpt>
      <trkpt lat="44.39337" lon="7.15553">
        <ele>1881.92</ele>
        <time>2023-02-14T11:23:04Z</time>
      </trkpt>
      <trkpt lat="44.39342" lon="7.1556">
        <ele>1879.03</ele>
        <time>2023-02-14T11:23:09Z</time>
      </trkpt>
      <trkpt lat="44.39343" lon="7.1556">
        <ele>1878.55</ele>
        <time>2023-02-14T11:23:10Z</time>
      </trkpt>
      <trkpt lat="44.39343" lon="7.15565">
        <ele>1877.11</ele>
        <time>2023-02-14T11:23:12Z</time>
      </trkpt>
      <trkpt lat="44.39347" lon="7.15582">
        <ele>1872.3</ele>
        <time>2023-02-14T11:23:22Z</time>
      </trkpt>
      <trkpt lat="44.39346" lon="7.15583">
        <ele>1872.3</ele>
        <time>2023-02-14T11:23:23Z</time>
      </trkpt>
      <trkpt lat="44.39353" lon="7.156">
        <ele>1870.86</ele>
        <time>2023-02-14T11:23:30Z</time>
      </trkpt>
      <trkpt lat="44.39354" lon="7.15606">
        <ele>1869.9</ele>
        <time>2023-02-14T11:23:32Z</time>
      </trkpt>
      <trkpt lat="44.39358" lon="7.15616">
        <ele>1870.86</ele>
        <time>2023-02-14T11:23:42Z</time>
      </trkpt>
      <trkpt lat="44.39358" lon="7.1562">
        <ele>1873.75</ele>
        <time>2023-02-14T11:24:02Z</time>
      </trkpt>
      <trkpt lat="44.39357" lon="7.1562">
        <ele>1874.23</ele>
        <time>2023-02-14T11:24:11Z</time>
      </trkpt>
      <trkpt lat="44.3937" lon="7.15615">
        <ele>1870.86</ele>
        <time>2023-02-14T11:24:17Z</time>
      </trkpt>
      <trkpt lat="44.39376" lon="7.1561">
        <ele>1868.94</ele>
        <time>2023-02-14T11:24:20Z</time>
      </trkpt>
      <trkpt lat="44.39383" lon="7.15616">
        <ele>1864.13</ele>
        <time>2023-02-14T11:24:27Z</time>
      </trkpt>
      <trkpt lat="44.39381" lon="7.15616">
        <ele>1862.69</ele>
        <time>2023-02-14T11:24:30Z</time>
      </trkpt>
      <trkpt lat="44.39382" lon="7.15603">
        <ele>1859.81</ele>
        <time>2023-02-14T11:24:34Z</time>
      </trkpt>
      <trkpt lat="44.39383" lon="7.15595">
        <ele>1855</ele>
        <time>2023-02-14T11:24:42Z</time>
      </trkpt>
      <trkpt lat="44.39393" lon="7.15608">
        <ele>1851.64</ele>
        <time>2023-02-14T11:24:49Z</time>
      </trkpt>
      <trkpt lat="44.39402" lon="7.1562">
        <ele>1849.71</ele>
        <time>2023-02-14T11:24:56Z</time>
      </trkpt>
      <trkpt lat="44.39407" lon="7.1563">
        <ele>1845.87</ele>
        <time>2023-02-14T11:25:01Z</time>
      </trkpt>
      <trkpt lat="44.39412" lon="7.15639">
        <ele>1846.35</ele>
        <time>2023-02-14T11:25:05Z</time>
      </trkpt>
      <trkpt lat="44.39414" lon="7.15653">
        <ele>1844.43</ele>
        <time>2023-02-14T11:25:15Z</time>
      </trkpt>
      <trkpt lat="44.39413" lon="7.1567">
        <ele>1847.31</ele>
        <time>2023-02-14T11:25:30Z</time>
      </trkpt>
      <trkpt lat="44.39413" lon="7.15682">
        <ele>1849.71</ele>
        <time>2023-02-14T11:25:43Z</time>
      </trkpt>
      <trkpt lat="44.39412" lon="7.15686">
        <ele>1850.19</ele>
        <time>2023-02-14T11:25:47Z</time>
      </trkpt>
      <trkpt lat="44.39412" lon="7.15689">
        <ele>1850.19</ele>
        <time>2023-02-14T11:25:49Z</time>
      </trkpt>
      <trkpt lat="44.39412" lon="7.15692">
        <ele>1848.27</ele>
        <time>2023-02-14T11:25:54Z</time>
      </trkpt>
      <trkpt lat="44.39414" lon="7.15712">
        <ele>1844.43</ele>
        <time>2023-02-14T11:26:03Z</time>
      </trkpt>
      <trkpt lat="44.39412" lon="7.15724">
        <ele>1844.43</ele>
        <time>2023-02-14T11:26:14Z</time>
      </trkpt>
      <trkpt lat="44.3941" lon="7.15729">
        <ele>1846.35</ele>
        <time>2023-02-14T11:26:34Z</time>
      </trkpt>
      <trkpt lat="44.39408" lon="7.1573">
        <ele>1845.39</ele>
        <time>2023-02-14T11:26:49Z</time>
      </trkpt>
      <trkpt lat="44.39411" lon="7.15731">
        <ele>1844.43</ele>
        <time>2023-02-14T11:27:04Z</time>
      </trkpt>
      <trkpt lat="44.39413" lon="7.15734">
        <ele>1844.91</ele>
        <time>2023-02-14T11:27:19Z</time>
      </trkpt>
      <trkpt lat="44.39411" lon="7.15743">
        <ele>1845.39</ele>
        <time>2023-02-14T11:27:34Z</time>
      </trkpt>
      <trkpt lat="44.39426" lon="7.15776">
        <ele>1843.95</ele>
        <time>2023-02-14T11:27:45Z</time>
      </trkpt>
      <trkpt lat="44.39437" lon="7.15804">
        <ele>1839.62</ele>
        <time>2023-02-14T11:27:54Z</time>
      </trkpt>
      <trkpt lat="44.39441" lon="7.15807">
        <ele>1838.66</ele>
        <time>2023-02-14T11:27:58Z</time>
      </trkpt>
      <trkpt lat="44.39449" lon="7.15807">
        <ele>1836.26</ele>
        <time>2023-02-14T11:28:08Z</time>
      </trkpt>
      <trkpt lat="44.39451" lon="7.15814">
        <ele>1837.7</ele>
        <time>2023-02-14T11:28:24Z</time>
      </trkpt>
      <trkpt lat="44.3945" lon="7.15817">
        <ele>1837.22</ele>
        <time>2023-02-14T11:28:27Z</time>
      </trkpt>
      <trkpt lat="44.3945" lon="7.15826">
        <ele>1837.7</ele>
        <time>2023-02-14T11:28:31Z</time>
      </trkpt>
      <trkpt lat="44.39434" lon="7.15858">
        <ele>1836.26</ele>
        <time>2023-02-14T11:28:44Z</time>
      </trkpt>
      <trkpt lat="44.39429" lon="7.15866">
        <ele>1835.77</ele>
        <time>2023-02-14T11:28:46Z</time>
      </trkpt>
      <trkpt lat="44.39413" lon="7.15898">
        <ele>1835.29</ele>
        <time>2023-02-14T11:28:55Z</time>
      </trkpt>
      <trkpt lat="44.39406" lon="7.15911">
        <ele>1834.33</ele>
        <time>2023-02-14T11:29:06Z</time>
      </trkpt>
      <trkpt lat="44.39401" lon="7.15913">
        <ele>1831.93</ele>
        <time>2023-02-14T11:29:23Z</time>
      </trkpt>
      <trkpt lat="44.39397" lon="7.15915">
        <ele>1831.45</ele>
        <time>2023-02-14T11:29:40Z</time>
      </trkpt>
      <trkpt lat="44.39397" lon="7.15916">
        <ele>1831.45</ele>
        <time>2023-02-14T11:29:41Z</time>
      </trkpt>
      <trkpt lat="44.39395" lon="7.15921">
        <ele>1830.49</ele>
        <time>2023-02-14T11:29:46Z</time>
      </trkpt>
      <trkpt lat="44.39383" lon="7.15933">
        <ele>1828.56</ele>
        <time>2023-02-14T11:29:52Z</time>
      </trkpt>
      <trkpt lat="44.39374" lon="7.15955">
        <ele>1826.16</ele>
        <time>2023-02-14T11:29:59Z</time>
      </trkpt>
      <trkpt lat="44.39379" lon="7.15953">
        <ele>1823.76</ele>
        <time>2023-02-14T11:30:07Z</time>
      </trkpt>
      <trkpt lat="44.3938" lon="7.15953">
        <ele>1823.28</ele>
        <time>2023-02-14T11:30:17Z</time>
      </trkpt>
      <trkpt lat="44.39392" lon="7.1595">
        <ele>1820.87</ele>
        <time>2023-02-14T11:30:23Z</time>
      </trkpt>
      <trkpt lat="44.39395" lon="7.15953">
        <ele>1818.47</ele>
        <time>2023-02-14T11:30:27Z</time>
      </trkpt>
      <trkpt lat="44.39395" lon="7.15954">
        <ele>1814.63</ele>
        <time>2023-02-14T11:30:36Z</time>
      </trkpt>
      <trkpt lat="44.39395" lon="7.15957">
        <ele>1815.59</ele>
        <time>2023-02-14T11:30:46Z</time>
      </trkpt>
      <trkpt lat="44.39392" lon="7.15973">
        <ele>1814.15</ele>
        <time>2023-02-14T11:30:53Z</time>
      </trkpt>
      <trkpt lat="44.39384" lon="7.15979">
        <ele>1814.15</ele>
        <time>2023-02-14T11:30:58Z</time>
      </trkpt>
      <trkpt lat="44.39379" lon="7.15982">
        <ele>1811.26</ele>
        <time>2023-02-14T11:31:12Z</time>
      </trkpt>
      <trkpt lat="44.39377" lon="7.15983">
        <ele>1810.78</ele>
        <time>2023-02-14T11:31:25Z</time>
      </trkpt>
      <trkpt lat="44.39368" lon="7.15987">
        <ele>1809.34</ele>
        <time>2023-02-14T11:31:33Z</time>
      </trkpt>
      <trkpt lat="44.39377" lon="7.15992">
        <ele>1805.49</ele>
        <time>2023-02-14T11:31:40Z</time>
      </trkpt>
      <trkpt lat="44.39379" lon="7.15997">
        <ele>1803.09</ele>
        <time>2023-02-14T11:31:48Z</time>
      </trkpt>
      <trkpt lat="44.39377" lon="7.15996">
        <ele>1801.65</ele>
        <time>2023-02-14T11:32:01Z</time>
      </trkpt>
      <trkpt lat="44.39372" lon="7.16006">
        <ele>1801.17</ele>
        <time>2023-02-14T11:32:09Z</time>
      </trkpt>
      <trkpt lat="44.39373" lon="7.16023">
        <ele>1800.69</ele>
        <time>2023-02-14T11:32:17Z</time>
      </trkpt>
      <trkpt lat="44.39375" lon="7.16025">
        <ele>1798.76</ele>
        <time>2023-02-14T11:32:24Z</time>
      </trkpt>
      <trkpt lat="44.39379" lon="7.16031">
        <ele>1796.84</ele>
        <time>2023-02-14T11:32:28Z</time>
      </trkpt>
      <trkpt lat="44.39387" lon="7.16048">
        <ele>1790.11</ele>
        <time>2023-02-14T11:32:36Z</time>
      </trkpt>
      <trkpt lat="44.39391" lon="7.16057">
        <ele>1786.27</ele>
        <time>2023-02-14T11:32:43Z</time>
      </trkpt>
      <trkpt lat="44.39388" lon="7.16059">
        <ele>1786.27</ele>
        <time>2023-02-14T11:33:00Z</time>
      </trkpt>
      <trkpt lat="44.3939" lon="7.16059">
        <ele>1789.15</ele>
        <time>2023-02-14T11:33:24Z</time>
      </trkpt>
      <trkpt lat="44.39392" lon="7.16061">
        <ele>1789.63</ele>
        <time>2023-02-14T11:33:41Z</time>
      </trkpt>
      <trkpt lat="44.39394" lon="7.16065">
        <ele>1789.63</ele>
        <time>2023-02-14T11:33:43Z</time>
      </trkpt>
      <trkpt lat="44.39388" lon="7.16089">
        <ele>1787.23</ele>
        <time>2023-02-14T11:33:50Z</time>
      </trkpt>
      <trkpt lat="44.39397" lon="7.16114">
        <ele>1784.82</ele>
        <time>2023-02-14T11:33:55Z</time>
      </trkpt>
      <trkpt lat="44.39408" lon="7.16164">
        <ele>1778.1</ele>
        <time>2023-02-14T11:34:03Z</time>
      </trkpt>
      <trkpt lat="44.3941" lon="7.16167">
        <ele>1777.61</ele>
        <time>2023-02-14T11:34:04Z</time>
      </trkpt>
      <trkpt lat="44.39417" lon="7.16181">
        <ele>1774.73</ele>
        <time>2023-02-14T11:34:08Z</time>
      </trkpt>
      <trkpt lat="44.39429" lon="7.162">
        <ele>1771.37</ele>
        <time>2023-02-14T11:34:12Z</time>
      </trkpt>
      <trkpt lat="44.39433" lon="7.16213">
        <ele>1766.08</ele>
        <time>2023-02-14T11:34:20Z</time>
      </trkpt>
      <trkpt lat="44.39435" lon="7.16217">
        <ele>1766.08</ele>
        <time>2023-02-14T11:34:37Z</time>
      </trkpt>
      <trkpt lat="44.39435" lon="7.16222">
        <ele>1765.6</ele>
        <time>2023-02-14T11:34:50Z</time>
      </trkpt>
      <trkpt lat="44.39434" lon="7.16222">
        <ele>1764.64</ele>
        <time>2023-02-14T11:34:54Z</time>
      </trkpt>
      <trkpt lat="44.39433" lon="7.16226">
        <ele>1764.16</ele>
        <time>2023-02-14T11:34:57Z</time>
      </trkpt>
      <trkpt lat="44.39437" lon="7.1624">
        <ele>1763.68</ele>
        <time>2023-02-14T11:35:05Z</time>
      </trkpt>
      <trkpt lat="44.39438" lon="7.16252">
        <ele>1761.27</ele>
        <time>2023-02-14T11:35:12Z</time>
      </trkpt>
      <trkpt lat="44.3944" lon="7.16256">
        <ele>1760.31</ele>
        <time>2023-02-14T11:35:21Z</time>
      </trkpt>
      <trkpt lat="44.39448" lon="7.16242">
        <ele>1753.58</ele>
        <time>2023-02-14T11:35:27Z</time>
      </trkpt>
      <trkpt lat="44.39449" lon="7.16241">
        <ele>1751.18</ele>
        <time>2023-02-14T11:35:32Z</time>
      </trkpt>
      <trkpt lat="44.39451" lon="7.16253">
        <ele>1749.74</ele>
        <time>2023-02-14T11:35:42Z</time>
      </trkpt>
      <trkpt lat="44.39452" lon="7.16254">
        <ele>1750.7</ele>
        <time>2023-02-14T11:35:43Z</time>
      </trkpt>
      <trkpt lat="44.39449" lon="7.16262">
        <ele>1749.26</ele>
        <time>2023-02-14T11:35:53Z</time>
      </trkpt>
      <trkpt lat="44.3945" lon="7.16269">
        <ele>1751.18</ele>
        <time>2023-02-14T11:36:10Z</time>
      </trkpt>
      <trkpt lat="44.39454" lon="7.16286">
        <ele>1749.26</ele>
        <time>2023-02-14T11:36:17Z</time>
      </trkpt>
      <trkpt lat="44.39462" lon="7.16298">
        <ele>1746.85</ele>
        <time>2023-02-14T11:36:25Z</time>
      </trkpt>
      <trkpt lat="44.39464" lon="7.16305">
        <ele>1746.37</ele>
        <time>2023-02-14T11:36:41Z</time>
      </trkpt>
      <trkpt lat="44.3947" lon="7.16325">
        <ele>1742.05</ele>
        <time>2023-02-14T11:36:51Z</time>
      </trkpt>
      <trkpt lat="44.39494" lon="7.16363">
        <ele>1738.2</ele>
        <time>2023-02-14T11:37:04Z</time>
      </trkpt>
      <trkpt lat="44.395" lon="7.16371">
        <ele>1736.76</ele>
        <time>2023-02-14T11:37:06Z</time>
      </trkpt>
      <trkpt lat="44.39502" lon="7.16374">
        <ele>1736.28</ele>
        <time>2023-02-14T11:37:07Z</time>
      </trkpt>
      <trkpt lat="44.39505" lon="7.16374">
        <ele>1735.32</ele>
        <time>2023-02-14T11:37:15Z</time>
      </trkpt>
      <trkpt lat="44.39504" lon="7.16372">
        <ele>1736.76</ele>
        <time>2023-02-14T11:37:35Z</time>
      </trkpt>
      <trkpt lat="44.39504" lon="7.16374">
        <ele>1736.28</ele>
        <time>2023-02-14T11:37:51Z</time>
      </trkpt>
      <trkpt lat="44.39506" lon="7.16378">
        <ele>1737.72</ele>
        <time>2023-02-14T11:38:04Z</time>
      </trkpt>
      <trkpt lat="44.39508" lon="7.1638">
        <ele>1737.72</ele>
        <time>2023-02-14T11:38:05Z</time>
      </trkpt>
      <trkpt lat="44.39509" lon="7.16382">
        <ele>1738.2</ele>
        <time>2023-02-14T11:38:06Z</time>
      </trkpt>
      <trkpt lat="44.3951" lon="7.16384">
        <ele>1737.72</ele>
        <time>2023-02-14T11:38:07Z</time>
      </trkpt>
      <trkpt lat="44.39512" lon="7.16386">
        <ele>1737.72</ele>
        <time>2023-02-14T11:38:08Z</time>
      </trkpt>
      <trkpt lat="44.39512" lon="7.16388">
        <ele>1737.24</ele>
        <time>2023-02-14T11:38:09Z</time>
      </trkpt>
      <trkpt lat="44.39527" lon="7.16409">
        <ele>1735.32</ele>
        <time>2023-02-14T11:38:16Z</time>
      </trkpt>
      <trkpt lat="44.3954" lon="7.16427">
        <ele>1733.88</ele>
        <time>2023-02-14T11:38:20Z</time>
      </trkpt>
      <trkpt lat="44.39542" lon="7.16432">
        <ele>1732.91</ele>
        <time>2023-02-14T11:38:21Z</time>
      </trkpt>
      <trkpt lat="44.39553" lon="7.16472">
        <ele>1729.55</ele>
        <time>2023-02-14T11:38:31Z</time>
      </trkpt>
      <trkpt lat="44.39556" lon="7.16482">
        <ele>1727.63</ele>
        <time>2023-02-14T11:38:36Z</time>
      </trkpt>
      <trkpt lat="44.39563" lon="7.16491">
        <ele>1725.22</ele>
        <time>2023-02-14T11:38:46Z</time>
      </trkpt>
      <trkpt lat="44.39577" lon="7.16519">
        <ele>1721.38</ele>
        <time>2023-02-14T11:38:55Z</time>
      </trkpt>
      <trkpt lat="44.3958" lon="7.16528">
        <ele>1720.42</ele>
        <time>2023-02-14T11:38:57Z</time>
      </trkpt>
      <trkpt lat="44.39583" lon="7.16533">
        <ele>1719.94</ele>
        <time>2023-02-14T11:38:58Z</time>
      </trkpt>
      <trkpt lat="44.39601" lon="7.16567">
        <ele>1718.49</ele>
        <time>2023-02-14T11:39:06Z</time>
      </trkpt>
      <trkpt lat="44.39605" lon="7.16572">
        <ele>1718.01</ele>
        <time>2023-02-14T11:39:07Z</time>
      </trkpt>
      <trkpt lat="44.39608" lon="7.16577">
        <ele>1717.53</ele>
        <time>2023-02-14T11:39:08Z</time>
      </trkpt>
      <trkpt lat="44.39612" lon="7.16581">
        <ele>1717.53</ele>
        <time>2023-02-14T11:39:09Z</time>
      </trkpt>
      <trkpt lat="44.39615" lon="7.16585">
        <ele>1717.05</ele>
        <time>2023-02-14T11:39:10Z</time>
      </trkpt>
      <trkpt lat="44.39616" lon="7.16588">
        <ele>1717.05</ele>
        <time>2023-02-14T11:39:11Z</time>
      </trkpt>
      <trkpt lat="44.39618" lon="7.16594">
        <ele>1715.61</ele>
        <time>2023-02-14T11:39:21Z</time>
      </trkpt>
      <trkpt lat="44.39633" lon="7.16624">
        <ele>1712.73</ele>
        <time>2023-02-14T11:39:29Z</time>
      </trkpt>
      <trkpt lat="44.39636" lon="7.16634">
        <ele>1710.8</ele>
        <time>2023-02-14T11:39:33Z</time>
      </trkpt>
      <trkpt lat="44.39634" lon="7.16639">
        <ele>1711.28</ele>
        <time>2023-02-14T11:39:42Z</time>
      </trkpt>
      <trkpt lat="44.39634" lon="7.16643">
        <ele>1712.73</ele>
        <time>2023-02-14T11:39:58Z</time>
      </trkpt>
      <trkpt lat="44.39634" lon="7.16647">
        <ele>1715.13</ele>
        <time>2023-02-14T11:40:12Z</time>
      </trkpt>
      <trkpt lat="44.39633" lon="7.16647">
        <ele>1716.09</ele>
        <time>2023-02-14T11:40:29Z</time>
      </trkpt>
      <trkpt lat="44.39631" lon="7.16651">
        <ele>1717.05</ele>
        <time>2023-02-14T11:40:46Z</time>
      </trkpt>
      <trkpt lat="44.39628" lon="7.16657">
        <ele>1719.46</ele>
        <time>2023-02-14T11:41:03Z</time>
      </trkpt>
      <trkpt lat="44.3963" lon="7.1666">
        <ele>1721.86</ele>
        <time>2023-02-14T11:41:21Z</time>
      </trkpt>
      <trkpt lat="44.39628" lon="7.16662">
        <ele>1721.86</ele>
        <time>2023-02-14T11:41:26Z</time>
      </trkpt>
      <trkpt lat="44.39628" lon="7.16664">
        <ele>1721.86</ele>
        <time>2023-02-14T11:41:27Z</time>
      </trkpt>
      <trkpt lat="44.39629" lon="7.16667">
        <ele>1721.86</ele>
        <time>2023-02-14T11:41:28Z</time>
      </trkpt>
      <trkpt lat="44.39633" lon="7.16691">
        <ele>1720.42</ele>
        <time>2023-02-14T11:41:38Z</time>
      </trkpt>
      <trkpt lat="44.3964" lon="7.16727">
        <ele>1717.05</ele>
        <time>2023-02-14T11:41:48Z</time>
      </trkpt>
      <trkpt lat="44.39658" lon="7.16761">
        <ele>1713.21</ele>
        <time>2023-02-14T11:41:57Z</time>
      </trkpt>
      <trkpt lat="44.39669" lon="7.16789">
        <ele>1713.21</ele>
        <time>2023-02-14T11:42:07Z</time>
      </trkpt>
      <trkpt lat="44.39682" lon="7.16813">
        <ele>1711.76</ele>
        <time>2023-02-14T11:42:18Z</time>
      </trkpt>
      <trkpt lat="44.3969" lon="7.16852">
        <ele>1704.07</ele>
        <time>2023-02-14T11:42:27Z</time>
      </trkpt>
      <trkpt lat="44.39694" lon="7.16872">
        <ele>1698.79</ele>
        <time>2023-02-14T11:42:37Z</time>
      </trkpt>
      <trkpt lat="44.39691" lon="7.16877">
        <ele>1699.75</ele>
        <time>2023-02-14T11:42:42Z</time>
      </trkpt>
      <trkpt lat="44.3969" lon="7.16884">
        <ele>1698.79</ele>
        <time>2023-02-14T11:42:55Z</time>
      </trkpt>
      <trkpt lat="44.39689" lon="7.16886">
        <ele>1698.79</ele>
        <time>2023-02-14T11:42:58Z</time>
      </trkpt>
      <trkpt lat="44.3969" lon="7.16889">
        <ele>1698.79</ele>
        <time>2023-02-14T11:43:00Z</time>
      </trkpt>
      <trkpt lat="44.39687" lon="7.16898">
        <ele>1697.34</ele>
        <time>2023-02-14T11:43:03Z</time>
      </trkpt>
      <trkpt lat="44.39685" lon="7.16898">
        <ele>1696.86</ele>
        <time>2023-02-14T11:43:04Z</time>
      </trkpt>
      <trkpt lat="44.39684" lon="7.16897">
        <ele>1696.38</ele>
        <time>2023-02-14T11:43:05Z</time>
      </trkpt>
      <trkpt lat="44.39669" lon="7.16901">
        <ele>1693.98</ele>
        <time>2023-02-14T11:43:17Z</time>
      </trkpt>
      <trkpt lat="44.39665" lon="7.169">
        <ele>1693.98</ele>
        <time>2023-02-14T11:43:24Z</time>
      </trkpt>
      <trkpt lat="44.39673" lon="7.16912">
        <ele>1693.02</ele>
        <time>2023-02-14T11:43:28Z</time>
      </trkpt>
      <trkpt lat="44.39676" lon="7.16912">
        <ele>1692.54</ele>
        <time>2023-02-14T11:43:29Z</time>
      </trkpt>
      <trkpt lat="44.39678" lon="7.16913">
        <ele>1692.54</ele>
        <time>2023-02-14T11:43:30Z</time>
      </trkpt>
      <trkpt lat="44.39681" lon="7.16914">
        <ele>1692.06</ele>
        <time>2023-02-14T11:43:31Z</time>
      </trkpt>
      <trkpt lat="44.39682" lon="7.16915">
        <ele>1691.58</ele>
        <time>2023-02-14T11:43:32Z</time>
      </trkpt>
      <trkpt lat="44.3968" lon="7.1692">
        <ele>1690.14</ele>
        <time>2023-02-14T11:43:35Z</time>
      </trkpt>
      <trkpt lat="44.3968" lon="7.16923">
        <ele>1689.65</ele>
        <time>2023-02-14T11:43:36Z</time>
      </trkpt>
      <trkpt lat="44.3968" lon="7.16925">
        <ele>1689.17</ele>
        <time>2023-02-14T11:43:37Z</time>
      </trkpt>
      <trkpt lat="44.3968" lon="7.16927">
        <ele>1689.17</ele>
        <time>2023-02-14T11:43:38Z</time>
      </trkpt>
      <trkpt lat="44.39679" lon="7.16928">
        <ele>1688.21</ele>
        <time>2023-02-14T11:43:39Z</time>
      </trkpt>
      <trkpt lat="44.39678" lon="7.16928">
        <ele>1688.21</ele>
        <time>2023-02-14T11:43:40Z</time>
      </trkpt>
      <trkpt lat="44.39676" lon="7.16928">
        <ele>1687.25</ele>
        <time>2023-02-14T11:43:41Z</time>
      </trkpt>
      <trkpt lat="44.39675" lon="7.1693">
        <ele>1686.77</ele>
        <time>2023-02-14T11:43:42Z</time>
      </trkpt>
      <trkpt lat="44.39673" lon="7.16932">
        <ele>1686.29</ele>
        <time>2023-02-14T11:43:43Z</time>
      </trkpt>
      <trkpt lat="44.39671" lon="7.16935">
        <ele>1685.33</ele>
        <time>2023-02-14T11:43:44Z</time>
      </trkpt>
      <trkpt lat="44.39663" lon="7.1694">
        <ele>1681.96</ele>
        <time>2023-02-14T11:43:51Z</time>
      </trkpt>
      <trkpt lat="44.39663" lon="7.16944">
        <ele>1681.48</ele>
        <time>2023-02-14T11:43:58Z</time>
      </trkpt>
      <trkpt lat="44.39661" lon="7.16947">
        <ele>1681</ele>
        <time>2023-02-14T11:43:59Z</time>
      </trkpt>
      <trkpt lat="44.39659" lon="7.16954">
        <ele>1680.52</ele>
        <time>2023-02-14T11:44:00Z</time>
      </trkpt>
      <trkpt lat="44.39656" lon="7.16959">
        <ele>1680.04</ele>
        <time>2023-02-14T11:44:01Z</time>
      </trkpt>
      <trkpt lat="44.39653" lon="7.16965">
        <ele>1679.56</ele>
        <time>2023-02-14T11:44:02Z</time>
      </trkpt>
      <trkpt lat="44.39642" lon="7.16994">
        <ele>1677.64</ele>
        <time>2023-02-14T11:44:08Z</time>
      </trkpt>
      <trkpt lat="44.39642" lon="7.17001">
        <ele>1677.16</ele>
        <time>2023-02-14T11:44:09Z</time>
      </trkpt>
      <trkpt lat="44.39642" lon="7.17009">
        <ele>1676.68</ele>
        <time>2023-02-14T11:44:10Z</time>
      </trkpt>
      <trkpt lat="44.39645" lon="7.17035">
        <ele>1674.27</ele>
        <time>2023-02-14T11:44:15Z</time>
      </trkpt>
      <trkpt lat="44.39644" lon="7.17047">
        <ele>1672.35</ele>
        <time>2023-02-14T11:44:19Z</time>
      </trkpt>
      <trkpt lat="44.39647" lon="7.17067">
        <ele>1668.51</ele>
        <time>2023-02-14T11:44:26Z</time>
      </trkpt>
      <trkpt lat="44.39646" lon="7.17078">
        <ele>1665.62</ele>
        <time>2023-02-14T11:44:33Z</time>
      </trkpt>
      <trkpt lat="44.39647" lon="7.17079">
        <ele>1664.66</ele>
        <time>2023-02-14T11:44:39Z</time>
      </trkpt>
      <trkpt lat="44.39646" lon="7.17097">
        <ele>1661.78</ele>
        <time>2023-02-14T11:44:46Z</time>
      </trkpt>
      <trkpt lat="44.39644" lon="7.17125">
        <ele>1657.93</ele>
        <time>2023-02-14T11:44:54Z</time>
      </trkpt>
      <trkpt lat="44.39645" lon="7.17131">
        <ele>1656.97</ele>
        <time>2023-02-14T11:45:02Z</time>
      </trkpt>
      <trkpt lat="44.39647" lon="7.17135">
        <ele>1655.53</ele>
        <time>2023-02-14T11:45:08Z</time>
      </trkpt>
      <trkpt lat="44.39647" lon="7.17155">
        <ele>1652.16</ele>
        <time>2023-02-14T11:45:14Z</time>
      </trkpt>
      <trkpt lat="44.3964" lon="7.17194">
        <ele>1646.4</ele>
        <time>2023-02-14T11:45:26Z</time>
      </trkpt>
      <trkpt lat="44.39639" lon="7.17203">
        <ele>1645.43</ele>
        <time>2023-02-14T11:45:29Z</time>
      </trkpt>
      <trkpt lat="44.39636" lon="7.17217">
        <ele>1643.51</ele>
        <time>2023-02-14T11:45:32Z</time>
      </trkpt>
      <trkpt lat="44.39643" lon="7.17215">
        <ele>1637.74</ele>
        <time>2023-02-14T11:45:37Z</time>
      </trkpt>
      <trkpt lat="44.39643" lon="7.17214">
        <ele>1636.3</ele>
        <time>2023-02-14T11:45:47Z</time>
      </trkpt>
      <trkpt lat="44.39644" lon="7.17217">
        <ele>1638.22</ele>
        <time>2023-02-14T11:45:54Z</time>
      </trkpt>
      <trkpt lat="44.39641" lon="7.1725">
        <ele>1635.34</ele>
        <time>2023-02-14T11:46:04Z</time>
      </trkpt>
      <trkpt lat="44.39642" lon="7.17261">
        <ele>1634.38</ele>
        <time>2023-02-14T11:46:06Z</time>
      </trkpt>
      <trkpt lat="44.39647" lon="7.17263">
        <ele>1632.46</ele>
        <time>2023-02-14T11:46:08Z</time>
      </trkpt>
      <trkpt lat="44.39648" lon="7.1726">
        <ele>1631.49</ele>
        <time>2023-02-14T11:46:09Z</time>
      </trkpt>
      <trkpt lat="44.39649" lon="7.17253">
        <ele>1627.65</ele>
        <time>2023-02-14T11:46:22Z</time>
      </trkpt>
      <trkpt lat="44.39647" lon="7.17259">
        <ele>1627.17</ele>
        <time>2023-02-14T11:46:26Z</time>
      </trkpt>
      <trkpt lat="44.39646" lon="7.17262">
        <ele>1627.17</ele>
        <time>2023-02-14T11:46:27Z</time>
      </trkpt>
      <trkpt lat="44.39646" lon="7.17278">
        <ele>1625.73</ele>
        <time>2023-02-14T11:46:35Z</time>
      </trkpt>
      <trkpt lat="44.39647" lon="7.17276">
        <ele>1625.25</ele>
        <time>2023-02-14T11:46:36Z</time>
      </trkpt>
      <trkpt lat="44.39651" lon="7.17269">
        <ele>1625.25</ele>
        <time>2023-02-14T11:46:39Z</time>
      </trkpt>
      <trkpt lat="44.39651" lon="7.17267">
        <ele>1624.77</ele>
        <time>2023-02-14T11:46:40Z</time>
      </trkpt>
      <trkpt lat="44.39652" lon="7.17265">
        <ele>1624.28</ele>
        <time>2023-02-14T11:46:41Z</time>
      </trkpt>
      <trkpt lat="44.39654" lon="7.17262">
        <ele>1623.8</ele>
        <time>2023-02-14T11:46:42Z</time>
      </trkpt>
      <trkpt lat="44.39655" lon="7.17261">
        <ele>1623.8</ele>
        <time>2023-02-14T11:46:43Z</time>
      </trkpt>
      <trkpt lat="44.39657" lon="7.17258">
        <ele>1623.8</ele>
        <time>2023-02-14T11:46:44Z</time>
      </trkpt>
      <trkpt lat="44.39662" lon="7.17249">
        <ele>1622.84</ele>
        <time>2023-02-14T11:46:46Z</time>
      </trkpt>
      <trkpt lat="44.39671" lon="7.1723">
        <ele>1620.92</ele>
        <time>2023-02-14T11:46:49Z</time>
      </trkpt>
      <trkpt lat="44.39675" lon="7.17223">
        <ele>1620.44</ele>
        <time>2023-02-14T11:46:50Z</time>
      </trkpt>
      <trkpt lat="44.397" lon="7.17196">
        <ele>1618.52</ele>
        <time>2023-02-14T11:46:57Z</time>
      </trkpt>
      <trkpt lat="44.39701" lon="7.17195">
        <ele>1618.52</ele>
        <time>2023-02-14T11:46:58Z</time>
      </trkpt>
      <trkpt lat="44.39703" lon="7.17194">
        <ele>1618.52</ele>
        <time>2023-02-14T11:46:59Z</time>
      </trkpt>
      <trkpt lat="44.39705" lon="7.17194">
        <ele>1618.52</ele>
        <time>2023-02-14T11:47:00Z</time>
      </trkpt>
      <trkpt lat="44.39707" lon="7.17194">
        <ele>1618.52</ele>
        <time>2023-02-14T11:47:01Z</time>
      </trkpt>
      <trkpt lat="44.39711" lon="7.17201">
        <ele>1619</ele>
        <time>2023-02-14T11:47:07Z</time>
      </trkpt>
      <trkpt lat="44.39712" lon="7.17203">
        <ele>1619</ele>
        <time>2023-02-14T11:47:08Z</time>
      </trkpt>
      <trkpt lat="44.39714" lon="7.17206">
        <ele>1619</ele>
        <time>2023-02-14T11:47:09Z</time>
      </trkpt>
      <trkpt lat="44.39731" lon="7.17275">
        <ele>1615.63</ele>
        <time>2023-02-14T11:47:21Z</time>
      </trkpt>
      <trkpt lat="44.39742" lon="7.17312">
        <ele>1614.19</ele>
        <time>2023-02-14T11:47:33Z</time>
      </trkpt>
      <trkpt lat="44.39745" lon="7.1732">
        <ele>1614.67</ele>
        <time>2023-02-14T11:47:41Z</time>
      </trkpt>
      <trkpt lat="44.39747" lon="7.17323">
        <ele>1614.67</ele>
        <time>2023-02-14T11:47:44Z</time>
      </trkpt>
      <trkpt lat="44.39752" lon="7.17346">
        <ele>1614.19</ele>
        <time>2023-02-14T11:47:55Z</time>
      </trkpt>
      <trkpt lat="44.39759" lon="7.17368">
        <ele>1615.15</ele>
        <time>2023-02-14T11:48:08Z</time>
      </trkpt>
      <trkpt lat="44.39767" lon="7.17378">
        <ele>1617.56</ele>
        <time>2023-02-14T11:48:18Z</time>
      </trkpt>
      <trkpt lat="44.39776" lon="7.17388">
        <ele>1619</ele>
        <time>2023-02-14T11:48:28Z</time>
      </trkpt>
      <trkpt lat="44.39781" lon="7.17396">
        <ele>1621.4</ele>
        <time>2023-02-14T11:48:38Z</time>
      </trkpt>
      <trkpt lat="44.39785" lon="7.17396">
        <ele>1620.44</ele>
        <time>2023-02-14T11:48:51Z</time>
      </trkpt>
      <trkpt lat="44.39792" lon="7.17404">
        <ele>1620.44</ele>
        <time>2023-02-14T11:49:03Z</time>
      </trkpt>
      <trkpt lat="44.39797" lon="7.17413">
        <ele>1620.92</ele>
        <time>2023-02-14T11:49:14Z</time>
      </trkpt>
      <trkpt lat="44.39799" lon="7.17418">
        <ele>1622.36</ele>
        <time>2023-02-14T11:49:25Z</time>
      </trkpt>
      <trkpt lat="44.39803" lon="7.17423">
        <ele>1623.32</ele>
        <time>2023-02-14T11:49:35Z</time>
      </trkpt>
      <trkpt lat="44.39809" lon="7.17423">
        <ele>1625.73</ele>
        <time>2023-02-14T11:49:49Z</time>
      </trkpt>
      <trkpt lat="44.39811" lon="7.17423">
        <ele>1625.73</ele>
        <time>2023-02-14T11:49:51Z</time>
      </trkpt>
      <trkpt lat="44.39817" lon="7.17423">
        <ele>1626.69</ele>
        <time>2023-02-14T11:50:04Z</time>
      </trkpt>
      <trkpt lat="44.39818" lon="7.17423">
        <ele>1627.17</ele>
        <time>2023-02-14T11:50:08Z</time>
      </trkpt>
      <trkpt lat="44.39826" lon="7.17423">
        <ele>1625.25</ele>
        <time>2023-02-14T11:50:21Z</time>
      </trkpt>
      <trkpt lat="44.3983" lon="7.17419">
        <ele>1622.36</ele>
        <time>2023-02-14T11:50:31Z</time>
      </trkpt>
      <trkpt lat="44.39835" lon="7.17416">
        <ele>1622.36</ele>
        <time>2023-02-14T11:50:42Z</time>
      </trkpt>
      <trkpt lat="44.39838" lon="7.17414">
        <ele>1622.84</ele>
        <time>2023-02-14T11:50:52Z</time>
      </trkpt>
      <trkpt lat="44.3984" lon="7.17415">
        <ele>1621.88</ele>
        <time>2023-02-14T11:51:02Z</time>
      </trkpt>
      <trkpt lat="44.39845" lon="7.17417">
        <ele>1622.36</ele>
        <time>2023-02-14T11:51:14Z</time>
      </trkpt>
      <trkpt lat="44.39849" lon="7.1742">
        <ele>1622.36</ele>
        <time>2023-02-14T11:51:26Z</time>
      </trkpt>
      <trkpt lat="44.39848" lon="7.1742">
        <ele>1619.48</ele>
        <time>2023-02-14T11:51:42Z</time>
      </trkpt>
      <trkpt lat="44.39849" lon="7.17423">
        <ele>1621.4</ele>
        <time>2023-02-14T11:52:02Z</time>
      </trkpt>
      <trkpt lat="44.39854" lon="7.1743">
        <ele>1625.25</ele>
        <time>2023-02-14T11:52:18Z</time>
      </trkpt>
      <trkpt lat="44.39859" lon="7.17425">
        <ele>1624.28</ele>
        <time>2023-02-14T11:52:32Z</time>
      </trkpt>
      <trkpt lat="44.39861" lon="7.17426">
        <ele>1624.28</ele>
        <time>2023-02-14T11:52:46Z</time>
      </trkpt>
      <trkpt lat="44.39861" lon="7.1742">
        <ele>1624.77</ele>
        <time>2023-02-14T11:53:00Z</time>
      </trkpt>
      <trkpt lat="44.39861" lon="7.17419">
        <ele>1624.28</ele>
        <time>2023-02-14T11:53:14Z</time>
      </trkpt>
      <trkpt lat="44.39862" lon="7.17422">
        <ele>1625.25</ele>
        <time>2023-02-14T11:53:25Z</time>
      </trkpt>
      <trkpt lat="44.39863" lon="7.17427">
        <ele>1625.73</ele>
        <time>2023-02-14T11:53:47Z</time>
      </trkpt>
      <trkpt lat="44.39864" lon="7.17428">
        <ele>1625.25</ele>
        <time>2023-02-14T11:54:07Z</time>
      </trkpt>
      <trkpt lat="44.39864" lon="7.17428">
        <ele>1625.25</ele>
        <time>2023-02-14T11:54:30Z</time>
      </trkpt>
      <trkpt lat="44.39866" lon="7.17429">
        <ele>1626.21</ele>
        <time>2023-02-14T11:54:44Z</time>
      </trkpt>
      <trkpt lat="44.39865" lon="7.1743">
        <ele>1625.73</ele>
        <time>2023-02-14T11:55:04Z</time>
      </trkpt>
      <trkpt lat="44.3986" lon="7.17423">
        <ele>1624.28</ele>
        <time>2023-02-14T11:55:18Z</time>
      </trkpt>
      <trkpt lat="44.39863" lon="7.17425">
        <ele>1624.77</ele>
        <time>2023-02-14T11:55:32Z</time>
      </trkpt>
      <trkpt lat="44.39861" lon="7.17423">
        <ele>1629.57</ele>
        <time>2023-02-14T11:55:42Z</time>
      </trkpt>
    </trkseg>
  </trk>
</gpx>